<?xml version="1.0" encoding="UTF-8" standalone="no" ?>
<gpx xmlns="http://www.topografix.com/GPX/1/1" xmlns:xsi="http://www.w3.org/2001/XMLSchema-instance" xsi:schemaLocation="http://www.topografix.com/GPX/1/1 http://www.topografix.com/GPX/1/1/gpx.xsd" version="1.1" creator="VisuGPX - https://www.visugpx.com">
  <metadata>
    <name>Autour Huez</name>
    <desc><![CDATA[Montée sur Villard Notre Dame aussi difficile que l'Alpes d'Huez]]></desc>
  </metadata>
  <trk>
    <name><![CDATA[Autour Huez on GPSies.com]]></name>
    <trkseg>
      <trkpt lat="45.05658" lon="6.03415">
        <ele>718</ele>
        <time>2009-08-07T17:55:30Z</time>
      </trkpt>
      <trkpt lat="45.05654" lon="6.03422">
        <ele>718</ele>
        <time>2009-08-07T17:55:31Z</time>
      </trkpt>
      <trkpt lat="45.05642" lon="6.03416">
        <ele>718</ele>
        <time>2009-08-07T17:55:33Z</time>
      </trkpt>
      <trkpt lat="45.05608" lon="6.03377">
        <ele>717</ele>
        <time>2009-08-07T17:55:41Z</time>
      </trkpt>
      <trkpt lat="45.05486" lon="6.03586">
        <ele>719</ele>
        <time>2009-08-07T17:56:16Z</time>
      </trkpt>
      <trkpt lat="45.05608" lon="6.03377">
        <ele>717</ele>
        <time>2009-08-07T17:56:51Z</time>
      </trkpt>
      <trkpt lat="45.0569" lon="6.03472">
        <ele>721</ele>
        <time>2009-08-07T17:57:10Z</time>
      </trkpt>
      <trkpt lat="45.05721" lon="6.03515">
        <ele>718</ele>
        <time>2009-08-07T17:57:18Z</time>
      </trkpt>
      <trkpt lat="45.0573" lon="6.03518">
        <ele>718</ele>
        <time>2009-08-07T17:57:20Z</time>
      </trkpt>
      <trkpt lat="45.05835" lon="6.03644">
        <ele>721</ele>
        <time>2009-08-07T17:57:45Z</time>
      </trkpt>
      <trkpt lat="45.05912" lon="6.03758">
        <ele>724</ele>
        <time>2009-08-07T17:58:05Z</time>
      </trkpt>
      <trkpt lat="45.05907" lon="6.03769">
        <ele>724</ele>
        <time>2009-08-07T17:58:07Z</time>
      </trkpt>
      <trkpt lat="45.05906" lon="6.03786">
        <ele>724</ele>
        <time>2009-08-07T17:58:09Z</time>
      </trkpt>
      <trkpt lat="45.05916" lon="6.03803">
        <ele>721</ele>
        <time>2009-08-07T17:58:12Z</time>
      </trkpt>
      <trkpt lat="45.05926" lon="6.03806">
        <ele>721</ele>
        <time>2009-08-07T17:58:14Z</time>
      </trkpt>
      <trkpt lat="45.05935" lon="6.03802">
        <ele>721</ele>
        <time>2009-08-07T17:58:15Z</time>
      </trkpt>
      <trkpt lat="45.05941" lon="6.03794">
        <ele>721</ele>
        <time>2009-08-07T17:58:17Z</time>
      </trkpt>
      <trkpt lat="45.05944" lon="6.03777">
        <ele>724</ele>
        <time>2009-08-07T17:58:19Z</time>
      </trkpt>
      <trkpt lat="45.06018" lon="6.03763">
        <ele>722</ele>
        <time>2009-08-07T17:58:33Z</time>
      </trkpt>
      <trkpt lat="45.06115" lon="6.03736">
        <ele>719</ele>
        <time>2009-08-07T17:58:51Z</time>
      </trkpt>
      <trkpt lat="45.06145" lon="6.03725">
        <ele>717</ele>
        <time>2009-08-07T17:58:56Z</time>
      </trkpt>
      <trkpt lat="45.06211" lon="6.03689">
        <ele>720</ele>
        <time>2009-08-07T17:59:09Z</time>
      </trkpt>
      <trkpt lat="45.06263" lon="6.03695">
        <ele>720</ele>
        <time>2009-08-07T17:59:19Z</time>
      </trkpt>
      <trkpt lat="45.06276" lon="6.03702">
        <ele>720</ele>
        <time>2009-08-07T17:59:21Z</time>
      </trkpt>
      <trkpt lat="45.06288" lon="6.03716">
        <ele>719</ele>
        <time>2009-08-07T17:59:24Z</time>
      </trkpt>
      <trkpt lat="45.06482" lon="6.03981">
        <ele>729</ele>
        <time>2009-08-07T18:00:13Z</time>
      </trkpt>
      <trkpt lat="45.06495" lon="6.03991">
        <ele>729</ele>
        <time>2009-08-07T18:00:16Z</time>
      </trkpt>
      <trkpt lat="45.06533" lon="6.03985">
        <ele>729</ele>
        <time>2009-08-07T18:00:23Z</time>
      </trkpt>
      <trkpt lat="45.06649" lon="6.03949">
        <ele>729</ele>
        <time>2009-08-07T18:00:44Z</time>
      </trkpt>
      <trkpt lat="45.06765" lon="6.0393">
        <ele>744</ele>
        <time>2009-08-07T18:01:06Z</time>
      </trkpt>
      <trkpt lat="45.06813" lon="6.03914">
        <ele>760</ele>
        <time>2009-08-07T18:01:15Z</time>
      </trkpt>
      <trkpt lat="45.06893" lon="6.03916">
        <ele>780</ele>
        <time>2009-08-07T18:01:29Z</time>
      </trkpt>
      <trkpt lat="45.06985" lon="6.03869">
        <ele>770</ele>
        <time>2009-08-07T18:01:47Z</time>
      </trkpt>
      <trkpt lat="45.07014" lon="6.0386">
        <ele>770</ele>
        <time>2009-08-07T18:01:52Z</time>
      </trkpt>
      <trkpt lat="45.07053" lon="6.0386">
        <ele>782</ele>
        <time>2009-08-07T18:02:00Z</time>
      </trkpt>
      <trkpt lat="45.07098" lon="6.03875">
        <ele>824</ele>
        <time>2009-08-07T18:02:08Z</time>
      </trkpt>
      <trkpt lat="45.07153" lon="6.03883">
        <ele>827</ele>
        <time>2009-08-07T18:02:18Z</time>
      </trkpt>
      <trkpt lat="45.07166" lon="6.03889">
        <ele>827</ele>
        <time>2009-08-07T18:02:20Z</time>
      </trkpt>
      <trkpt lat="45.07167" lon="6.03906">
        <ele>827</ele>
        <time>2009-08-07T18:02:23Z</time>
      </trkpt>
      <trkpt lat="45.07163" lon="6.0391">
        <ele>827</ele>
        <time>2009-08-07T18:02:24Z</time>
      </trkpt>
      <trkpt lat="45.07086" lon="6.03903">
        <ele>824</ele>
        <time>2009-08-07T18:02:38Z</time>
      </trkpt>
      <trkpt lat="45.07056" lon="6.0391">
        <ele>824</ele>
        <time>2009-08-07T18:02:43Z</time>
      </trkpt>
      <trkpt lat="45.07034" lon="6.03925">
        <ele>802</ele>
        <time>2009-08-07T18:02:48Z</time>
      </trkpt>
      <trkpt lat="45.06912" lon="6.04072">
        <ele>855</ele>
        <time>2009-08-07T18:03:17Z</time>
      </trkpt>
      <trkpt lat="45.0679" lon="6.04103">
        <ele>832</ele>
        <time>2009-08-07T18:03:39Z</time>
      </trkpt>
      <trkpt lat="45.06745" lon="6.04122">
        <ele>832</ele>
        <time>2009-08-07T18:03:48Z</time>
      </trkpt>
      <trkpt lat="45.06654" lon="6.04182">
        <ele>862</ele>
        <time>2009-08-07T18:04:06Z</time>
      </trkpt>
      <trkpt lat="45.06649" lon="6.04186">
        <ele>862</ele>
        <time>2009-08-07T18:04:07Z</time>
      </trkpt>
      <trkpt lat="45.06647" lon="6.04199">
        <ele>862</ele>
        <time>2009-08-07T18:04:09Z</time>
      </trkpt>
      <trkpt lat="45.06649" lon="6.04204">
        <ele>862</ele>
        <time>2009-08-07T18:04:10Z</time>
      </trkpt>
      <trkpt lat="45.06657" lon="6.04206">
        <ele>862</ele>
        <time>2009-08-07T18:04:11Z</time>
      </trkpt>
      <trkpt lat="45.06677" lon="6.04202">
        <ele>862</ele>
        <time>2009-08-07T18:04:15Z</time>
      </trkpt>
      <trkpt lat="45.06722" lon="6.04164">
        <ele>876</ele>
        <time>2009-08-07T18:04:24Z</time>
      </trkpt>
      <trkpt lat="45.06769" lon="6.04163">
        <ele>876</ele>
        <time>2009-08-07T18:04:33Z</time>
      </trkpt>
      <trkpt lat="45.06778" lon="6.04175">
        <ele>876</ele>
        <time>2009-08-07T18:04:35Z</time>
      </trkpt>
      <trkpt lat="45.06775" lon="6.04187">
        <ele>876</ele>
        <time>2009-08-07T18:04:37Z</time>
      </trkpt>
      <trkpt lat="45.06769" lon="6.04189">
        <ele>876</ele>
        <time>2009-08-07T18:04:38Z</time>
      </trkpt>
      <trkpt lat="45.06725" lon="6.04189">
        <ele>876</ele>
        <time>2009-08-07T18:04:46Z</time>
      </trkpt>
      <trkpt lat="45.06669" lon="6.04239">
        <ele>905</ele>
        <time>2009-08-07T18:04:58Z</time>
      </trkpt>
      <trkpt lat="45.066" lon="6.04281">
        <ele>866</ele>
        <time>2009-08-07T18:05:12Z</time>
      </trkpt>
      <trkpt lat="45.06582" lon="6.04303">
        <ele>880</ele>
        <time>2009-08-07T18:05:16Z</time>
      </trkpt>
      <trkpt lat="45.06584" lon="6.04315">
        <ele>880</ele>
        <time>2009-08-07T18:05:17Z</time>
      </trkpt>
      <trkpt lat="45.06599" lon="6.0432">
        <ele>880</ele>
        <time>2009-08-07T18:05:20Z</time>
      </trkpt>
      <trkpt lat="45.06649" lon="6.04311">
        <ele>937</ele>
        <time>2009-08-07T18:05:29Z</time>
      </trkpt>
      <trkpt lat="45.06695" lon="6.04271">
        <ele>905</ele>
        <time>2009-08-07T18:05:39Z</time>
      </trkpt>
      <trkpt lat="45.06704" lon="6.04268">
        <ele>905</ele>
        <time>2009-08-07T18:05:41Z</time>
      </trkpt>
      <trkpt lat="45.0677" lon="6.04263">
        <ele>922</ele>
        <time>2009-08-07T18:05:53Z</time>
      </trkpt>
      <trkpt lat="45.06831" lon="6.04248">
        <ele>951</ele>
        <time>2009-08-07T18:06:04Z</time>
      </trkpt>
      <trkpt lat="45.06852" lon="6.04248">
        <ele>951</ele>
        <time>2009-08-07T18:06:08Z</time>
      </trkpt>
      <trkpt lat="45.06863" lon="6.04253">
        <ele>951</ele>
        <time>2009-08-07T18:06:10Z</time>
      </trkpt>
      <trkpt lat="45.06866" lon="6.04259">
        <ele>951</ele>
        <time>2009-08-07T18:06:11Z</time>
      </trkpt>
      <trkpt lat="45.06863" lon="6.04271">
        <ele>951</ele>
        <time>2009-08-07T18:06:13Z</time>
      </trkpt>
      <trkpt lat="45.06811" lon="6.04275">
        <ele>951</ele>
        <time>2009-08-07T18:06:22Z</time>
      </trkpt>
      <trkpt lat="45.06722" lon="6.04336">
        <ele>967</ele>
        <time>2009-08-07T18:06:40Z</time>
      </trkpt>
      <trkpt lat="45.06705" lon="6.04365">
        <ele>937</ele>
        <time>2009-08-07T18:06:45Z</time>
      </trkpt>
      <trkpt lat="45.06707" lon="6.04386">
        <ele>955</ele>
        <time>2009-08-07T18:06:48Z</time>
      </trkpt>
      <trkpt lat="45.06718" lon="6.04401">
        <ele>980</ele>
        <time>2009-08-07T18:06:51Z</time>
      </trkpt>
      <trkpt lat="45.06785" lon="6.04452">
        <ele>980</ele>
        <time>2009-08-07T18:07:04Z</time>
      </trkpt>
      <trkpt lat="45.06865" lon="6.04474">
        <ele>980</ele>
        <time>2009-08-07T18:07:19Z</time>
      </trkpt>
      <trkpt lat="45.06909" lon="6.04534">
        <ele>999</ele>
        <time>2009-08-07T18:07:30Z</time>
      </trkpt>
      <trkpt lat="45.0698" lon="6.0457">
        <ele>1001</ele>
        <time>2009-08-07T18:07:44Z</time>
      </trkpt>
      <trkpt lat="45.06997" lon="6.0459">
        <ele>1001</ele>
        <time>2009-08-07T18:07:48Z</time>
      </trkpt>
      <trkpt lat="45.07033" lon="6.04661">
        <ele>984</ele>
        <time>2009-08-07T18:07:59Z</time>
      </trkpt>
      <trkpt lat="45.07054" lon="6.04693">
        <ele>1023</ele>
        <time>2009-08-07T18:08:05Z</time>
      </trkpt>
      <trkpt lat="45.07077" lon="6.0472">
        <ele>1007</ele>
        <time>2009-08-07T18:08:10Z</time>
      </trkpt>
      <trkpt lat="45.07127" lon="6.04757">
        <ele>1037</ele>
        <time>2009-08-07T18:08:21Z</time>
      </trkpt>
      <trkpt lat="45.0716" lon="6.04804">
        <ele>1015</ele>
        <time>2009-08-07T18:08:29Z</time>
      </trkpt>
      <trkpt lat="45.07176" lon="6.04809">
        <ele>1015</ele>
        <time>2009-08-07T18:08:32Z</time>
      </trkpt>
      <trkpt lat="45.0718" lon="6.04802">
        <ele>1015</ele>
        <time>2009-08-07T18:08:33Z</time>
      </trkpt>
      <trkpt lat="45.07176" lon="6.04779">
        <ele>1037</ele>
        <time>2009-08-07T18:08:36Z</time>
      </trkpt>
      <trkpt lat="45.07109" lon="6.04689">
        <ele>1023</ele>
        <time>2009-08-07T18:08:53Z</time>
      </trkpt>
      <trkpt lat="45.07094" lon="6.04654">
        <ele>1023</ele>
        <time>2009-08-07T18:08:58Z</time>
      </trkpt>
      <trkpt lat="45.07095" lon="6.045">
        <ele>1042</ele>
        <time>2009-08-07T18:09:18Z</time>
      </trkpt>
      <trkpt lat="45.07084" lon="6.04438">
        <ele>1068</ele>
        <time>2009-08-07T18:09:26Z</time>
      </trkpt>
      <trkpt lat="45.07091" lon="6.04432">
        <ele>1068</ele>
        <time>2009-08-07T18:09:28Z</time>
      </trkpt>
      <trkpt lat="45.07104" lon="6.04438">
        <ele>1068</ele>
        <time>2009-08-07T18:09:30Z</time>
      </trkpt>
      <trkpt lat="45.07119" lon="6.04469">
        <ele>1042</ele>
        <time>2009-08-07T18:09:35Z</time>
      </trkpt>
      <trkpt lat="45.0714" lon="6.04605">
        <ele>1070</ele>
        <time>2009-08-07T18:09:53Z</time>
      </trkpt>
      <trkpt lat="45.07152" lon="6.04635">
        <ele>1061</ele>
        <time>2009-08-07T18:09:58Z</time>
      </trkpt>
      <trkpt lat="45.07175" lon="6.04664">
        <ele>1061</ele>
        <time>2009-08-07T18:10:03Z</time>
      </trkpt>
      <trkpt lat="45.07254" lon="6.04734">
        <ele>1074</ele>
        <time>2009-08-07T18:10:20Z</time>
      </trkpt>
      <trkpt lat="45.07288" lon="6.04758">
        <ele>1074</ele>
        <time>2009-08-07T18:10:27Z</time>
      </trkpt>
      <trkpt lat="45.07328" lon="6.04776">
        <ele>1098</ele>
        <time>2009-08-07T18:10:35Z</time>
      </trkpt>
      <trkpt lat="45.07343" lon="6.04794">
        <ele>1083</ele>
        <time>2009-08-07T18:10:38Z</time>
      </trkpt>
      <trkpt lat="45.07351" lon="6.04812">
        <ele>1083</ele>
        <time>2009-08-07T18:10:41Z</time>
      </trkpt>
      <trkpt lat="45.07355" lon="6.04837">
        <ele>1083</ele>
        <time>2009-08-07T18:10:44Z</time>
      </trkpt>
      <trkpt lat="45.07352" lon="6.04869">
        <ele>1083</ele>
        <time>2009-08-07T18:10:48Z</time>
      </trkpt>
      <trkpt lat="45.07336" lon="6.04903">
        <ele>1090</ele>
        <time>2009-08-07T18:10:54Z</time>
      </trkpt>
      <trkpt lat="45.07313" lon="6.04968">
        <ele>1116</ele>
        <time>2009-08-07T18:11:03Z</time>
      </trkpt>
      <trkpt lat="45.07239" lon="6.05089">
        <ele>1102</ele>
        <time>2009-08-07T18:11:24Z</time>
      </trkpt>
      <trkpt lat="45.07238" lon="6.051">
        <ele>1102</ele>
        <time>2009-08-07T18:11:25Z</time>
      </trkpt>
      <trkpt lat="45.07242" lon="6.05109">
        <ele>1102</ele>
        <time>2009-08-07T18:11:26Z</time>
      </trkpt>
      <trkpt lat="45.07252" lon="6.05111">
        <ele>1102</ele>
        <time>2009-08-07T18:11:28Z</time>
      </trkpt>
      <trkpt lat="45.0726" lon="6.05106">
        <ele>1102</ele>
        <time>2009-08-07T18:11:30Z</time>
      </trkpt>
      <trkpt lat="45.07289" lon="6.05068">
        <ele>1102</ele>
        <time>2009-08-07T18:11:37Z</time>
      </trkpt>
      <trkpt lat="45.07339" lon="6.0502">
        <ele>1116</ele>
        <time>2009-08-07T18:11:48Z</time>
      </trkpt>
      <trkpt lat="45.07382" lon="6.04966">
        <ele>1151</ele>
        <time>2009-08-07T18:11:58Z</time>
      </trkpt>
      <trkpt lat="45.07394" lon="6.04958">
        <ele>1121</ele>
        <time>2009-08-07T18:12:01Z</time>
      </trkpt>
      <trkpt lat="45.07447" lon="6.04949">
        <ele>1121</ele>
        <time>2009-08-07T18:12:11Z</time>
      </trkpt>
      <trkpt lat="45.07471" lon="6.04923">
        <ele>1159</ele>
        <time>2009-08-07T18:12:16Z</time>
      </trkpt>
      <trkpt lat="45.07495" lon="6.04878">
        <ele>1159</ele>
        <time>2009-08-07T18:12:23Z</time>
      </trkpt>
      <trkpt lat="45.07497" lon="6.04846">
        <ele>1158</ele>
        <time>2009-08-07T18:12:27Z</time>
      </trkpt>
      <trkpt lat="45.07481" lon="6.04788">
        <ele>1163</ele>
        <time>2009-08-07T18:12:35Z</time>
      </trkpt>
      <trkpt lat="45.07483" lon="6.04776">
        <ele>1163</ele>
        <time>2009-08-07T18:12:37Z</time>
      </trkpt>
      <trkpt lat="45.07492" lon="6.04776">
        <ele>1163</ele>
        <time>2009-08-07T18:12:39Z</time>
      </trkpt>
      <trkpt lat="45.07519" lon="6.04842">
        <ele>1158</ele>
        <time>2009-08-07T18:12:48Z</time>
      </trkpt>
      <trkpt lat="45.07521" lon="6.04855">
        <ele>1158</ele>
        <time>2009-08-07T18:12:50Z</time>
      </trkpt>
      <trkpt lat="45.07521" lon="6.04932">
        <ele>1159</ele>
        <time>2009-08-07T18:13:00Z</time>
      </trkpt>
      <trkpt lat="45.07516" lon="6.04966">
        <ele>1184</ele>
        <time>2009-08-07T18:13:04Z</time>
      </trkpt>
      <trkpt lat="45.07506" lon="6.04986">
        <ele>1184</ele>
        <time>2009-08-07T18:13:08Z</time>
      </trkpt>
      <trkpt lat="45.07495" lon="6.04997">
        <ele>1184</ele>
        <time>2009-08-07T18:13:10Z</time>
      </trkpt>
      <trkpt lat="45.07433" lon="6.05026">
        <ele>1151</ele>
        <time>2009-08-07T18:13:22Z</time>
      </trkpt>
      <trkpt lat="45.07328" lon="6.05176">
        <ele>1183</ele>
        <time>2009-08-07T18:13:49Z</time>
      </trkpt>
      <trkpt lat="45.07326" lon="6.05188">
        <ele>1183</ele>
        <time>2009-08-07T18:13:51Z</time>
      </trkpt>
      <trkpt lat="45.07332" lon="6.05196">
        <ele>1183</ele>
        <time>2009-08-07T18:13:52Z</time>
      </trkpt>
      <trkpt lat="45.07347" lon="6.05189">
        <ele>1183</ele>
        <time>2009-08-07T18:13:55Z</time>
      </trkpt>
      <trkpt lat="45.07376" lon="6.05147">
        <ele>1224</ele>
        <time>2009-08-07T18:14:03Z</time>
      </trkpt>
      <trkpt lat="45.07441" lon="6.05084">
        <ele>1187</ele>
        <time>2009-08-07T18:14:17Z</time>
      </trkpt>
      <trkpt lat="45.07538" lon="6.05047">
        <ele>1220</ele>
        <time>2009-08-07T18:14:35Z</time>
      </trkpt>
      <trkpt lat="45.07565" lon="6.05029">
        <ele>1224</ele>
        <time>2009-08-07T18:14:41Z</time>
      </trkpt>
      <trkpt lat="45.07578" lon="6.0499">
        <ele>1224</ele>
        <time>2009-08-07T18:14:46Z</time>
      </trkpt>
      <trkpt lat="45.07626" lon="6.04881">
        <ele>1254</ele>
        <time>2009-08-07T18:15:03Z</time>
      </trkpt>
      <trkpt lat="45.0763" lon="6.04856">
        <ele>1255</ele>
        <time>2009-08-07T18:15:06Z</time>
      </trkpt>
      <trkpt lat="45.07623" lon="6.04788">
        <ele>1204</ele>
        <time>2009-08-07T18:15:15Z</time>
      </trkpt>
      <trkpt lat="45.07636" lon="6.04733">
        <ele>1253</ele>
        <time>2009-08-07T18:15:22Z</time>
      </trkpt>
      <trkpt lat="45.07647" lon="6.0472">
        <ele>1253</ele>
        <time>2009-08-07T18:15:25Z</time>
      </trkpt>
      <trkpt lat="45.07655" lon="6.04727">
        <ele>1253</ele>
        <time>2009-08-07T18:15:27Z</time>
      </trkpt>
      <trkpt lat="45.07655" lon="6.04736">
        <ele>1253</ele>
        <time>2009-08-07T18:15:28Z</time>
      </trkpt>
      <trkpt lat="45.07642" lon="6.04803">
        <ele>1255</ele>
        <time>2009-08-07T18:15:37Z</time>
      </trkpt>
      <trkpt lat="45.07666" lon="6.04865">
        <ele>1255</ele>
        <time>2009-08-07T18:15:46Z</time>
      </trkpt>
      <trkpt lat="45.07674" lon="6.04916">
        <ele>1254</ele>
        <time>2009-08-07T18:15:52Z</time>
      </trkpt>
      <trkpt lat="45.07671" lon="6.04945">
        <ele>1254</ele>
        <time>2009-08-07T18:15:56Z</time>
      </trkpt>
      <trkpt lat="45.07652" lon="6.0499">
        <ele>1269</ele>
        <time>2009-08-07T18:16:03Z</time>
      </trkpt>
      <trkpt lat="45.07642" lon="6.05048">
        <ele>1289</ele>
        <time>2009-08-07T18:16:11Z</time>
      </trkpt>
      <trkpt lat="45.07632" lon="6.05082">
        <ele>1289</ele>
        <time>2009-08-07T18:16:15Z</time>
      </trkpt>
      <trkpt lat="45.07622" lon="6.05103">
        <ele>1252</ele>
        <time>2009-08-07T18:16:19Z</time>
      </trkpt>
      <trkpt lat="45.07589" lon="6.05142">
        <ele>1284</ele>
        <time>2009-08-07T18:16:26Z</time>
      </trkpt>
      <trkpt lat="45.07541" lon="6.05177">
        <ele>1260</ele>
        <time>2009-08-07T18:16:36Z</time>
      </trkpt>
      <trkpt lat="45.07481" lon="6.05206">
        <ele>1260</ele>
        <time>2009-08-07T18:16:48Z</time>
      </trkpt>
      <trkpt lat="45.07476" lon="6.0521">
        <ele>1310</ele>
        <time>2009-08-07T18:16:49Z</time>
      </trkpt>
      <trkpt lat="45.07475" lon="6.05222">
        <ele>1310</ele>
        <time>2009-08-07T18:16:50Z</time>
      </trkpt>
      <trkpt lat="45.07477" lon="6.05228">
        <ele>1310</ele>
        <time>2009-08-07T18:16:51Z</time>
      </trkpt>
      <trkpt lat="45.07486" lon="6.05232">
        <ele>1310</ele>
        <time>2009-08-07T18:16:53Z</time>
      </trkpt>
      <trkpt lat="45.07504" lon="6.05233">
        <ele>1310</ele>
        <time>2009-08-07T18:16:56Z</time>
      </trkpt>
      <trkpt lat="45.07531" lon="6.05224">
        <ele>1310</ele>
        <time>2009-08-07T18:17:01Z</time>
      </trkpt>
      <trkpt lat="45.0758" lon="6.05196">
        <ele>1284</ele>
        <time>2009-08-07T18:17:11Z</time>
      </trkpt>
      <trkpt lat="45.07666" lon="6.05161">
        <ele>1314</ele>
        <time>2009-08-07T18:17:27Z</time>
      </trkpt>
      <trkpt lat="45.07688" lon="6.05146">
        <ele>1314</ele>
        <time>2009-08-07T18:17:32Z</time>
      </trkpt>
      <trkpt lat="45.07731" lon="6.05051">
        <ele>1337</ele>
        <time>2009-08-07T18:17:46Z</time>
      </trkpt>
      <trkpt lat="45.07759" lon="6.05016">
        <ele>1319</ele>
        <time>2009-08-07T18:17:53Z</time>
      </trkpt>
      <trkpt lat="45.0779" lon="6.04955">
        <ele>1311</ele>
        <time>2009-08-07T18:18:03Z</time>
      </trkpt>
      <trkpt lat="45.07795" lon="6.04914">
        <ele>1357</ele>
        <time>2009-08-07T18:18:08Z</time>
      </trkpt>
      <trkpt lat="45.07783" lon="6.04856">
        <ele>1315</ele>
        <time>2009-08-07T18:18:16Z</time>
      </trkpt>
      <trkpt lat="45.07781" lon="6.04797">
        <ele>1315</ele>
        <time>2009-08-07T18:18:23Z</time>
      </trkpt>
      <trkpt lat="45.07784" lon="6.04785">
        <ele>1315</ele>
        <time>2009-08-07T18:18:25Z</time>
      </trkpt>
      <trkpt lat="45.07792" lon="6.04786">
        <ele>1376</ele>
        <time>2009-08-07T18:18:26Z</time>
      </trkpt>
      <trkpt lat="45.07801" lon="6.04805">
        <ele>1370</ele>
        <time>2009-08-07T18:18:29Z</time>
      </trkpt>
      <trkpt lat="45.07811" lon="6.04855">
        <ele>1370</ele>
        <time>2009-08-07T18:18:36Z</time>
      </trkpt>
      <trkpt lat="45.07833" lon="6.04908">
        <ele>1357</ele>
        <time>2009-08-07T18:18:44Z</time>
      </trkpt>
      <trkpt lat="45.07835" lon="6.0496">
        <ele>1363</ele>
        <time>2009-08-07T18:18:51Z</time>
      </trkpt>
      <trkpt lat="45.07832" lon="6.04994">
        <ele>1363</ele>
        <time>2009-08-07T18:18:55Z</time>
      </trkpt>
      <trkpt lat="45.07821" lon="6.05042">
        <ele>1378</ele>
        <time>2009-08-07T18:19:01Z</time>
      </trkpt>
      <trkpt lat="45.07796" lon="6.0512">
        <ele>1378</ele>
        <time>2009-08-07T18:19:12Z</time>
      </trkpt>
      <trkpt lat="45.07771" lon="6.05182">
        <ele>1358</ele>
        <time>2009-08-07T18:19:22Z</time>
      </trkpt>
      <trkpt lat="45.07746" lon="6.05266">
        <ele>1383</ele>
        <time>2009-08-07T18:19:33Z</time>
      </trkpt>
      <trkpt lat="45.07739" lon="6.05278">
        <ele>1383</ele>
        <time>2009-08-07T18:19:35Z</time>
      </trkpt>
      <trkpt lat="45.07712" lon="6.053">
        <ele>1393</ele>
        <time>2009-08-07T18:19:41Z</time>
      </trkpt>
      <trkpt lat="45.07708" lon="6.05309">
        <ele>1364</ele>
        <time>2009-08-07T18:19:42Z</time>
      </trkpt>
      <trkpt lat="45.07709" lon="6.05323">
        <ele>1393</ele>
        <time>2009-08-07T18:19:44Z</time>
      </trkpt>
      <trkpt lat="45.0772" lon="6.05336">
        <ele>1393</ele>
        <time>2009-08-07T18:19:47Z</time>
      </trkpt>
      <trkpt lat="45.07756" lon="6.05347">
        <ele>1393</ele>
        <time>2009-08-07T18:19:54Z</time>
      </trkpt>
      <trkpt lat="45.07786" lon="6.05373">
        <ele>1393</ele>
        <time>2009-08-07T18:20:00Z</time>
      </trkpt>
      <trkpt lat="45.07906" lon="6.05453">
        <ele>1425</ele>
        <time>2009-08-07T18:20:24Z</time>
      </trkpt>
      <trkpt lat="45.07921" lon="6.05457">
        <ele>1425</ele>
        <time>2009-08-07T18:20:27Z</time>
      </trkpt>
      <trkpt lat="45.07964" lon="6.05451">
        <ele>1442</ele>
        <time>2009-08-07T18:20:35Z</time>
      </trkpt>
      <trkpt lat="45.08003" lon="6.05458">
        <ele>1442</ele>
        <time>2009-08-07T18:20:42Z</time>
      </trkpt>
      <trkpt lat="45.08056" lon="6.05485">
        <ele>1434</ele>
        <time>2009-08-07T18:20:52Z</time>
      </trkpt>
      <trkpt lat="45.08071" lon="6.05505">
        <ele>1434</ele>
        <time>2009-08-07T18:20:56Z</time>
      </trkpt>
      <trkpt lat="45.08073" lon="6.05534">
        <ele>1434</ele>
        <time>2009-08-07T18:21:00Z</time>
      </trkpt>
      <trkpt lat="45.08066" lon="6.0555">
        <ele>1448</ele>
        <time>2009-08-07T18:21:02Z</time>
      </trkpt>
      <trkpt lat="45.08054" lon="6.0556">
        <ele>1448</ele>
        <time>2009-08-07T18:21:05Z</time>
      </trkpt>
      <trkpt lat="45.08031" lon="6.05568">
        <ele>1426</ele>
        <time>2009-08-07T18:21:09Z</time>
      </trkpt>
      <trkpt lat="45.08012" lon="6.05585">
        <ele>1426</ele>
        <time>2009-08-07T18:21:13Z</time>
      </trkpt>
      <trkpt lat="45.08003" lon="6.0563">
        <ele>1432</ele>
        <time>2009-08-07T18:21:19Z</time>
      </trkpt>
      <trkpt lat="45.08005" lon="6.05673">
        <ele>1432</ele>
        <time>2009-08-07T18:21:24Z</time>
      </trkpt>
      <trkpt lat="45.0801" lon="6.05694">
        <ele>1432</ele>
        <time>2009-08-07T18:21:27Z</time>
      </trkpt>
      <trkpt lat="45.0808" lon="6.05862">
        <ele>1455</ele>
        <time>2009-08-07T18:21:52Z</time>
      </trkpt>
      <trkpt lat="45.08127" lon="6.05949">
        <ele>1483</ele>
        <time>2009-08-07T18:22:06Z</time>
      </trkpt>
      <trkpt lat="45.08152" lon="6.0601">
        <ele>1477</ele>
        <time>2009-08-07T18:22:16Z</time>
      </trkpt>
      <trkpt lat="45.08194" lon="6.06167">
        <ele>1459</ele>
        <time>2009-08-07T18:22:37Z</time>
      </trkpt>
      <trkpt lat="45.08198" lon="6.06193">
        <ele>1459</ele>
        <time>2009-08-07T18:22:41Z</time>
      </trkpt>
      <trkpt lat="45.0821" lon="6.06211">
        <ele>1492</ele>
        <time>2009-08-07T18:22:44Z</time>
      </trkpt>
      <trkpt lat="45.08218" lon="6.06208">
        <ele>1504</ele>
        <time>2009-08-07T18:22:45Z</time>
      </trkpt>
      <trkpt lat="45.08223" lon="6.06197">
        <ele>1504</ele>
        <time>2009-08-07T18:22:47Z</time>
      </trkpt>
      <trkpt lat="45.08204" lon="6.06132">
        <ele>1459</ele>
        <time>2009-08-07T18:22:56Z</time>
      </trkpt>
      <trkpt lat="45.08209" lon="6.06016">
        <ele>1512</ele>
        <time>2009-08-07T18:23:11Z</time>
      </trkpt>
      <trkpt lat="45.08218" lon="6.05937">
        <ele>1511</ele>
        <time>2009-08-07T18:23:21Z</time>
      </trkpt>
      <trkpt lat="45.0822" lon="6.05819">
        <ele>1509</ele>
        <time>2009-08-07T18:23:36Z</time>
      </trkpt>
      <trkpt lat="45.08224" lon="6.05791">
        <ele>1500</ele>
        <time>2009-08-07T18:23:40Z</time>
      </trkpt>
      <trkpt lat="45.08234" lon="6.05765">
        <ele>1500</ele>
        <time>2009-08-07T18:23:44Z</time>
      </trkpt>
      <trkpt lat="45.08242" lon="6.05755">
        <ele>1500</ele>
        <time>2009-08-07T18:23:46Z</time>
      </trkpt>
      <trkpt lat="45.08353" lon="6.05734">
        <ele>1511</ele>
        <time>2009-08-07T18:24:06Z</time>
      </trkpt>
      <trkpt lat="45.0836" lon="6.05735">
        <ele>1511</ele>
        <time>2009-08-07T18:24:07Z</time>
      </trkpt>
      <trkpt lat="45.08365" lon="6.05742">
        <ele>1511</ele>
        <time>2009-08-07T18:24:09Z</time>
      </trkpt>
      <trkpt lat="45.08365" lon="6.05749">
        <ele>1511</ele>
        <time>2009-08-07T18:24:10Z</time>
      </trkpt>
      <trkpt lat="45.08357" lon="6.05763">
        <ele>1511</ele>
        <time>2009-08-07T18:24:12Z</time>
      </trkpt>
      <trkpt lat="45.08324" lon="6.05787">
        <ele>1511</ele>
        <time>2009-08-07T18:24:19Z</time>
      </trkpt>
      <trkpt lat="45.08304" lon="6.0582">
        <ele>1523</ele>
        <time>2009-08-07T18:24:24Z</time>
      </trkpt>
      <trkpt lat="45.08294" lon="6.05872">
        <ele>1523</ele>
        <time>2009-08-07T18:24:31Z</time>
      </trkpt>
      <trkpt lat="45.08294" lon="6.05942">
        <ele>1538</ele>
        <time>2009-08-07T18:24:40Z</time>
      </trkpt>
      <trkpt lat="45.08298" lon="6.05987">
        <ele>1546</ele>
        <time>2009-08-07T18:24:46Z</time>
      </trkpt>
      <trkpt lat="45.08314" lon="6.06071">
        <ele>1550</ele>
        <time>2009-08-07T18:24:57Z</time>
      </trkpt>
      <trkpt lat="45.08342" lon="6.06174">
        <ele>1547</ele>
        <time>2009-08-07T18:25:11Z</time>
      </trkpt>
      <trkpt lat="45.0834" lon="6.0624">
        <ele>1542</ele>
        <time>2009-08-07T18:25:20Z</time>
      </trkpt>
      <trkpt lat="45.08348" lon="6.06246">
        <ele>1542</ele>
        <time>2009-08-07T18:25:21Z</time>
      </trkpt>
      <trkpt lat="45.08358" lon="6.06226">
        <ele>1542</ele>
        <time>2009-08-07T18:25:25Z</time>
      </trkpt>
      <trkpt lat="45.08364" lon="6.06113">
        <ele>1550</ele>
        <time>2009-08-07T18:25:39Z</time>
      </trkpt>
      <trkpt lat="45.08373" lon="6.06085">
        <ele>1550</ele>
        <time>2009-08-07T18:25:43Z</time>
      </trkpt>
      <trkpt lat="45.08405" lon="6.06025">
        <ele>1566</ele>
        <time>2009-08-07T18:25:53Z</time>
      </trkpt>
      <trkpt lat="45.08422" lon="6.06014">
        <ele>1566</ele>
        <time>2009-08-07T18:25:56Z</time>
      </trkpt>
      <trkpt lat="45.08492" lon="6.05992">
        <ele>1581</ele>
        <time>2009-08-07T18:26:09Z</time>
      </trkpt>
      <trkpt lat="45.08506" lon="6.05994">
        <ele>1581</ele>
        <time>2009-08-07T18:26:12Z</time>
      </trkpt>
      <trkpt lat="45.08538" lon="6.05979">
        <ele>1581</ele>
        <time>2009-08-07T18:26:18Z</time>
      </trkpt>
      <trkpt lat="45.0857" lon="6.05955">
        <ele>1587</ele>
        <time>2009-08-07T18:26:24Z</time>
      </trkpt>
      <trkpt lat="45.08643" lon="6.05881">
        <ele>1607</ele>
        <time>2009-08-07T18:26:41Z</time>
      </trkpt>
      <trkpt lat="45.08729" lon="6.05818">
        <ele>1613</ele>
        <time>2009-08-07T18:26:58Z</time>
      </trkpt>
      <trkpt lat="45.08756" lon="6.05791">
        <ele>1609</ele>
        <time>2009-08-07T18:27:04Z</time>
      </trkpt>
      <trkpt lat="45.08795" lon="6.05724">
        <ele>1626</ele>
        <time>2009-08-07T18:27:16Z</time>
      </trkpt>
      <trkpt lat="45.08825" lon="6.05662">
        <ele>1627</ele>
        <time>2009-08-07T18:27:25Z</time>
      </trkpt>
      <trkpt lat="45.08824" lon="6.05624">
        <ele>1635</ele>
        <time>2009-08-07T18:27:30Z</time>
      </trkpt>
      <trkpt lat="45.08805" lon="6.05596">
        <ele>1635</ele>
        <time>2009-08-07T18:27:35Z</time>
      </trkpt>
      <trkpt lat="45.08804" lon="6.05582">
        <ele>1635</ele>
        <time>2009-08-07T18:27:37Z</time>
      </trkpt>
      <trkpt lat="45.08807" lon="6.05577">
        <ele>1635</ele>
        <time>2009-08-07T18:27:38Z</time>
      </trkpt>
      <trkpt lat="45.08824" lon="6.05576">
        <ele>1635</ele>
        <time>2009-08-07T18:27:41Z</time>
      </trkpt>
      <trkpt lat="45.08835" lon="6.05582">
        <ele>1635</ele>
        <time>2009-08-07T18:27:43Z</time>
      </trkpt>
      <trkpt lat="45.08873" lon="6.05621">
        <ele>1635</ele>
        <time>2009-08-07T18:27:52Z</time>
      </trkpt>
      <trkpt lat="45.08897" lon="6.05655">
        <ele>1646</ele>
        <time>2009-08-07T18:27:58Z</time>
      </trkpt>
      <trkpt lat="45.08908" lon="6.05688">
        <ele>1646</ele>
        <time>2009-08-07T18:28:02Z</time>
      </trkpt>
      <trkpt lat="45.08912" lon="6.05725">
        <ele>1649</ele>
        <time>2009-08-07T18:28:07Z</time>
      </trkpt>
      <trkpt lat="45.08912" lon="6.05783">
        <ele>1649</ele>
        <time>2009-08-07T18:28:15Z</time>
      </trkpt>
      <trkpt lat="45.08875" lon="6.06008">
        <ele>1652</ele>
        <time>2009-08-07T18:28:44Z</time>
      </trkpt>
      <trkpt lat="45.08875" lon="6.06021">
        <ele>1652</ele>
        <time>2009-08-07T18:28:46Z</time>
      </trkpt>
      <trkpt lat="45.08879" lon="6.06023">
        <ele>1677</ele>
        <time>2009-08-07T18:28:47Z</time>
      </trkpt>
      <trkpt lat="45.09067" lon="6.05769">
        <ele>1698</ele>
        <time>2009-08-07T18:29:34Z</time>
      </trkpt>
      <trkpt lat="45.09118" lon="6.05681">
        <ele>1693</ele>
        <time>2009-08-07T18:29:49Z</time>
      </trkpt>
      <trkpt lat="45.09128" lon="6.05647">
        <ele>1722</ele>
        <time>2009-08-07T18:29:53Z</time>
      </trkpt>
      <trkpt lat="45.0913" lon="6.05579">
        <ele>1725</ele>
        <time>2009-08-07T18:30:02Z</time>
      </trkpt>
      <trkpt lat="45.09133" lon="6.0557">
        <ele>1725</ele>
        <time>2009-08-07T18:30:03Z</time>
      </trkpt>
      <trkpt lat="45.09141" lon="6.0557">
        <ele>1725</ele>
        <time>2009-08-07T18:30:05Z</time>
      </trkpt>
      <trkpt lat="45.09147" lon="6.05584">
        <ele>1725</ele>
        <time>2009-08-07T18:30:07Z</time>
      </trkpt>
      <trkpt lat="45.09174" lon="6.05706">
        <ele>1722</ele>
        <time>2009-08-07T18:30:23Z</time>
      </trkpt>
      <trkpt lat="45.09176" lon="6.05748">
        <ele>1722</ele>
        <time>2009-08-07T18:30:29Z</time>
      </trkpt>
      <trkpt lat="45.09172" lon="6.05789">
        <ele>1722</ele>
        <time>2009-08-07T18:30:34Z</time>
      </trkpt>
      <trkpt lat="45.09156" lon="6.05923">
        <ele>1744</ele>
        <time>2009-08-07T18:30:52Z</time>
      </trkpt>
      <trkpt lat="45.09136" lon="6.06038">
        <ele>1752</ele>
        <time>2009-08-07T18:31:07Z</time>
      </trkpt>
      <trkpt lat="45.09114" lon="6.0613">
        <ele>1755</ele>
        <time>2009-08-07T18:31:19Z</time>
      </trkpt>
      <trkpt lat="45.09068" lon="6.06291">
        <ele>1767</ele>
        <time>2009-08-07T18:31:42Z</time>
      </trkpt>
      <trkpt lat="45.09059" lon="6.06381">
        <ele>1784</ele>
        <time>2009-08-07T18:31:53Z</time>
      </trkpt>
      <trkpt lat="45.09041" lon="6.06431">
        <ele>1772</ele>
        <time>2009-08-07T18:32:01Z</time>
      </trkpt>
      <trkpt lat="45.09035" lon="6.06475">
        <ele>1776</ele>
        <time>2009-08-07T18:32:06Z</time>
      </trkpt>
      <trkpt lat="45.09041" lon="6.06431">
        <ele>1772</ele>
        <time>2009-08-07T18:32:12Z</time>
      </trkpt>
      <trkpt lat="45.09059" lon="6.06381">
        <ele>1784</ele>
        <time>2009-08-07T18:32:19Z</time>
      </trkpt>
      <trkpt lat="45.09068" lon="6.06291">
        <ele>1767</ele>
        <time>2009-08-07T18:32:31Z</time>
      </trkpt>
      <trkpt lat="45.09114" lon="6.0613">
        <ele>1755</ele>
        <time>2009-08-07T18:32:53Z</time>
      </trkpt>
      <trkpt lat="45.09136" lon="6.06038">
        <ele>1752</ele>
        <time>2009-08-07T18:33:06Z</time>
      </trkpt>
      <trkpt lat="45.09156" lon="6.05923">
        <ele>1744</ele>
        <time>2009-08-07T18:33:21Z</time>
      </trkpt>
      <trkpt lat="45.09172" lon="6.05789">
        <ele>1722</ele>
        <time>2009-08-07T18:33:38Z</time>
      </trkpt>
      <trkpt lat="45.09176" lon="6.05748">
        <ele>1722</ele>
        <time>2009-08-07T18:33:44Z</time>
      </trkpt>
      <trkpt lat="45.09174" lon="6.05706">
        <ele>1722</ele>
        <time>2009-08-07T18:33:49Z</time>
      </trkpt>
      <trkpt lat="45.09147" lon="6.05584">
        <ele>1725</ele>
        <time>2009-08-07T18:34:06Z</time>
      </trkpt>
      <trkpt lat="45.09141" lon="6.0557">
        <ele>1725</ele>
        <time>2009-08-07T18:34:08Z</time>
      </trkpt>
      <trkpt lat="45.09133" lon="6.0557">
        <ele>1725</ele>
        <time>2009-08-07T18:34:09Z</time>
      </trkpt>
      <trkpt lat="45.0913" lon="6.05579">
        <ele>1725</ele>
        <time>2009-08-07T18:34:10Z</time>
      </trkpt>
      <trkpt lat="45.09128" lon="6.05647">
        <ele>1722</ele>
        <time>2009-08-07T18:34:19Z</time>
      </trkpt>
      <trkpt lat="45.09118" lon="6.05681">
        <ele>1693</ele>
        <time>2009-08-07T18:34:24Z</time>
      </trkpt>
      <trkpt lat="45.09067" lon="6.05769">
        <ele>1698</ele>
        <time>2009-08-07T18:34:38Z</time>
      </trkpt>
      <trkpt lat="45.08879" lon="6.06023">
        <ele>1677</ele>
        <time>2009-08-07T18:35:26Z</time>
      </trkpt>
      <trkpt lat="45.08875" lon="6.06021">
        <ele>1652</ele>
        <time>2009-08-07T18:35:27Z</time>
      </trkpt>
      <trkpt lat="45.08875" lon="6.06008">
        <ele>1652</ele>
        <time>2009-08-07T18:35:28Z</time>
      </trkpt>
      <trkpt lat="45.08912" lon="6.05783">
        <ele>1649</ele>
        <time>2009-08-07T18:35:58Z</time>
      </trkpt>
      <trkpt lat="45.08912" lon="6.05725">
        <ele>1649</ele>
        <time>2009-08-07T18:36:05Z</time>
      </trkpt>
      <trkpt lat="45.08908" lon="6.05688">
        <ele>1646</ele>
        <time>2009-08-07T18:36:10Z</time>
      </trkpt>
      <trkpt lat="45.08897" lon="6.05655">
        <ele>1646</ele>
        <time>2009-08-07T18:36:15Z</time>
      </trkpt>
      <trkpt lat="45.08873" lon="6.05621">
        <ele>1635</ele>
        <time>2009-08-07T18:36:21Z</time>
      </trkpt>
      <trkpt lat="45.08835" lon="6.05582">
        <ele>1635</ele>
        <time>2009-08-07T18:36:30Z</time>
      </trkpt>
      <trkpt lat="45.08824" lon="6.05576">
        <ele>1635</ele>
        <time>2009-08-07T18:36:32Z</time>
      </trkpt>
      <trkpt lat="45.08813" lon="6.05575">
        <ele>1635</ele>
        <time>2009-08-07T18:36:34Z</time>
      </trkpt>
      <trkpt lat="45.08804" lon="6.05582">
        <ele>1635</ele>
        <time>2009-08-07T18:36:36Z</time>
      </trkpt>
      <trkpt lat="45.08805" lon="6.05596">
        <ele>1635</ele>
        <time>2009-08-07T18:36:37Z</time>
      </trkpt>
      <trkpt lat="45.08824" lon="6.05624">
        <ele>1635</ele>
        <time>2009-08-07T18:36:42Z</time>
      </trkpt>
      <trkpt lat="45.08826" lon="6.05638">
        <ele>1627</ele>
        <time>2009-08-07T18:36:44Z</time>
      </trkpt>
      <trkpt lat="45.08825" lon="6.05662">
        <ele>1627</ele>
        <time>2009-08-07T18:36:47Z</time>
      </trkpt>
      <trkpt lat="45.08815" lon="6.05684">
        <ele>1627</ele>
        <time>2009-08-07T18:36:51Z</time>
      </trkpt>
      <trkpt lat="45.08795" lon="6.05724">
        <ele>1626</ele>
        <time>2009-08-07T18:36:57Z</time>
      </trkpt>
      <trkpt lat="45.08759" lon="6.05781">
        <ele>1609</ele>
        <time>2009-08-07T18:37:07Z</time>
      </trkpt>
      <trkpt lat="45.0875" lon="6.05784">
        <ele>1609</ele>
        <time>2009-08-07T18:37:08Z</time>
      </trkpt>
      <trkpt lat="45.08715" lon="6.05818">
        <ele>1613</ele>
        <time>2009-08-07T18:37:16Z</time>
      </trkpt>
      <trkpt lat="45.08639" lon="6.05874">
        <ele>1594</ele>
        <time>2009-08-07T18:37:32Z</time>
      </trkpt>
      <trkpt lat="45.08657" lon="6.05911">
        <ele>1607</ele>
        <time>2009-08-07T18:37:38Z</time>
      </trkpt>
      <trkpt lat="45.08639" lon="6.05874">
        <ele>1594</ele>
        <time>2009-08-07T18:37:43Z</time>
      </trkpt>
      <trkpt lat="45.08569" lon="6.05943">
        <ele>1587</ele>
        <time>2009-08-07T18:37:59Z</time>
      </trkpt>
      <trkpt lat="45.08546" lon="6.05959">
        <ele>1601</ele>
        <time>2009-08-07T18:38:03Z</time>
      </trkpt>
      <trkpt lat="45.08502" lon="6.0598">
        <ele>1581</ele>
        <time>2009-08-07T18:38:12Z</time>
      </trkpt>
      <trkpt lat="45.08492" lon="6.05992">
        <ele>1581</ele>
        <time>2009-08-07T18:38:14Z</time>
      </trkpt>
      <trkpt lat="45.08422" lon="6.06014">
        <ele>1566</ele>
        <time>2009-08-07T18:38:27Z</time>
      </trkpt>
      <trkpt lat="45.08405" lon="6.06025">
        <ele>1566</ele>
        <time>2009-08-07T18:38:31Z</time>
      </trkpt>
      <trkpt lat="45.08373" lon="6.06085">
        <ele>1550</ele>
        <time>2009-08-07T18:38:40Z</time>
      </trkpt>
      <trkpt lat="45.08364" lon="6.06113">
        <ele>1550</ele>
        <time>2009-08-07T18:38:44Z</time>
      </trkpt>
      <trkpt lat="45.08358" lon="6.06226">
        <ele>1542</ele>
        <time>2009-08-07T18:38:59Z</time>
      </trkpt>
      <trkpt lat="45.08351" lon="6.06244">
        <ele>1542</ele>
        <time>2009-08-07T18:39:02Z</time>
      </trkpt>
      <trkpt lat="45.08344" lon="6.06245">
        <ele>1542</ele>
        <time>2009-08-07T18:39:03Z</time>
      </trkpt>
      <trkpt lat="45.0834" lon="6.0624">
        <ele>1542</ele>
        <time>2009-08-07T18:39:04Z</time>
      </trkpt>
      <trkpt lat="45.08342" lon="6.06174">
        <ele>1547</ele>
        <time>2009-08-07T18:39:12Z</time>
      </trkpt>
      <trkpt lat="45.08314" lon="6.06071">
        <ele>1550</ele>
        <time>2009-08-07T18:39:26Z</time>
      </trkpt>
      <trkpt lat="45.08298" lon="6.05987">
        <ele>1546</ele>
        <time>2009-08-07T18:39:38Z</time>
      </trkpt>
      <trkpt lat="45.08294" lon="6.05942">
        <ele>1538</ele>
        <time>2009-08-07T18:39:43Z</time>
      </trkpt>
      <trkpt lat="45.08294" lon="6.05872">
        <ele>1523</ele>
        <time>2009-08-07T18:39:52Z</time>
      </trkpt>
      <trkpt lat="45.08304" lon="6.0582">
        <ele>1523</ele>
        <time>2009-08-07T18:39:59Z</time>
      </trkpt>
      <trkpt lat="45.08324" lon="6.05787">
        <ele>1511</ele>
        <time>2009-08-07T18:40:05Z</time>
      </trkpt>
      <trkpt lat="45.08357" lon="6.05763">
        <ele>1511</ele>
        <time>2009-08-07T18:40:12Z</time>
      </trkpt>
      <trkpt lat="45.08365" lon="6.05749">
        <ele>1511</ele>
        <time>2009-08-07T18:40:14Z</time>
      </trkpt>
      <trkpt lat="45.08365" lon="6.05742">
        <ele>1511</ele>
        <time>2009-08-07T18:40:15Z</time>
      </trkpt>
      <trkpt lat="45.0836" lon="6.05735">
        <ele>1511</ele>
        <time>2009-08-07T18:40:16Z</time>
      </trkpt>
      <trkpt lat="45.08353" lon="6.05734">
        <ele>1511</ele>
        <time>2009-08-07T18:40:18Z</time>
      </trkpt>
      <trkpt lat="45.08242" lon="6.05755">
        <ele>1500</ele>
        <time>2009-08-07T18:40:38Z</time>
      </trkpt>
      <trkpt lat="45.08234" lon="6.05765">
        <ele>1500</ele>
        <time>2009-08-07T18:40:40Z</time>
      </trkpt>
      <trkpt lat="45.08224" lon="6.05791">
        <ele>1500</ele>
        <time>2009-08-07T18:40:44Z</time>
      </trkpt>
      <trkpt lat="45.0822" lon="6.05819">
        <ele>1509</ele>
        <time>2009-08-07T18:40:47Z</time>
      </trkpt>
      <trkpt lat="45.08218" lon="6.05937">
        <ele>1511</ele>
        <time>2009-08-07T18:41:02Z</time>
      </trkpt>
      <trkpt lat="45.08209" lon="6.06016">
        <ele>1512</ele>
        <time>2009-08-07T18:41:13Z</time>
      </trkpt>
      <trkpt lat="45.08204" lon="6.06108">
        <ele>1471</ele>
        <time>2009-08-07T18:41:25Z</time>
      </trkpt>
      <trkpt lat="45.08205" lon="6.06143">
        <ele>1459</ele>
        <time>2009-08-07T18:41:29Z</time>
      </trkpt>
      <trkpt lat="45.08222" lon="6.06186">
        <ele>1504</ele>
        <time>2009-08-07T18:41:35Z</time>
      </trkpt>
      <trkpt lat="45.08223" lon="6.06197">
        <ele>1504</ele>
        <time>2009-08-07T18:41:37Z</time>
      </trkpt>
      <trkpt lat="45.08215" lon="6.06211">
        <ele>1492</ele>
        <time>2009-08-07T18:41:39Z</time>
      </trkpt>
      <trkpt lat="45.08204" lon="6.06206">
        <ele>1459</ele>
        <time>2009-08-07T18:41:41Z</time>
      </trkpt>
      <trkpt lat="45.08198" lon="6.06193">
        <ele>1459</ele>
        <time>2009-08-07T18:41:43Z</time>
      </trkpt>
      <trkpt lat="45.08194" lon="6.06167">
        <ele>1459</ele>
        <time>2009-08-07T18:41:47Z</time>
      </trkpt>
      <trkpt lat="45.08152" lon="6.0601">
        <ele>1477</ele>
        <time>2009-08-07T18:42:08Z</time>
      </trkpt>
      <trkpt lat="45.08127" lon="6.05949">
        <ele>1483</ele>
        <time>2009-08-07T18:42:17Z</time>
      </trkpt>
      <trkpt lat="45.0808" lon="6.05862">
        <ele>1455</ele>
        <time>2009-08-07T18:42:31Z</time>
      </trkpt>
      <trkpt lat="45.0801" lon="6.05694">
        <ele>1432</ele>
        <time>2009-08-07T18:42:56Z</time>
      </trkpt>
      <trkpt lat="45.08005" lon="6.05673">
        <ele>1432</ele>
        <time>2009-08-07T18:42:59Z</time>
      </trkpt>
      <trkpt lat="45.08003" lon="6.0563">
        <ele>1432</ele>
        <time>2009-08-07T18:43:05Z</time>
      </trkpt>
      <trkpt lat="45.08012" lon="6.05585">
        <ele>1426</ele>
        <time>2009-08-07T18:43:11Z</time>
      </trkpt>
      <trkpt lat="45.08031" lon="6.05568">
        <ele>1426</ele>
        <time>2009-08-07T18:43:15Z</time>
      </trkpt>
      <trkpt lat="45.08054" lon="6.0556">
        <ele>1448</ele>
        <time>2009-08-07T18:43:19Z</time>
      </trkpt>
      <trkpt lat="45.08066" lon="6.0555">
        <ele>1448</ele>
        <time>2009-08-07T18:43:22Z</time>
      </trkpt>
      <trkpt lat="45.08073" lon="6.05534">
        <ele>1434</ele>
        <time>2009-08-07T18:43:24Z</time>
      </trkpt>
      <trkpt lat="45.08071" lon="6.05505">
        <ele>1434</ele>
        <time>2009-08-07T18:43:28Z</time>
      </trkpt>
      <trkpt lat="45.08056" lon="6.05485">
        <ele>1434</ele>
        <time>2009-08-07T18:43:32Z</time>
      </trkpt>
      <trkpt lat="45.08003" lon="6.05458">
        <ele>1442</ele>
        <time>2009-08-07T18:43:42Z</time>
      </trkpt>
      <trkpt lat="45.07964" lon="6.05451">
        <ele>1442</ele>
        <time>2009-08-07T18:43:49Z</time>
      </trkpt>
      <trkpt lat="45.07921" lon="6.05457">
        <ele>1425</ele>
        <time>2009-08-07T18:43:57Z</time>
      </trkpt>
      <trkpt lat="45.07906" lon="6.05453">
        <ele>1425</ele>
        <time>2009-08-07T18:44:00Z</time>
      </trkpt>
      <trkpt lat="45.07786" lon="6.05373">
        <ele>1393</ele>
        <time>2009-08-07T18:44:24Z</time>
      </trkpt>
      <trkpt lat="45.07756" lon="6.05347">
        <ele>1393</ele>
        <time>2009-08-07T18:44:30Z</time>
      </trkpt>
      <trkpt lat="45.0772" lon="6.05336">
        <ele>1393</ele>
        <time>2009-08-07T18:44:37Z</time>
      </trkpt>
      <trkpt lat="45.07709" lon="6.05323">
        <ele>1393</ele>
        <time>2009-08-07T18:44:40Z</time>
      </trkpt>
      <trkpt lat="45.07708" lon="6.05309">
        <ele>1364</ele>
        <time>2009-08-07T18:44:41Z</time>
      </trkpt>
      <trkpt lat="45.07712" lon="6.053">
        <ele>1393</ele>
        <time>2009-08-07T18:44:43Z</time>
      </trkpt>
      <trkpt lat="45.07739" lon="6.05278">
        <ele>1383</ele>
        <time>2009-08-07T18:44:48Z</time>
      </trkpt>
      <trkpt lat="45.07746" lon="6.05266">
        <ele>1383</ele>
        <time>2009-08-07T18:44:50Z</time>
      </trkpt>
      <trkpt lat="45.07771" lon="6.05182">
        <ele>1358</ele>
        <time>2009-08-07T18:45:02Z</time>
      </trkpt>
      <trkpt lat="45.07796" lon="6.0512">
        <ele>1378</ele>
        <time>2009-08-07T18:45:11Z</time>
      </trkpt>
      <trkpt lat="45.07821" lon="6.05042">
        <ele>1378</ele>
        <time>2009-08-07T18:45:22Z</time>
      </trkpt>
      <trkpt lat="45.07832" lon="6.04994">
        <ele>1363</ele>
        <time>2009-08-07T18:45:29Z</time>
      </trkpt>
      <trkpt lat="45.07835" lon="6.0496">
        <ele>1363</ele>
        <time>2009-08-07T18:45:33Z</time>
      </trkpt>
      <trkpt lat="45.07833" lon="6.04908">
        <ele>1357</ele>
        <time>2009-08-07T18:45:40Z</time>
      </trkpt>
      <trkpt lat="45.07806" lon="6.0484">
        <ele>1370</ele>
        <time>2009-08-07T18:45:50Z</time>
      </trkpt>
      <trkpt lat="45.07801" lon="6.04805">
        <ele>1370</ele>
        <time>2009-08-07T18:45:54Z</time>
      </trkpt>
      <trkpt lat="45.07795" lon="6.0479">
        <ele>1376</ele>
        <time>2009-08-07T18:45:57Z</time>
      </trkpt>
      <trkpt lat="45.07784" lon="6.04785">
        <ele>1315</ele>
        <time>2009-08-07T18:45:59Z</time>
      </trkpt>
      <trkpt lat="45.07781" lon="6.04797">
        <ele>1315</ele>
        <time>2009-08-07T18:46:00Z</time>
      </trkpt>
      <trkpt lat="45.07783" lon="6.04856">
        <ele>1315</ele>
        <time>2009-08-07T18:46:08Z</time>
      </trkpt>
      <trkpt lat="45.07795" lon="6.04914">
        <ele>1357</ele>
        <time>2009-08-07T18:46:16Z</time>
      </trkpt>
      <trkpt lat="45.0779" lon="6.04955">
        <ele>1311</ele>
        <time>2009-08-07T18:46:21Z</time>
      </trkpt>
      <trkpt lat="45.07759" lon="6.05016">
        <ele>1319</ele>
        <time>2009-08-07T18:46:31Z</time>
      </trkpt>
      <trkpt lat="45.07731" lon="6.05051">
        <ele>1337</ele>
        <time>2009-08-07T18:46:38Z</time>
      </trkpt>
      <trkpt lat="45.07688" lon="6.05146">
        <ele>1314</ele>
        <time>2009-08-07T18:46:52Z</time>
      </trkpt>
      <trkpt lat="45.07666" lon="6.05161">
        <ele>1314</ele>
        <time>2009-08-07T18:46:57Z</time>
      </trkpt>
      <trkpt lat="45.0758" lon="6.05196">
        <ele>1284</ele>
        <time>2009-08-07T18:47:13Z</time>
      </trkpt>
      <trkpt lat="45.07531" lon="6.05224">
        <ele>1310</ele>
        <time>2009-08-07T18:47:22Z</time>
      </trkpt>
      <trkpt lat="45.07504" lon="6.05233">
        <ele>1310</ele>
        <time>2009-08-07T18:47:27Z</time>
      </trkpt>
      <trkpt lat="45.07486" lon="6.05232">
        <ele>1310</ele>
        <time>2009-08-07T18:47:31Z</time>
      </trkpt>
      <trkpt lat="45.07477" lon="6.05228">
        <ele>1310</ele>
        <time>2009-08-07T18:47:32Z</time>
      </trkpt>
      <trkpt lat="45.07475" lon="6.05222">
        <ele>1310</ele>
        <time>2009-08-07T18:47:33Z</time>
      </trkpt>
      <trkpt lat="45.07476" lon="6.0521">
        <ele>1310</ele>
        <time>2009-08-07T18:47:35Z</time>
      </trkpt>
      <trkpt lat="45.07481" lon="6.05206">
        <ele>1260</ele>
        <time>2009-08-07T18:47:36Z</time>
      </trkpt>
      <trkpt lat="45.07541" lon="6.05177">
        <ele>1260</ele>
        <time>2009-08-07T18:47:47Z</time>
      </trkpt>
      <trkpt lat="45.07589" lon="6.05142">
        <ele>1284</ele>
        <time>2009-08-07T18:47:57Z</time>
      </trkpt>
      <trkpt lat="45.07622" lon="6.05103">
        <ele>1252</ele>
        <time>2009-08-07T18:48:05Z</time>
      </trkpt>
      <trkpt lat="45.07632" lon="6.05082">
        <ele>1289</ele>
        <time>2009-08-07T18:48:08Z</time>
      </trkpt>
      <trkpt lat="45.07642" lon="6.05048">
        <ele>1289</ele>
        <time>2009-08-07T18:48:13Z</time>
      </trkpt>
      <trkpt lat="45.07652" lon="6.0499">
        <ele>1269</ele>
        <time>2009-08-07T18:48:21Z</time>
      </trkpt>
      <trkpt lat="45.07671" lon="6.04945">
        <ele>1254</ele>
        <time>2009-08-07T18:48:28Z</time>
      </trkpt>
      <trkpt lat="45.07674" lon="6.04916">
        <ele>1254</ele>
        <time>2009-08-07T18:48:31Z</time>
      </trkpt>
      <trkpt lat="45.07666" lon="6.04865">
        <ele>1255</ele>
        <time>2009-08-07T18:48:38Z</time>
      </trkpt>
      <trkpt lat="45.07642" lon="6.04803">
        <ele>1255</ele>
        <time>2009-08-07T18:48:47Z</time>
      </trkpt>
      <trkpt lat="45.07655" lon="6.04736">
        <ele>1253</ele>
        <time>2009-08-07T18:48:56Z</time>
      </trkpt>
      <trkpt lat="45.07655" lon="6.04727">
        <ele>1253</ele>
        <time>2009-08-07T18:48:57Z</time>
      </trkpt>
      <trkpt lat="45.07647" lon="6.0472">
        <ele>1253</ele>
        <time>2009-08-07T18:48:59Z</time>
      </trkpt>
      <trkpt lat="45.07636" lon="6.04733">
        <ele>1253</ele>
        <time>2009-08-07T18:49:01Z</time>
      </trkpt>
      <trkpt lat="45.07623" lon="6.04788">
        <ele>1204</ele>
        <time>2009-08-07T18:49:09Z</time>
      </trkpt>
      <trkpt lat="45.0763" lon="6.04856">
        <ele>1255</ele>
        <time>2009-08-07T18:49:18Z</time>
      </trkpt>
      <trkpt lat="45.07626" lon="6.04881">
        <ele>1254</ele>
        <time>2009-08-07T18:49:21Z</time>
      </trkpt>
      <trkpt lat="45.07578" lon="6.0499">
        <ele>1224</ele>
        <time>2009-08-07T18:49:38Z</time>
      </trkpt>
      <trkpt lat="45.07565" lon="6.05029">
        <ele>1224</ele>
        <time>2009-08-07T18:49:43Z</time>
      </trkpt>
      <trkpt lat="45.07538" lon="6.05047">
        <ele>1220</ele>
        <time>2009-08-07T18:49:49Z</time>
      </trkpt>
      <trkpt lat="45.07441" lon="6.05084">
        <ele>1187</ele>
        <time>2009-08-07T18:50:07Z</time>
      </trkpt>
      <trkpt lat="45.07376" lon="6.05147">
        <ele>1224</ele>
        <time>2009-08-07T18:50:21Z</time>
      </trkpt>
      <trkpt lat="45.07347" lon="6.05189">
        <ele>1183</ele>
        <time>2009-08-07T18:50:29Z</time>
      </trkpt>
      <trkpt lat="45.07332" lon="6.05196">
        <ele>1183</ele>
        <time>2009-08-07T18:50:32Z</time>
      </trkpt>
      <trkpt lat="45.07326" lon="6.05188">
        <ele>1183</ele>
        <time>2009-08-07T18:50:33Z</time>
      </trkpt>
      <trkpt lat="45.07328" lon="6.05176">
        <ele>1183</ele>
        <time>2009-08-07T18:50:35Z</time>
      </trkpt>
      <trkpt lat="45.07433" lon="6.05026">
        <ele>1151</ele>
        <time>2009-08-07T18:51:02Z</time>
      </trkpt>
      <trkpt lat="45.07495" lon="6.04997">
        <ele>1184</ele>
        <time>2009-08-07T18:51:14Z</time>
      </trkpt>
      <trkpt lat="45.07512" lon="6.04976">
        <ele>1184</ele>
        <time>2009-08-07T18:51:18Z</time>
      </trkpt>
      <trkpt lat="45.07521" lon="6.04932">
        <ele>1159</ele>
        <time>2009-08-07T18:51:24Z</time>
      </trkpt>
      <trkpt lat="45.07519" lon="6.04842">
        <ele>1158</ele>
        <time>2009-08-07T18:51:35Z</time>
      </trkpt>
      <trkpt lat="45.07496" lon="6.04783">
        <ele>1163</ele>
        <time>2009-08-07T18:51:44Z</time>
      </trkpt>
      <trkpt lat="45.07492" lon="6.04776">
        <ele>1163</ele>
        <time>2009-08-07T18:51:45Z</time>
      </trkpt>
      <trkpt lat="45.07483" lon="6.04776">
        <ele>1163</ele>
        <time>2009-08-07T18:51:47Z</time>
      </trkpt>
      <trkpt lat="45.07481" lon="6.04788">
        <ele>1163</ele>
        <time>2009-08-07T18:51:48Z</time>
      </trkpt>
      <trkpt lat="45.07497" lon="6.04846">
        <ele>1158</ele>
        <time>2009-08-07T18:51:56Z</time>
      </trkpt>
      <trkpt lat="45.07497" lon="6.04861">
        <ele>1158</ele>
        <time>2009-08-07T18:51:58Z</time>
      </trkpt>
      <trkpt lat="45.07495" lon="6.04878">
        <ele>1159</ele>
        <time>2009-08-07T18:52:00Z</time>
      </trkpt>
      <trkpt lat="45.07471" lon="6.04923">
        <ele>1159</ele>
        <time>2009-08-07T18:52:08Z</time>
      </trkpt>
      <trkpt lat="45.07447" lon="6.04949">
        <ele>1121</ele>
        <time>2009-08-07T18:52:13Z</time>
      </trkpt>
      <trkpt lat="45.07394" lon="6.04958">
        <ele>1121</ele>
        <time>2009-08-07T18:52:23Z</time>
      </trkpt>
      <trkpt lat="45.07382" lon="6.04966">
        <ele>1151</ele>
        <time>2009-08-07T18:52:25Z</time>
      </trkpt>
      <trkpt lat="45.07339" lon="6.0502">
        <ele>1116</ele>
        <time>2009-08-07T18:52:36Z</time>
      </trkpt>
      <trkpt lat="45.07289" lon="6.05068">
        <ele>1102</ele>
        <time>2009-08-07T18:52:47Z</time>
      </trkpt>
      <trkpt lat="45.0726" lon="6.05106">
        <ele>1102</ele>
        <time>2009-08-07T18:52:54Z</time>
      </trkpt>
      <trkpt lat="45.07252" lon="6.05111">
        <ele>1102</ele>
        <time>2009-08-07T18:52:56Z</time>
      </trkpt>
      <trkpt lat="45.07242" lon="6.05109">
        <ele>1102</ele>
        <time>2009-08-07T18:52:57Z</time>
      </trkpt>
      <trkpt lat="45.07238" lon="6.051">
        <ele>1102</ele>
        <time>2009-08-07T18:52:59Z</time>
      </trkpt>
      <trkpt lat="45.07239" lon="6.05089">
        <ele>1102</ele>
        <time>2009-08-07T18:53:00Z</time>
      </trkpt>
      <trkpt lat="45.07313" lon="6.04968">
        <ele>1116</ele>
        <time>2009-08-07T18:53:21Z</time>
      </trkpt>
      <trkpt lat="45.07336" lon="6.04903">
        <ele>1090</ele>
        <time>2009-08-07T18:53:30Z</time>
      </trkpt>
      <trkpt lat="45.07352" lon="6.04869">
        <ele>1083</ele>
        <time>2009-08-07T18:53:35Z</time>
      </trkpt>
      <trkpt lat="45.07355" lon="6.04837">
        <ele>1083</ele>
        <time>2009-08-07T18:53:39Z</time>
      </trkpt>
      <trkpt lat="45.07351" lon="6.04812">
        <ele>1083</ele>
        <time>2009-08-07T18:53:43Z</time>
      </trkpt>
      <trkpt lat="45.07343" lon="6.04794">
        <ele>1083</ele>
        <time>2009-08-07T18:53:45Z</time>
      </trkpt>
      <trkpt lat="45.07328" lon="6.04776">
        <ele>1098</ele>
        <time>2009-08-07T18:53:49Z</time>
      </trkpt>
      <trkpt lat="45.07288" lon="6.04758">
        <ele>1074</ele>
        <time>2009-08-07T18:53:57Z</time>
      </trkpt>
      <trkpt lat="45.07254" lon="6.04734">
        <ele>1074</ele>
        <time>2009-08-07T18:54:04Z</time>
      </trkpt>
      <trkpt lat="45.07162" lon="6.0465">
        <ele>1061</ele>
        <time>2009-08-07T18:54:24Z</time>
      </trkpt>
      <trkpt lat="45.07145" lon="6.04621">
        <ele>1070</ele>
        <time>2009-08-07T18:54:28Z</time>
      </trkpt>
      <trkpt lat="45.0714" lon="6.04605">
        <ele>1070</ele>
        <time>2009-08-07T18:54:31Z</time>
      </trkpt>
      <trkpt lat="45.07119" lon="6.04469">
        <ele>1042</ele>
        <time>2009-08-07T18:54:48Z</time>
      </trkpt>
      <trkpt lat="45.07112" lon="6.0445">
        <ele>1068</ele>
        <time>2009-08-07T18:54:51Z</time>
      </trkpt>
      <trkpt lat="45.07097" lon="6.04432">
        <ele>1068</ele>
        <time>2009-08-07T18:54:55Z</time>
      </trkpt>
      <trkpt lat="45.07084" lon="6.04438">
        <ele>1068</ele>
        <time>2009-08-07T18:54:57Z</time>
      </trkpt>
      <trkpt lat="45.07095" lon="6.045">
        <ele>1042</ele>
        <time>2009-08-07T18:55:06Z</time>
      </trkpt>
      <trkpt lat="45.07094" lon="6.04654">
        <ele>1023</ele>
        <time>2009-08-07T18:55:25Z</time>
      </trkpt>
      <trkpt lat="45.07109" lon="6.04689">
        <ele>1023</ele>
        <time>2009-08-07T18:55:31Z</time>
      </trkpt>
      <trkpt lat="45.07176" lon="6.04779">
        <ele>1037</ele>
        <time>2009-08-07T18:55:47Z</time>
      </trkpt>
      <trkpt lat="45.0718" lon="6.04792">
        <ele>1015</ele>
        <time>2009-08-07T18:55:49Z</time>
      </trkpt>
      <trkpt lat="45.07176" lon="6.04809">
        <ele>1015</ele>
        <time>2009-08-07T18:55:52Z</time>
      </trkpt>
      <trkpt lat="45.0716" lon="6.04804">
        <ele>1015</ele>
        <time>2009-08-07T18:55:54Z</time>
      </trkpt>
      <trkpt lat="45.07127" lon="6.04757">
        <ele>1037</ele>
        <time>2009-08-07T18:56:03Z</time>
      </trkpt>
      <trkpt lat="45.07077" lon="6.0472">
        <ele>1007</ele>
        <time>2009-08-07T18:56:13Z</time>
      </trkpt>
      <trkpt lat="45.07054" lon="6.04693">
        <ele>1023</ele>
        <time>2009-08-07T18:56:19Z</time>
      </trkpt>
      <trkpt lat="45.07033" lon="6.04661">
        <ele>984</ele>
        <time>2009-08-07T18:56:24Z</time>
      </trkpt>
      <trkpt lat="45.06997" lon="6.0459">
        <ele>1001</ele>
        <time>2009-08-07T18:56:36Z</time>
      </trkpt>
      <trkpt lat="45.0698" lon="6.0457">
        <ele>1001</ele>
        <time>2009-08-07T18:56:40Z</time>
      </trkpt>
      <trkpt lat="45.06909" lon="6.04534">
        <ele>999</ele>
        <time>2009-08-07T18:56:53Z</time>
      </trkpt>
      <trkpt lat="45.06865" lon="6.04474">
        <ele>980</ele>
        <time>2009-08-07T18:57:04Z</time>
      </trkpt>
      <trkpt lat="45.06785" lon="6.04452">
        <ele>980</ele>
        <time>2009-08-07T18:57:19Z</time>
      </trkpt>
      <trkpt lat="45.06718" lon="6.04401">
        <ele>980</ele>
        <time>2009-08-07T18:57:33Z</time>
      </trkpt>
      <trkpt lat="45.06722" lon="6.04439">
        <ele>980</ele>
        <time>2009-08-07T18:57:38Z</time>
      </trkpt>
      <trkpt lat="45.06748" lon="6.04475">
        <ele>968</ele>
        <time>2009-08-07T18:57:45Z</time>
      </trkpt>
      <trkpt lat="45.06775" lon="6.04478">
        <ele>968</ele>
        <time>2009-08-07T18:57:50Z</time>
      </trkpt>
      <trkpt lat="45.06799" lon="6.04491">
        <ele>980</ele>
        <time>2009-08-07T18:57:54Z</time>
      </trkpt>
      <trkpt lat="45.06848" lon="6.04558">
        <ele>964</ele>
        <time>2009-08-07T18:58:07Z</time>
      </trkpt>
      <trkpt lat="45.06908" lon="6.04606">
        <ele>980</ele>
        <time>2009-08-07T18:58:19Z</time>
      </trkpt>
      <trkpt lat="45.0695" lon="6.04647">
        <ele>958</ele>
        <time>2009-08-07T18:58:28Z</time>
      </trkpt>
      <trkpt lat="45.06965" lon="6.04675">
        <ele>984</ele>
        <time>2009-08-07T18:58:33Z</time>
      </trkpt>
      <trkpt lat="45.06979" lon="6.04715">
        <ele>969</ele>
        <time>2009-08-07T18:58:39Z</time>
      </trkpt>
      <trkpt lat="45.07005" lon="6.04824">
        <ele>959</ele>
        <time>2009-08-07T18:58:53Z</time>
      </trkpt>
      <trkpt lat="45.07016" lon="6.04838">
        <ele>959</ele>
        <time>2009-08-07T18:58:56Z</time>
      </trkpt>
      <trkpt lat="45.07045" lon="6.04834">
        <ele>986</ele>
        <time>2009-08-07T18:59:01Z</time>
      </trkpt>
      <trkpt lat="45.07052" lon="6.04839">
        <ele>986</ele>
        <time>2009-08-07T18:59:03Z</time>
      </trkpt>
      <trkpt lat="45.07055" lon="6.04857">
        <ele>986</ele>
        <time>2009-08-07T18:59:05Z</time>
      </trkpt>
      <trkpt lat="45.07053" lon="6.04867">
        <ele>986</ele>
        <time>2009-08-07T18:59:07Z</time>
      </trkpt>
      <trkpt lat="45.0703" lon="6.04913">
        <ele>951</ele>
        <time>2009-08-07T18:59:14Z</time>
      </trkpt>
      <trkpt lat="45.07026" lon="6.04933">
        <ele>951</ele>
        <time>2009-08-07T18:59:17Z</time>
      </trkpt>
      <trkpt lat="45.07049" lon="6.05042">
        <ele>997</ele>
        <time>2009-08-07T18:59:31Z</time>
      </trkpt>
      <trkpt lat="45.07038" lon="6.05116">
        <ele>957</ele>
        <time>2009-08-07T18:59:41Z</time>
      </trkpt>
      <trkpt lat="45.07035" lon="6.05205">
        <ele>969</ele>
        <time>2009-08-07T18:59:52Z</time>
      </trkpt>
      <trkpt lat="45.0702" lon="6.05228">
        <ele>981</ele>
        <time>2009-08-07T18:59:56Z</time>
      </trkpt>
      <trkpt lat="45.07018" lon="6.05293">
        <ele>1000</ele>
        <time>2009-08-07T19:00:05Z</time>
      </trkpt>
      <trkpt lat="45.07001" lon="6.05334">
        <ele>1000</ele>
        <time>2009-08-07T19:00:11Z</time>
      </trkpt>
      <trkpt lat="45.06995" lon="6.05339">
        <ele>1000</ele>
        <time>2009-08-07T19:00:12Z</time>
      </trkpt>
      <trkpt lat="45.06987" lon="6.05341">
        <ele>1000</ele>
        <time>2009-08-07T19:00:14Z</time>
      </trkpt>
      <trkpt lat="45.06976" lon="6.05336">
        <ele>1000</ele>
        <time>2009-08-07T19:00:16Z</time>
      </trkpt>
      <trkpt lat="45.0697" lon="6.05297">
        <ele>1000</ele>
        <time>2009-08-07T19:00:21Z</time>
      </trkpt>
      <trkpt lat="45.06959" lon="6.05259">
        <ele>981</ele>
        <time>2009-08-07T19:00:26Z</time>
      </trkpt>
      <trkpt lat="45.06933" lon="6.0521">
        <ele>1013</ele>
        <time>2009-08-07T19:00:34Z</time>
      </trkpt>
      <trkpt lat="45.06893" lon="6.05152">
        <ele>993</ele>
        <time>2009-08-07T19:00:44Z</time>
      </trkpt>
      <trkpt lat="45.06838" lon="6.05098">
        <ele>1005</ele>
        <time>2009-08-07T19:00:57Z</time>
      </trkpt>
      <trkpt lat="45.06807" lon="6.0505">
        <ele>1005</ele>
        <time>2009-08-07T19:01:05Z</time>
      </trkpt>
      <trkpt lat="45.0676" lon="6.05027">
        <ele>1022</ele>
        <time>2009-08-07T19:01:14Z</time>
      </trkpt>
      <trkpt lat="45.06731" lon="6.04969">
        <ele>1022</ele>
        <time>2009-08-07T19:01:23Z</time>
      </trkpt>
      <trkpt lat="45.06705" lon="6.04931">
        <ele>1031</ele>
        <time>2009-08-07T19:01:30Z</time>
      </trkpt>
      <trkpt lat="45.06629" lon="6.04882">
        <ele>1031</ele>
        <time>2009-08-07T19:01:45Z</time>
      </trkpt>
      <trkpt lat="45.06585" lon="6.04829">
        <ele>1033</ele>
        <time>2009-08-07T19:01:56Z</time>
      </trkpt>
      <trkpt lat="45.06549" lon="6.04794">
        <ele>1033</ele>
        <time>2009-08-07T19:02:04Z</time>
      </trkpt>
      <trkpt lat="45.0652" lon="6.04786">
        <ele>1020</ele>
        <time>2009-08-07T19:02:09Z</time>
      </trkpt>
      <trkpt lat="45.06472" lon="6.04809">
        <ele>1055</ele>
        <time>2009-08-07T19:02:18Z</time>
      </trkpt>
      <trkpt lat="45.06438" lon="6.04812">
        <ele>1067</ele>
        <time>2009-08-07T19:02:24Z</time>
      </trkpt>
      <trkpt lat="45.06233" lon="6.04734">
        <ele>1078</ele>
        <time>2009-08-07T19:03:03Z</time>
      </trkpt>
      <trkpt lat="45.0618" lon="6.04724">
        <ele>1073</ele>
        <time>2009-08-07T19:03:13Z</time>
      </trkpt>
      <trkpt lat="45.06166" lon="6.0473">
        <ele>1073</ele>
        <time>2009-08-07T19:03:15Z</time>
      </trkpt>
      <trkpt lat="45.06153" lon="6.04744">
        <ele>1073</ele>
        <time>2009-08-07T19:03:18Z</time>
      </trkpt>
      <trkpt lat="45.06132" lon="6.04797">
        <ele>1100</ele>
        <time>2009-08-07T19:03:26Z</time>
      </trkpt>
      <trkpt lat="45.0609" lon="6.04866">
        <ele>1070</ele>
        <time>2009-08-07T19:03:38Z</time>
      </trkpt>
      <trkpt lat="45.06065" lon="6.04929">
        <ele>1095</ele>
        <time>2009-08-07T19:03:47Z</time>
      </trkpt>
      <trkpt lat="45.06052" lon="6.0495">
        <ele>1095</ele>
        <time>2009-08-07T19:03:51Z</time>
      </trkpt>
      <trkpt lat="45.05992" lon="6.04973">
        <ele>1121</ele>
        <time>2009-08-07T19:04:02Z</time>
      </trkpt>
      <trkpt lat="45.05948" lon="6.04976">
        <ele>1101</ele>
        <time>2009-08-07T19:04:10Z</time>
      </trkpt>
      <trkpt lat="45.05928" lon="6.04993">
        <ele>1101</ele>
        <time>2009-08-07T19:04:14Z</time>
      </trkpt>
      <trkpt lat="45.05924" lon="6.05058">
        <ele>1115</ele>
        <time>2009-08-07T19:04:23Z</time>
      </trkpt>
      <trkpt lat="45.05933" lon="6.05134">
        <ele>1138</ele>
        <time>2009-08-07T19:04:33Z</time>
      </trkpt>
      <trkpt lat="45.05928" lon="6.05153">
        <ele>1138</ele>
        <time>2009-08-07T19:04:35Z</time>
      </trkpt>
      <trkpt lat="45.05823" lon="6.05175">
        <ele>1125</ele>
        <time>2009-08-07T19:04:54Z</time>
      </trkpt>
      <trkpt lat="45.058" lon="6.05206">
        <ele>1125</ele>
        <time>2009-08-07T19:05:00Z</time>
      </trkpt>
      <trkpt lat="45.0578" lon="6.05271">
        <ele>1162</ele>
        <time>2009-08-07T19:05:09Z</time>
      </trkpt>
      <trkpt lat="45.05775" lon="6.05275">
        <ele>1162</ele>
        <time>2009-08-07T19:05:10Z</time>
      </trkpt>
      <trkpt lat="45.05756" lon="6.05269">
        <ele>1162</ele>
        <time>2009-08-07T19:05:14Z</time>
      </trkpt>
      <trkpt lat="45.05726" lon="6.05234">
        <ele>1162</ele>
        <time>2009-08-07T19:05:21Z</time>
      </trkpt>
      <trkpt lat="45.05628" lon="6.05185">
        <ele>1145</ele>
        <time>2009-08-07T19:05:40Z</time>
      </trkpt>
      <trkpt lat="45.05586" lon="6.05179">
        <ele>1157</ele>
        <time>2009-08-07T19:05:48Z</time>
      </trkpt>
      <trkpt lat="45.05565" lon="6.05184">
        <ele>1157</ele>
        <time>2009-08-07T19:05:52Z</time>
      </trkpt>
      <trkpt lat="45.05533" lon="6.05242">
        <ele>1156</ele>
        <time>2009-08-07T19:06:01Z</time>
      </trkpt>
      <trkpt lat="45.05466" lon="6.05414">
        <ele>1181</ele>
        <time>2009-08-07T19:06:26Z</time>
      </trkpt>
      <trkpt lat="45.05468" lon="6.05438">
        <ele>1181</ele>
        <time>2009-08-07T19:06:29Z</time>
      </trkpt>
      <trkpt lat="45.05482" lon="6.05463">
        <ele>1207</ele>
        <time>2009-08-07T19:06:33Z</time>
      </trkpt>
      <trkpt lat="45.05479" lon="6.0548">
        <ele>1207</ele>
        <time>2009-08-07T19:06:36Z</time>
      </trkpt>
      <trkpt lat="45.05465" lon="6.05485">
        <ele>1207</ele>
        <time>2009-08-07T19:06:38Z</time>
      </trkpt>
      <trkpt lat="45.05442" lon="6.05481">
        <ele>1174</ele>
        <time>2009-08-07T19:06:43Z</time>
      </trkpt>
      <trkpt lat="45.05432" lon="6.05487">
        <ele>1174</ele>
        <time>2009-08-07T19:06:44Z</time>
      </trkpt>
      <trkpt lat="45.05413" lon="6.05511">
        <ele>1174</ele>
        <time>2009-08-07T19:06:49Z</time>
      </trkpt>
      <trkpt lat="45.05374" lon="6.05585">
        <ele>1159</ele>
        <time>2009-08-07T19:07:01Z</time>
      </trkpt>
      <trkpt lat="45.05268" lon="6.0573">
        <ele>1181</ele>
        <time>2009-08-07T19:07:28Z</time>
      </trkpt>
      <trkpt lat="45.05251" lon="6.0578">
        <ele>1181</ele>
        <time>2009-08-07T19:07:35Z</time>
      </trkpt>
      <trkpt lat="45.05218" lon="6.05809">
        <ele>1224</ele>
        <time>2009-08-07T19:07:42Z</time>
      </trkpt>
      <trkpt lat="45.05202" lon="6.05858">
        <ele>1156</ele>
        <time>2009-08-07T19:07:49Z</time>
      </trkpt>
      <trkpt lat="45.0519" lon="6.05882">
        <ele>1215</ele>
        <time>2009-08-07T19:07:53Z</time>
      </trkpt>
      <trkpt lat="45.05147" lon="6.05935">
        <ele>1215</ele>
        <time>2009-08-07T19:08:03Z</time>
      </trkpt>
      <trkpt lat="45.05119" lon="6.05977">
        <ele>1218</ele>
        <time>2009-08-07T19:08:11Z</time>
      </trkpt>
      <trkpt lat="45.05071" lon="6.06019">
        <ele>1218</ele>
        <time>2009-08-07T19:08:21Z</time>
      </trkpt>
      <trkpt lat="45.05026" lon="6.06066">
        <ele>1229</ele>
        <time>2009-08-07T19:08:31Z</time>
      </trkpt>
      <trkpt lat="45.04946" lon="6.06122">
        <ele>1169</ele>
        <time>2009-08-07T19:08:47Z</time>
      </trkpt>
      <trkpt lat="45.04879" lon="6.06225">
        <ele>1316</ele>
        <time>2009-08-07T19:09:05Z</time>
      </trkpt>
      <trkpt lat="45.04848" lon="6.06233">
        <ele>1249</ele>
        <time>2009-08-07T19:09:11Z</time>
      </trkpt>
      <trkpt lat="45.04835" lon="6.06243">
        <ele>1249</ele>
        <time>2009-08-07T19:09:14Z</time>
      </trkpt>
      <trkpt lat="45.048" lon="6.06295">
        <ele>1315</ele>
        <time>2009-08-07T19:09:23Z</time>
      </trkpt>
      <trkpt lat="45.04772" lon="6.06349">
        <ele>1270</ele>
        <time>2009-08-07T19:09:31Z</time>
      </trkpt>
      <trkpt lat="45.04767" lon="6.06354">
        <ele>1270</ele>
        <time>2009-08-07T19:09:33Z</time>
      </trkpt>
      <trkpt lat="45.0475" lon="6.06355">
        <ele>1270</ele>
        <time>2009-08-07T19:09:36Z</time>
      </trkpt>
      <trkpt lat="45.04723" lon="6.06337">
        <ele>1270</ele>
        <time>2009-08-07T19:09:41Z</time>
      </trkpt>
      <trkpt lat="45.04709" lon="6.0634">
        <ele>1270</ele>
        <time>2009-08-07T19:09:44Z</time>
      </trkpt>
      <trkpt lat="45.04688" lon="6.06368">
        <ele>1221</ele>
        <time>2009-08-07T19:09:49Z</time>
      </trkpt>
      <trkpt lat="45.04663" lon="6.06388">
        <ele>1313</ele>
        <time>2009-08-07T19:09:54Z</time>
      </trkpt>
      <trkpt lat="45.04632" lon="6.0643">
        <ele>1313</ele>
        <time>2009-08-07T19:10:02Z</time>
      </trkpt>
      <trkpt lat="45.04449" lon="6.06538">
        <ele>1195</ele>
        <time>2009-08-07T19:10:38Z</time>
      </trkpt>
      <trkpt lat="45.04435" lon="6.06554">
        <ele>1284</ele>
        <time>2009-08-07T19:10:41Z</time>
      </trkpt>
      <trkpt lat="45.04406" lon="6.0662">
        <ele>1284</ele>
        <time>2009-08-07T19:10:51Z</time>
      </trkpt>
      <trkpt lat="45.04361" lon="6.06672">
        <ele>1263</ele>
        <time>2009-08-07T19:11:02Z</time>
      </trkpt>
      <trkpt lat="45.04328" lon="6.06732">
        <ele>1323</ele>
        <time>2009-08-07T19:11:12Z</time>
      </trkpt>
      <trkpt lat="45.0428" lon="6.06799">
        <ele>1319</ele>
        <time>2009-08-07T19:11:24Z</time>
      </trkpt>
      <trkpt lat="45.04265" lon="6.06814">
        <ele>1319</ele>
        <time>2009-08-07T19:11:27Z</time>
      </trkpt>
      <trkpt lat="45.04239" lon="6.0686">
        <ele>1319</ele>
        <time>2009-08-07T19:11:35Z</time>
      </trkpt>
      <trkpt lat="45.04232" lon="6.06866">
        <ele>1319</ele>
        <time>2009-08-07T19:11:36Z</time>
      </trkpt>
      <trkpt lat="45.04203" lon="6.0687">
        <ele>1277</ele>
        <time>2009-08-07T19:11:42Z</time>
      </trkpt>
      <trkpt lat="45.04193" lon="6.06877">
        <ele>1332</ele>
        <time>2009-08-07T19:11:44Z</time>
      </trkpt>
      <trkpt lat="45.04143" lon="6.06927">
        <ele>1332</ele>
        <time>2009-08-07T19:11:55Z</time>
      </trkpt>
      <trkpt lat="45.04123" lon="6.06976">
        <ele>1348</ele>
        <time>2009-08-07T19:12:02Z</time>
      </trkpt>
      <trkpt lat="45.04105" lon="6.06984">
        <ele>1348</ele>
        <time>2009-08-07T19:12:06Z</time>
      </trkpt>
      <trkpt lat="45.0407" lon="6.06974">
        <ele>1348</ele>
        <time>2009-08-07T19:12:12Z</time>
      </trkpt>
      <trkpt lat="45.04056" lon="6.06975">
        <ele>1348</ele>
        <time>2009-08-07T19:12:15Z</time>
      </trkpt>
      <trkpt lat="45.0402" lon="6.07005">
        <ele>1332</ele>
        <time>2009-08-07T19:12:22Z</time>
      </trkpt>
      <trkpt lat="45.0399" lon="6.07006">
        <ele>1332</ele>
        <time>2009-08-07T19:12:28Z</time>
      </trkpt>
      <trkpt lat="45.03972" lon="6.07012">
        <ele>1332</ele>
        <time>2009-08-07T19:12:31Z</time>
      </trkpt>
      <trkpt lat="45.03843" lon="6.07079">
        <ele>1305</ele>
        <time>2009-08-07T19:12:56Z</time>
      </trkpt>
      <trkpt lat="45.03796" lon="6.07176">
        <ele>1345</ele>
        <time>2009-08-07T19:13:11Z</time>
      </trkpt>
      <trkpt lat="45.03778" lon="6.07236">
        <ele>1316</ele>
        <time>2009-08-07T19:13:20Z</time>
      </trkpt>
      <trkpt lat="45.03741" lon="6.07281">
        <ele>1316</ele>
        <time>2009-08-07T19:13:28Z</time>
      </trkpt>
      <trkpt lat="45.03739" lon="6.07311">
        <ele>1318</ele>
        <time>2009-08-07T19:13:32Z</time>
      </trkpt>
      <trkpt lat="45.03743" lon="6.07334">
        <ele>1318</ele>
        <time>2009-08-07T19:13:35Z</time>
      </trkpt>
      <trkpt lat="45.0377" lon="6.07383">
        <ele>1301</ele>
        <time>2009-08-07T19:13:43Z</time>
      </trkpt>
      <trkpt lat="45.03786" lon="6.0743">
        <ele>1301</ele>
        <time>2009-08-07T19:13:50Z</time>
      </trkpt>
      <trkpt lat="45.0382" lon="6.07469">
        <ele>1306</ele>
        <time>2009-08-07T19:13:58Z</time>
      </trkpt>
      <trkpt lat="45.03852" lon="6.07524">
        <ele>1306</ele>
        <time>2009-08-07T19:14:07Z</time>
      </trkpt>
      <trkpt lat="45.0389" lon="6.07642">
        <ele>1297</ele>
        <time>2009-08-07T19:14:24Z</time>
      </trkpt>
      <trkpt lat="45.03904" lon="6.07663">
        <ele>1297</ele>
        <time>2009-08-07T19:14:28Z</time>
      </trkpt>
      <trkpt lat="45.03941" lon="6.07681">
        <ele>1297</ele>
        <time>2009-08-07T19:14:35Z</time>
      </trkpt>
      <trkpt lat="45.03944" lon="6.07689">
        <ele>1297</ele>
        <time>2009-08-07T19:14:36Z</time>
      </trkpt>
      <trkpt lat="45.03943" lon="6.07707">
        <ele>1297</ele>
        <time>2009-08-07T19:14:38Z</time>
      </trkpt>
      <trkpt lat="45.03938" lon="6.07715">
        <ele>1296</ele>
        <time>2009-08-07T19:14:39Z</time>
      </trkpt>
      <trkpt lat="45.03883" lon="6.07765">
        <ele>1296</ele>
        <time>2009-08-07T19:14:51Z</time>
      </trkpt>
      <trkpt lat="45.03856" lon="6.07837">
        <ele>1275</ele>
        <time>2009-08-07T19:15:02Z</time>
      </trkpt>
      <trkpt lat="45.03829" lon="6.07862">
        <ele>1275</ele>
        <time>2009-08-07T19:15:08Z</time>
      </trkpt>
      <trkpt lat="45.03817" lon="6.0788">
        <ele>1277</ele>
        <time>2009-08-07T19:15:11Z</time>
      </trkpt>
      <trkpt lat="45.0379" lon="6.07989">
        <ele>1251</ele>
        <time>2009-08-07T19:15:26Z</time>
      </trkpt>
      <trkpt lat="45.03755" lon="6.08081">
        <ele>1250</ele>
        <time>2009-08-07T19:15:39Z</time>
      </trkpt>
      <trkpt lat="45.0375" lon="6.08158">
        <ele>1244</ele>
        <time>2009-08-07T19:15:49Z</time>
      </trkpt>
      <trkpt lat="45.03756" lon="6.0819">
        <ele>1244</ele>
        <time>2009-08-07T19:15:53Z</time>
      </trkpt>
      <trkpt lat="45.0377" lon="6.08212">
        <ele>1229</ele>
        <time>2009-08-07T19:15:57Z</time>
      </trkpt>
      <trkpt lat="45.03805" lon="6.08237">
        <ele>1252</ele>
        <time>2009-08-07T19:16:04Z</time>
      </trkpt>
      <trkpt lat="45.03856" lon="6.083">
        <ele>1224</ele>
        <time>2009-08-07T19:16:17Z</time>
      </trkpt>
      <trkpt lat="45.03907" lon="6.08322">
        <ele>1241</ele>
        <time>2009-08-07T19:16:26Z</time>
      </trkpt>
      <trkpt lat="45.03982" lon="6.0838">
        <ele>1237</ele>
        <time>2009-08-07T19:16:42Z</time>
      </trkpt>
      <trkpt lat="45.04021" lon="6.08425">
        <ele>1237</ele>
        <time>2009-08-07T19:16:51Z</time>
      </trkpt>
      <trkpt lat="45.04024" lon="6.08443">
        <ele>1237</ele>
        <time>2009-08-07T19:16:53Z</time>
      </trkpt>
      <trkpt lat="45.04069" lon="6.08489">
        <ele>1242</ele>
        <time>2009-08-07T19:17:04Z</time>
      </trkpt>
      <trkpt lat="45.04082" lon="6.08499">
        <ele>1242</ele>
        <time>2009-08-07T19:17:06Z</time>
      </trkpt>
      <trkpt lat="45.04131" lon="6.0852">
        <ele>1271</ele>
        <time>2009-08-07T19:17:16Z</time>
      </trkpt>
      <trkpt lat="45.04146" lon="6.08533">
        <ele>1271</ele>
        <time>2009-08-07T19:17:19Z</time>
      </trkpt>
      <trkpt lat="45.0415" lon="6.08546">
        <ele>1240</ele>
        <time>2009-08-07T19:17:21Z</time>
      </trkpt>
      <trkpt lat="45.04154" lon="6.08598">
        <ele>1240</ele>
        <time>2009-08-07T19:17:27Z</time>
      </trkpt>
      <trkpt lat="45.04168" lon="6.08637">
        <ele>1207</ele>
        <time>2009-08-07T19:17:33Z</time>
      </trkpt>
      <trkpt lat="45.04182" lon="6.08658">
        <ele>1207</ele>
        <time>2009-08-07T19:17:37Z</time>
      </trkpt>
      <trkpt lat="45.04218" lon="6.08694">
        <ele>1255</ele>
        <time>2009-08-07T19:17:45Z</time>
      </trkpt>
      <trkpt lat="45.04243" lon="6.08748">
        <ele>1220</ele>
        <time>2009-08-07T19:17:53Z</time>
      </trkpt>
      <trkpt lat="45.0427" lon="6.08775">
        <ele>1220</ele>
        <time>2009-08-07T19:17:59Z</time>
      </trkpt>
      <trkpt lat="45.04289" lon="6.08803">
        <ele>1186</ele>
        <time>2009-08-07T19:18:04Z</time>
      </trkpt>
      <trkpt lat="45.04305" lon="6.08837">
        <ele>1231</ele>
        <time>2009-08-07T19:18:09Z</time>
      </trkpt>
      <trkpt lat="45.04358" lon="6.08993">
        <ele>1200</ele>
        <time>2009-08-07T19:18:31Z</time>
      </trkpt>
      <trkpt lat="45.04378" lon="6.09028">
        <ele>1200</ele>
        <time>2009-08-07T19:18:37Z</time>
      </trkpt>
      <trkpt lat="45.04503" lon="6.09071">
        <ele>1185</ele>
        <time>2009-08-07T19:19:01Z</time>
      </trkpt>
      <trkpt lat="45.04563" lon="6.09102">
        <ele>1189</ele>
        <time>2009-08-07T19:19:12Z</time>
      </trkpt>
      <trkpt lat="45.04619" lon="6.09104">
        <ele>1189</ele>
        <time>2009-08-07T19:19:22Z</time>
      </trkpt>
      <trkpt lat="45.04633" lon="6.09117">
        <ele>1202</ele>
        <time>2009-08-07T19:19:26Z</time>
      </trkpt>
      <trkpt lat="45.04639" lon="6.09173">
        <ele>1194</ele>
        <time>2009-08-07T19:19:33Z</time>
      </trkpt>
      <trkpt lat="45.04659" lon="6.09232">
        <ele>1182</ele>
        <time>2009-08-07T19:19:41Z</time>
      </trkpt>
      <trkpt lat="45.04716" lon="6.09316">
        <ele>1191</ele>
        <time>2009-08-07T19:19:56Z</time>
      </trkpt>
      <trkpt lat="45.04762" lon="6.0937">
        <ele>1191</ele>
        <time>2009-08-07T19:20:07Z</time>
      </trkpt>
      <trkpt lat="45.04769" lon="6.09395">
        <ele>1184</ele>
        <time>2009-08-07T19:20:11Z</time>
      </trkpt>
      <trkpt lat="45.04779" lon="6.09466">
        <ele>1172</ele>
        <time>2009-08-07T19:20:20Z</time>
      </trkpt>
      <trkpt lat="45.04791" lon="6.09598">
        <ele>1163</ele>
        <time>2009-08-07T19:20:37Z</time>
      </trkpt>
      <trkpt lat="45.04793" lon="6.09762">
        <ele>1199</ele>
        <time>2009-08-07T19:20:58Z</time>
      </trkpt>
      <trkpt lat="45.04818" lon="6.09836">
        <ele>1184</ele>
        <time>2009-08-07T19:21:09Z</time>
      </trkpt>
      <trkpt lat="45.04863" lon="6.09875">
        <ele>1157</ele>
        <time>2009-08-07T19:21:18Z</time>
      </trkpt>
      <trkpt lat="45.04873" lon="6.09892">
        <ele>1157</ele>
        <time>2009-08-07T19:21:21Z</time>
      </trkpt>
      <trkpt lat="45.04867" lon="6.09975">
        <ele>1146</ele>
        <time>2009-08-07T19:21:32Z</time>
      </trkpt>
      <trkpt lat="45.04839" lon="6.1003">
        <ele>1146</ele>
        <time>2009-08-07T19:21:40Z</time>
      </trkpt>
      <trkpt lat="45.04825" lon="6.10068">
        <ele>1153</ele>
        <time>2009-08-07T19:21:46Z</time>
      </trkpt>
      <trkpt lat="45.04824" lon="6.10081">
        <ele>1153</ele>
        <time>2009-08-07T19:21:48Z</time>
      </trkpt>
      <trkpt lat="45.0483" lon="6.1011">
        <ele>1153</ele>
        <time>2009-08-07T19:21:52Z</time>
      </trkpt>
      <trkpt lat="45.04871" lon="6.10179">
        <ele>1141</ele>
        <time>2009-08-07T19:22:03Z</time>
      </trkpt>
      <trkpt lat="45.0489" lon="6.10192">
        <ele>1170</ele>
        <time>2009-08-07T19:22:07Z</time>
      </trkpt>
      <trkpt lat="45.04939" lon="6.10205">
        <ele>1170</ele>
        <time>2009-08-07T19:22:16Z</time>
      </trkpt>
      <trkpt lat="45.04952" lon="6.1022">
        <ele>1152</ele>
        <time>2009-08-07T19:22:19Z</time>
      </trkpt>
      <trkpt lat="45.04954" lon="6.10233">
        <ele>1152</ele>
        <time>2009-08-07T19:22:21Z</time>
      </trkpt>
      <trkpt lat="45.04951" lon="6.10246">
        <ele>1152</ele>
        <time>2009-08-07T19:22:23Z</time>
      </trkpt>
      <trkpt lat="45.04934" lon="6.10268">
        <ele>1152</ele>
        <time>2009-08-07T19:22:27Z</time>
      </trkpt>
      <trkpt lat="45.04865" lon="6.10308">
        <ele>1160</ele>
        <time>2009-08-07T19:22:40Z</time>
      </trkpt>
      <trkpt lat="45.04825" lon="6.10341">
        <ele>1160</ele>
        <time>2009-08-07T19:22:49Z</time>
      </trkpt>
      <trkpt lat="45.04782" lon="6.10379">
        <ele>1166</ele>
        <time>2009-08-07T19:22:58Z</time>
      </trkpt>
      <trkpt lat="45.04756" lon="6.10415">
        <ele>1166</ele>
        <time>2009-08-07T19:23:05Z</time>
      </trkpt>
      <trkpt lat="45.04729" lon="6.10472">
        <ele>1185</ele>
        <time>2009-08-07T19:23:13Z</time>
      </trkpt>
      <trkpt lat="45.04708" lon="6.10534">
        <ele>1159</ele>
        <time>2009-08-07T19:23:22Z</time>
      </trkpt>
      <trkpt lat="45.04682" lon="6.10645">
        <ele>1187</ele>
        <time>2009-08-07T19:23:37Z</time>
      </trkpt>
      <trkpt lat="45.04648" lon="6.10722">
        <ele>1214</ele>
        <time>2009-08-07T19:23:49Z</time>
      </trkpt>
      <trkpt lat="45.04628" lon="6.10747">
        <ele>1214</ele>
        <time>2009-08-07T19:23:54Z</time>
      </trkpt>
      <trkpt lat="45.046" lon="6.10768">
        <ele>1195</ele>
        <time>2009-08-07T19:24:00Z</time>
      </trkpt>
      <trkpt lat="45.04536" lon="6.10789">
        <ele>1184</ele>
        <time>2009-08-07T19:24:12Z</time>
      </trkpt>
      <trkpt lat="45.04511" lon="6.1079">
        <ele>1184</ele>
        <time>2009-08-07T19:24:16Z</time>
      </trkpt>
      <trkpt lat="45.0449" lon="6.10775">
        <ele>1184</ele>
        <time>2009-08-07T19:24:20Z</time>
      </trkpt>
      <trkpt lat="45.04477" lon="6.10775">
        <ele>1184</ele>
        <time>2009-08-07T19:24:23Z</time>
      </trkpt>
      <trkpt lat="45.04404" lon="6.10826">
        <ele>1214</ele>
        <time>2009-08-07T19:24:38Z</time>
      </trkpt>
      <trkpt lat="45.04399" lon="6.10896">
        <ele>1229</ele>
        <time>2009-08-07T19:24:47Z</time>
      </trkpt>
      <trkpt lat="45.04381" lon="6.10963">
        <ele>1231</ele>
        <time>2009-08-07T19:24:56Z</time>
      </trkpt>
      <trkpt lat="45.04385" lon="6.10977">
        <ele>1231</ele>
        <time>2009-08-07T19:24:58Z</time>
      </trkpt>
      <trkpt lat="45.04419" lon="6.11006">
        <ele>1231</ele>
        <time>2009-08-07T19:25:05Z</time>
      </trkpt>
      <trkpt lat="45.04459" lon="6.1107">
        <ele>1249</ele>
        <time>2009-08-07T19:25:16Z</time>
      </trkpt>
      <trkpt lat="45.04491" lon="6.1111">
        <ele>1249</ele>
        <time>2009-08-07T19:25:24Z</time>
      </trkpt>
      <trkpt lat="45.04502" lon="6.11142">
        <ele>1240</ele>
        <time>2009-08-07T19:25:28Z</time>
      </trkpt>
      <trkpt lat="45.04504" lon="6.1117">
        <ele>1240</ele>
        <time>2009-08-07T19:25:32Z</time>
      </trkpt>
      <trkpt lat="45.045" lon="6.11197">
        <ele>1240</ele>
        <time>2009-08-07T19:25:35Z</time>
      </trkpt>
      <trkpt lat="45.04494" lon="6.11208">
        <ele>1240</ele>
        <time>2009-08-07T19:25:37Z</time>
      </trkpt>
      <trkpt lat="45.04481" lon="6.11218">
        <ele>1245</ele>
        <time>2009-08-07T19:25:40Z</time>
      </trkpt>
      <trkpt lat="45.04442" lon="6.1123">
        <ele>1231</ele>
        <time>2009-08-07T19:25:47Z</time>
      </trkpt>
      <trkpt lat="45.04433" lon="6.11243">
        <ele>1231</ele>
        <time>2009-08-07T19:25:50Z</time>
      </trkpt>
      <trkpt lat="45.04427" lon="6.11263">
        <ele>1231</ele>
        <time>2009-08-07T19:25:52Z</time>
      </trkpt>
      <trkpt lat="45.04422" lon="6.11288">
        <ele>1231</ele>
        <time>2009-08-07T19:25:56Z</time>
      </trkpt>
      <trkpt lat="45.04423" lon="6.11341">
        <ele>1236</ele>
        <time>2009-08-07T19:26:02Z</time>
      </trkpt>
      <trkpt lat="45.04441" lon="6.11375">
        <ele>1236</ele>
        <time>2009-08-07T19:26:08Z</time>
      </trkpt>
      <trkpt lat="45.04501" lon="6.11409">
        <ele>1233</ele>
        <time>2009-08-07T19:26:20Z</time>
      </trkpt>
      <trkpt lat="45.04591" lon="6.11489">
        <ele>1219</ele>
        <time>2009-08-07T19:26:39Z</time>
      </trkpt>
      <trkpt lat="45.04676" lon="6.11534">
        <ele>1231</ele>
        <time>2009-08-07T19:26:56Z</time>
      </trkpt>
      <trkpt lat="45.04794" lon="6.11581">
        <ele>1218</ele>
        <time>2009-08-07T19:27:18Z</time>
      </trkpt>
      <trkpt lat="45.0484" lon="6.1163">
        <ele>1191</ele>
        <time>2009-08-07T19:27:28Z</time>
      </trkpt>
      <trkpt lat="45.04868" lon="6.11674">
        <ele>1191</ele>
        <time>2009-08-07T19:27:36Z</time>
      </trkpt>
      <trkpt lat="45.04861" lon="6.11691">
        <ele>1191</ele>
        <time>2009-08-07T19:27:38Z</time>
      </trkpt>
      <trkpt lat="45.0485" lon="6.11691">
        <ele>1191</ele>
        <time>2009-08-07T19:27:40Z</time>
      </trkpt>
      <trkpt lat="45.04773" lon="6.11643">
        <ele>1168</ele>
        <time>2009-08-07T19:27:56Z</time>
      </trkpt>
      <trkpt lat="45.04691" lon="6.11628">
        <ele>1157</ele>
        <time>2009-08-07T19:28:11Z</time>
      </trkpt>
      <trkpt lat="45.04671" lon="6.11629">
        <ele>1157</ele>
        <time>2009-08-07T19:28:14Z</time>
      </trkpt>
      <trkpt lat="45.04635" lon="6.11646">
        <ele>1157</ele>
        <time>2009-08-07T19:28:21Z</time>
      </trkpt>
      <trkpt lat="45.04623" lon="6.11646">
        <ele>1141</ele>
        <time>2009-08-07T19:28:24Z</time>
      </trkpt>
      <trkpt lat="45.04528" lon="6.11596">
        <ele>1158</ele>
        <time>2009-08-07T19:28:42Z</time>
      </trkpt>
      <trkpt lat="45.04476" lon="6.11579">
        <ele>1158</ele>
        <time>2009-08-07T19:28:52Z</time>
      </trkpt>
      <trkpt lat="45.0441" lon="6.11585">
        <ele>1149</ele>
        <time>2009-08-07T19:29:04Z</time>
      </trkpt>
      <trkpt lat="45.04379" lon="6.11591">
        <ele>1149</ele>
        <time>2009-08-07T19:29:09Z</time>
      </trkpt>
      <trkpt lat="45.04368" lon="6.11598">
        <ele>1147</ele>
        <time>2009-08-07T19:29:12Z</time>
      </trkpt>
      <trkpt lat="45.04372" lon="6.11609">
        <ele>1147</ele>
        <time>2009-08-07T19:29:13Z</time>
      </trkpt>
      <trkpt lat="45.04431" lon="6.11614">
        <ele>1149</ele>
        <time>2009-08-07T19:29:24Z</time>
      </trkpt>
      <trkpt lat="45.04454" lon="6.11631">
        <ele>1110</ele>
        <time>2009-08-07T19:29:29Z</time>
      </trkpt>
      <trkpt lat="45.04466" lon="6.11658">
        <ele>1124</ele>
        <time>2009-08-07T19:29:33Z</time>
      </trkpt>
      <trkpt lat="45.04484" lon="6.11725">
        <ele>1101</ele>
        <time>2009-08-07T19:29:42Z</time>
      </trkpt>
      <trkpt lat="45.04502" lon="6.11756">
        <ele>1101</ele>
        <time>2009-08-07T19:29:47Z</time>
      </trkpt>
      <trkpt lat="45.04511" lon="6.11766">
        <ele>1101</ele>
        <time>2009-08-07T19:29:49Z</time>
      </trkpt>
      <trkpt lat="45.04544" lon="6.11783">
        <ele>1113</ele>
        <time>2009-08-07T19:29:56Z</time>
      </trkpt>
      <trkpt lat="45.04593" lon="6.11833">
        <ele>1090</ele>
        <time>2009-08-07T19:30:07Z</time>
      </trkpt>
      <trkpt lat="45.04644" lon="6.1186">
        <ele>1099</ele>
        <time>2009-08-07T19:30:17Z</time>
      </trkpt>
      <trkpt lat="45.04653" lon="6.1187">
        <ele>1099</ele>
        <time>2009-08-07T19:30:19Z</time>
      </trkpt>
      <trkpt lat="45.04679" lon="6.11913">
        <ele>1075</ele>
        <time>2009-08-07T19:30:26Z</time>
      </trkpt>
      <trkpt lat="45.04711" lon="6.1201">
        <ele>1074</ele>
        <time>2009-08-07T19:30:40Z</time>
      </trkpt>
      <trkpt lat="45.04768" lon="6.12045">
        <ele>1052</ele>
        <time>2009-08-07T19:30:51Z</time>
      </trkpt>
      <trkpt lat="45.04786" lon="6.12073">
        <ele>1052</ele>
        <time>2009-08-07T19:30:56Z</time>
      </trkpt>
      <trkpt lat="45.04782" lon="6.1208">
        <ele>1052</ele>
        <time>2009-08-07T19:30:57Z</time>
      </trkpt>
      <trkpt lat="45.04775" lon="6.1208">
        <ele>1052</ele>
        <time>2009-08-07T19:30:58Z</time>
      </trkpt>
      <trkpt lat="45.04719" lon="6.12061">
        <ele>1052</ele>
        <time>2009-08-07T19:31:09Z</time>
      </trkpt>
      <trkpt lat="45.04669" lon="6.1206">
        <ele>1039</ele>
        <time>2009-08-07T19:31:18Z</time>
      </trkpt>
      <trkpt lat="45.04637" lon="6.12073">
        <ele>1039</ele>
        <time>2009-08-07T19:31:24Z</time>
      </trkpt>
      <trkpt lat="45.04582" lon="6.12082">
        <ele>1034</ele>
        <time>2009-08-07T19:31:34Z</time>
      </trkpt>
      <trkpt lat="45.0455" lon="6.12114">
        <ele>1034</ele>
        <time>2009-08-07T19:31:41Z</time>
      </trkpt>
      <trkpt lat="45.04549" lon="6.1212">
        <ele>1034</ele>
        <time>2009-08-07T19:31:42Z</time>
      </trkpt>
      <trkpt lat="45.04552" lon="6.12131">
        <ele>1013</ele>
        <time>2009-08-07T19:31:43Z</time>
      </trkpt>
      <trkpt lat="45.04587" lon="6.12142">
        <ele>1013</ele>
        <time>2009-08-07T19:31:50Z</time>
      </trkpt>
      <trkpt lat="45.04597" lon="6.1215">
        <ele>1013</ele>
        <time>2009-08-07T19:31:52Z</time>
      </trkpt>
      <trkpt lat="45.0462" lon="6.12178">
        <ele>1013</ele>
        <time>2009-08-07T19:31:58Z</time>
      </trkpt>
      <trkpt lat="45.04665" lon="6.12199">
        <ele>1016</ele>
        <time>2009-08-07T19:32:06Z</time>
      </trkpt>
      <trkpt lat="45.04689" lon="6.12227">
        <ele>996</ele>
        <time>2009-08-07T19:32:12Z</time>
      </trkpt>
      <trkpt lat="45.04726" lon="6.12304">
        <ele>986</ele>
        <time>2009-08-07T19:32:24Z</time>
      </trkpt>
      <trkpt lat="45.04741" lon="6.12345">
        <ele>986</ele>
        <time>2009-08-07T19:32:30Z</time>
      </trkpt>
      <trkpt lat="45.04744" lon="6.12363">
        <ele>986</ele>
        <time>2009-08-07T19:32:32Z</time>
      </trkpt>
      <trkpt lat="45.04741" lon="6.12488">
        <ele>964</ele>
        <time>2009-08-07T19:32:48Z</time>
      </trkpt>
      <trkpt lat="45.04748" lon="6.12527">
        <ele>964</ele>
        <time>2009-08-07T19:32:53Z</time>
      </trkpt>
      <trkpt lat="45.04764" lon="6.12546">
        <ele>950</ele>
        <time>2009-08-07T19:32:57Z</time>
      </trkpt>
      <trkpt lat="45.04789" lon="6.12562">
        <ele>950</ele>
        <time>2009-08-07T19:33:02Z</time>
      </trkpt>
      <trkpt lat="45.04831" lon="6.12577">
        <ele>966</ele>
        <time>2009-08-07T19:33:10Z</time>
      </trkpt>
      <trkpt lat="45.04811" lon="6.12597">
        <ele>966</ele>
        <time>2009-08-07T19:33:14Z</time>
      </trkpt>
      <trkpt lat="45.04795" lon="6.12606">
        <ele>966</ele>
        <time>2009-08-07T19:33:18Z</time>
      </trkpt>
      <trkpt lat="45.04769" lon="6.12611">
        <ele>950</ele>
        <time>2009-08-07T19:33:22Z</time>
      </trkpt>
      <trkpt lat="45.04753" lon="6.12601">
        <ele>950</ele>
        <time>2009-08-07T19:33:26Z</time>
      </trkpt>
      <trkpt lat="45.04725" lon="6.12567">
        <ele>950</ele>
        <time>2009-08-07T19:33:32Z</time>
      </trkpt>
      <trkpt lat="45.04714" lon="6.12565">
        <ele>950</ele>
        <time>2009-08-07T19:33:34Z</time>
      </trkpt>
      <trkpt lat="45.0471" lon="6.12569">
        <ele>950</ele>
        <time>2009-08-07T19:33:35Z</time>
      </trkpt>
      <trkpt lat="45.04704" lon="6.1258">
        <ele>929</ele>
        <time>2009-08-07T19:33:37Z</time>
      </trkpt>
      <trkpt lat="45.04697" lon="6.12636">
        <ele>928</ele>
        <time>2009-08-07T19:33:44Z</time>
      </trkpt>
      <trkpt lat="45.04686" lon="6.1268">
        <ele>928</ele>
        <time>2009-08-07T19:33:50Z</time>
      </trkpt>
      <trkpt lat="45.04688" lon="6.12699">
        <ele>928</ele>
        <time>2009-08-07T19:33:53Z</time>
      </trkpt>
      <trkpt lat="45.04709" lon="6.12743">
        <ele>937</ele>
        <time>2009-08-07T19:34:00Z</time>
      </trkpt>
      <trkpt lat="45.047" lon="6.12777">
        <ele>932</ele>
        <time>2009-08-07T19:34:04Z</time>
      </trkpt>
      <trkpt lat="45.04629" lon="6.12741">
        <ele>932</ele>
        <time>2009-08-07T19:34:18Z</time>
      </trkpt>
      <trkpt lat="45.04565" lon="6.12595">
        <ele>928</ele>
        <time>2009-08-07T19:34:40Z</time>
      </trkpt>
      <trkpt lat="45.04542" lon="6.12555">
        <ele>928</ele>
        <time>2009-08-07T19:34:47Z</time>
      </trkpt>
      <trkpt lat="45.04533" lon="6.12546">
        <ele>931</ele>
        <time>2009-08-07T19:34:49Z</time>
      </trkpt>
      <trkpt lat="45.04514" lon="6.12538">
        <ele>927</ele>
        <time>2009-08-07T19:34:52Z</time>
      </trkpt>
      <trkpt lat="45.04498" lon="6.12539">
        <ele>927</ele>
        <time>2009-08-07T19:34:55Z</time>
      </trkpt>
      <trkpt lat="45.04484" lon="6.12522">
        <ele>927</ele>
        <time>2009-08-07T19:34:59Z</time>
      </trkpt>
      <trkpt lat="45.04449" lon="6.12499">
        <ele>931</ele>
        <time>2009-08-07T19:35:06Z</time>
      </trkpt>
      <trkpt lat="45.04277" lon="6.1241">
        <ele>934</ele>
        <time>2009-08-07T19:35:39Z</time>
      </trkpt>
      <trkpt lat="45.04254" lon="6.12386">
        <ele>934</ele>
        <time>2009-08-07T19:35:44Z</time>
      </trkpt>
      <trkpt lat="45.04243" lon="6.12359">
        <ele>930</ele>
        <time>2009-08-07T19:35:48Z</time>
      </trkpt>
      <trkpt lat="45.0424" lon="6.12316">
        <ele>930</ele>
        <time>2009-08-07T19:35:54Z</time>
      </trkpt>
      <trkpt lat="45.04265" lon="6.12172">
        <ele>946</ele>
        <time>2009-08-07T19:36:13Z</time>
      </trkpt>
      <trkpt lat="45.04265" lon="6.12117">
        <ele>932</ele>
        <time>2009-08-07T19:36:20Z</time>
      </trkpt>
      <trkpt lat="45.04257" lon="6.12078">
        <ele>932</ele>
        <time>2009-08-07T19:36:25Z</time>
      </trkpt>
      <trkpt lat="45.04237" lon="6.12043">
        <ele>932</ele>
        <time>2009-08-07T19:36:31Z</time>
      </trkpt>
      <trkpt lat="45.04183" lon="6.11995">
        <ele>931</ele>
        <time>2009-08-07T19:36:42Z</time>
      </trkpt>
      <trkpt lat="45.04142" lon="6.1191">
        <ele>936</ele>
        <time>2009-08-07T19:36:56Z</time>
      </trkpt>
      <trkpt lat="45.04074" lon="6.11819">
        <ele>926</ele>
        <time>2009-08-07T19:37:13Z</time>
      </trkpt>
      <trkpt lat="45.04057" lon="6.11777">
        <ele>937</ele>
        <time>2009-08-07T19:37:19Z</time>
      </trkpt>
      <trkpt lat="45.0403" lon="6.11675">
        <ele>980</ele>
        <time>2009-08-07T19:37:33Z</time>
      </trkpt>
      <trkpt lat="45.04004" lon="6.11575">
        <ele>1074</ele>
        <time>2009-08-07T19:37:47Z</time>
      </trkpt>
      <trkpt lat="45.03997" lon="6.11531">
        <ele>1128</ele>
        <time>2009-08-07T19:37:52Z</time>
      </trkpt>
      <trkpt lat="45.03985" lon="6.11382">
        <ele>1196</ele>
        <time>2009-08-07T19:38:12Z</time>
      </trkpt>
      <trkpt lat="45.03959" lon="6.11251">
        <ele>1123</ele>
        <time>2009-08-07T19:38:29Z</time>
      </trkpt>
      <trkpt lat="45.03932" lon="6.11004">
        <ele>1025</ele>
        <time>2009-08-07T19:39:01Z</time>
      </trkpt>
      <trkpt lat="45.03906" lon="6.10949">
        <ele>999</ele>
        <time>2009-08-07T19:39:10Z</time>
      </trkpt>
      <trkpt lat="45.03904" lon="6.10916">
        <ele>999</ele>
        <time>2009-08-07T19:39:14Z</time>
      </trkpt>
      <trkpt lat="45.0391" lon="6.10859">
        <ele>962</ele>
        <time>2009-08-07T19:39:22Z</time>
      </trkpt>
      <trkpt lat="45.03895" lon="6.10805">
        <ele>962</ele>
        <time>2009-08-07T19:39:29Z</time>
      </trkpt>
      <trkpt lat="45.03864" lon="6.10741">
        <ele>1011</ele>
        <time>2009-08-07T19:39:39Z</time>
      </trkpt>
      <trkpt lat="45.03828" lon="6.10605">
        <ele>973</ele>
        <time>2009-08-07T19:39:58Z</time>
      </trkpt>
      <trkpt lat="45.03818" lon="6.10579">
        <ele>973</ele>
        <time>2009-08-07T19:40:01Z</time>
      </trkpt>
      <trkpt lat="45.03805" lon="6.10512">
        <ele>974</ele>
        <time>2009-08-07T19:40:10Z</time>
      </trkpt>
      <trkpt lat="45.038" lon="6.10407">
        <ele>982</ele>
        <time>2009-08-07T19:40:24Z</time>
      </trkpt>
      <trkpt lat="45.03803" lon="6.10377">
        <ele>982</ele>
        <time>2009-08-07T19:40:28Z</time>
      </trkpt>
      <trkpt lat="45.03814" lon="6.10349">
        <ele>992</ele>
        <time>2009-08-07T19:40:32Z</time>
      </trkpt>
      <trkpt lat="45.03839" lon="6.10311">
        <ele>992</ele>
        <time>2009-08-07T19:40:39Z</time>
      </trkpt>
      <trkpt lat="45.03872" lon="6.10283">
        <ele>1011</ele>
        <time>2009-08-07T19:40:46Z</time>
      </trkpt>
      <trkpt lat="45.03884" lon="6.10262">
        <ele>981</ele>
        <time>2009-08-07T19:40:49Z</time>
      </trkpt>
      <trkpt lat="45.0389" lon="6.10232">
        <ele>981</ele>
        <time>2009-08-07T19:40:53Z</time>
      </trkpt>
      <trkpt lat="45.03883" lon="6.10184">
        <ele>988</ele>
        <time>2009-08-07T19:40:59Z</time>
      </trkpt>
      <trkpt lat="45.03893" lon="6.1015">
        <ele>988</ele>
        <time>2009-08-07T19:41:04Z</time>
      </trkpt>
      <trkpt lat="45.03934" lon="6.1011">
        <ele>1021</ele>
        <time>2009-08-07T19:41:13Z</time>
      </trkpt>
      <trkpt lat="45.03981" lon="6.10044">
        <ele>973</ele>
        <time>2009-08-07T19:41:25Z</time>
      </trkpt>
      <trkpt lat="45.04001" lon="6.10028">
        <ele>1014</ele>
        <time>2009-08-07T19:41:29Z</time>
      </trkpt>
      <trkpt lat="45.04045" lon="6.10011">
        <ele>963</ele>
        <time>2009-08-07T19:41:38Z</time>
      </trkpt>
      <trkpt lat="45.04075" lon="6.0998">
        <ele>963</ele>
        <time>2009-08-07T19:41:44Z</time>
      </trkpt>
      <trkpt lat="45.04094" lon="6.09949">
        <ele>995</ele>
        <time>2009-08-07T19:41:50Z</time>
      </trkpt>
      <trkpt lat="45.04096" lon="6.09914">
        <ele>995</ele>
        <time>2009-08-07T19:41:54Z</time>
      </trkpt>
      <trkpt lat="45.04086" lon="6.09891">
        <ele>995</ele>
        <time>2009-08-07T19:41:58Z</time>
      </trkpt>
      <trkpt lat="45.0403" lon="6.09833">
        <ele>1012</ele>
        <time>2009-08-07T19:42:10Z</time>
      </trkpt>
      <trkpt lat="45.04019" lon="6.09803">
        <ele>1012</ele>
        <time>2009-08-07T19:42:15Z</time>
      </trkpt>
      <trkpt lat="45.04017" lon="6.09775">
        <ele>992</ele>
        <time>2009-08-07T19:42:18Z</time>
      </trkpt>
      <trkpt lat="45.04021" lon="6.09741">
        <ele>992</ele>
        <time>2009-08-07T19:42:23Z</time>
      </trkpt>
      <trkpt lat="45.04036" lon="6.09662">
        <ele>992</ele>
        <time>2009-08-07T19:42:33Z</time>
      </trkpt>
      <trkpt lat="45.04032" lon="6.09628">
        <ele>992</ele>
        <time>2009-08-07T19:42:38Z</time>
      </trkpt>
      <trkpt lat="45.0396" lon="6.09468">
        <ele>978</ele>
        <time>2009-08-07T19:43:02Z</time>
      </trkpt>
      <trkpt lat="45.03943" lon="6.09441">
        <ele>981</ele>
        <time>2009-08-07T19:43:07Z</time>
      </trkpt>
      <trkpt lat="45.039" lon="6.09391">
        <ele>981</ele>
        <time>2009-08-07T19:43:17Z</time>
      </trkpt>
      <trkpt lat="45.03823" lon="6.09218">
        <ele>970</ele>
        <time>2009-08-07T19:43:43Z</time>
      </trkpt>
      <trkpt lat="45.03799" lon="6.09173">
        <ele>960</ele>
        <time>2009-08-07T19:43:50Z</time>
      </trkpt>
      <trkpt lat="45.0378" lon="6.09151">
        <ele>960</ele>
        <time>2009-08-07T19:43:55Z</time>
      </trkpt>
      <trkpt lat="45.03752" lon="6.09151">
        <ele>960</ele>
        <time>2009-08-07T19:44:00Z</time>
      </trkpt>
      <trkpt lat="45.03723" lon="6.09173">
        <ele>960</ele>
        <time>2009-08-07T19:44:06Z</time>
      </trkpt>
      <trkpt lat="45.03703" lon="6.09199">
        <ele>939</ele>
        <time>2009-08-07T19:44:11Z</time>
      </trkpt>
      <trkpt lat="45.03652" lon="6.09294">
        <ele>955</ele>
        <time>2009-08-07T19:44:26Z</time>
      </trkpt>
      <trkpt lat="45.03633" lon="6.0931">
        <ele>955</ele>
        <time>2009-08-07T19:44:30Z</time>
      </trkpt>
      <trkpt lat="45.03612" lon="6.09317">
        <ele>959</ele>
        <time>2009-08-07T19:44:34Z</time>
      </trkpt>
      <trkpt lat="45.03592" lon="6.09308">
        <ele>959</ele>
        <time>2009-08-07T19:44:38Z</time>
      </trkpt>
      <trkpt lat="45.03561" lon="6.09268">
        <ele>941</ele>
        <time>2009-08-07T19:44:46Z</time>
      </trkpt>
      <trkpt lat="45.0355" lon="6.09244">
        <ele>941</ele>
        <time>2009-08-07T19:44:49Z</time>
      </trkpt>
      <trkpt lat="45.03533" lon="6.09228">
        <ele>953</ele>
        <time>2009-08-07T19:44:53Z</time>
      </trkpt>
      <trkpt lat="45.03399" lon="6.09176">
        <ele>931</ele>
        <time>2009-08-07T19:45:18Z</time>
      </trkpt>
      <trkpt lat="45.03393" lon="6.09162">
        <ele>931</ele>
        <time>2009-08-07T19:45:20Z</time>
      </trkpt>
      <trkpt lat="45.03388" lon="6.09093">
        <ele>917</ele>
        <time>2009-08-07T19:45:29Z</time>
      </trkpt>
      <trkpt lat="45.0338" lon="6.09071">
        <ele>917</ele>
        <time>2009-08-07T19:45:32Z</time>
      </trkpt>
      <trkpt lat="45.03373" lon="6.09063">
        <ele>927</ele>
        <time>2009-08-07T19:45:34Z</time>
      </trkpt>
      <trkpt lat="45.0336" lon="6.09054">
        <ele>927</ele>
        <time>2009-08-07T19:45:37Z</time>
      </trkpt>
      <trkpt lat="45.03309" lon="6.09049">
        <ele>927</ele>
        <time>2009-08-07T19:45:46Z</time>
      </trkpt>
      <trkpt lat="45.03282" lon="6.09041">
        <ele>913</ele>
        <time>2009-08-07T19:45:51Z</time>
      </trkpt>
      <trkpt lat="45.03263" lon="6.09027">
        <ele>913</ele>
        <time>2009-08-07T19:45:55Z</time>
      </trkpt>
      <trkpt lat="45.03247" lon="6.08994">
        <ele>913</ele>
        <time>2009-08-07T19:46:00Z</time>
      </trkpt>
      <trkpt lat="45.0323" lon="6.08864">
        <ele>905</ele>
        <time>2009-08-07T19:46:17Z</time>
      </trkpt>
      <trkpt lat="45.03235" lon="6.0874">
        <ele>884</ele>
        <time>2009-08-07T19:46:33Z</time>
      </trkpt>
      <trkpt lat="45.03229" lon="6.0873">
        <ele>884</ele>
        <time>2009-08-07T19:46:35Z</time>
      </trkpt>
      <trkpt lat="45.03185" lon="6.08694">
        <ele>895</ele>
        <time>2009-08-07T19:46:44Z</time>
      </trkpt>
      <trkpt lat="45.03156" lon="6.08623">
        <ele>829</ele>
        <time>2009-08-07T19:46:55Z</time>
      </trkpt>
      <trkpt lat="45.03111" lon="6.08568">
        <ele>896</ele>
        <time>2009-08-07T19:47:05Z</time>
      </trkpt>
      <trkpt lat="45.02966" lon="6.08427">
        <ele>833</ele>
        <time>2009-08-07T19:47:37Z</time>
      </trkpt>
      <trkpt lat="45.02885" lon="6.08296">
        <ele>841</ele>
        <time>2009-08-07T19:48:00Z</time>
      </trkpt>
      <trkpt lat="45.02815" lon="6.08202">
        <ele>813</ele>
        <time>2009-08-07T19:48:17Z</time>
      </trkpt>
      <trkpt lat="45.02776" lon="6.08157">
        <ele>898</ele>
        <time>2009-08-07T19:48:27Z</time>
      </trkpt>
      <trkpt lat="45.0274" lon="6.08102">
        <ele>907</ele>
        <time>2009-08-07T19:48:36Z</time>
      </trkpt>
      <trkpt lat="45.02719" lon="6.08048">
        <ele>918</ele>
        <time>2009-08-07T19:48:44Z</time>
      </trkpt>
      <trkpt lat="45.02704" lon="6.07964">
        <ele>912</ele>
        <time>2009-08-07T19:48:55Z</time>
      </trkpt>
      <trkpt lat="45.02703" lon="6.07863">
        <ele>965</ele>
        <time>2009-08-07T19:49:08Z</time>
      </trkpt>
      <trkpt lat="45.02708" lon="6.07823">
        <ele>965</ele>
        <time>2009-08-07T19:49:13Z</time>
      </trkpt>
      <trkpt lat="45.02719" lon="6.07778">
        <ele>884</ele>
        <time>2009-08-07T19:49:20Z</time>
      </trkpt>
      <trkpt lat="45.02727" lon="6.07755">
        <ele>884</ele>
        <time>2009-08-07T19:49:23Z</time>
      </trkpt>
      <trkpt lat="45.02749" lon="6.07716">
        <ele>884</ele>
        <time>2009-08-07T19:49:29Z</time>
      </trkpt>
      <trkpt lat="45.02773" lon="6.07688">
        <ele>948</ele>
        <time>2009-08-07T19:49:35Z</time>
      </trkpt>
      <trkpt lat="45.02805" lon="6.07663">
        <ele>871</ele>
        <time>2009-08-07T19:49:42Z</time>
      </trkpt>
      <trkpt lat="45.02839" lon="6.07649">
        <ele>871</ele>
        <time>2009-08-07T19:49:48Z</time>
      </trkpt>
      <trkpt lat="45.02873" lon="6.07647">
        <ele>871</ele>
        <time>2009-08-07T19:49:54Z</time>
      </trkpt>
      <trkpt lat="45.02907" lon="6.07659">
        <ele>838</ele>
        <time>2009-08-07T19:50:01Z</time>
      </trkpt>
      <trkpt lat="45.02979" lon="6.07704">
        <ele>821</ele>
        <time>2009-08-07T19:50:15Z</time>
      </trkpt>
      <trkpt lat="45.03017" lon="6.07718">
        <ele>779</ele>
        <time>2009-08-07T19:50:22Z</time>
      </trkpt>
      <trkpt lat="45.03068" lon="6.07723">
        <ele>769</ele>
        <time>2009-08-07T19:50:31Z</time>
      </trkpt>
      <trkpt lat="45.03089" lon="6.07715">
        <ele>769</ele>
        <time>2009-08-07T19:50:35Z</time>
      </trkpt>
      <trkpt lat="45.03097" lon="6.07704">
        <ele>792</ele>
        <time>2009-08-07T19:50:37Z</time>
      </trkpt>
      <trkpt lat="45.03109" lon="6.07673">
        <ele>792</ele>
        <time>2009-08-07T19:50:42Z</time>
      </trkpt>
      <trkpt lat="45.03111" lon="6.07658">
        <ele>792</ele>
        <time>2009-08-07T19:50:44Z</time>
      </trkpt>
      <trkpt lat="45.03095" lon="6.07557">
        <ele>791</ele>
        <time>2009-08-07T19:50:57Z</time>
      </trkpt>
      <trkpt lat="45.03091" lon="6.07484">
        <ele>784</ele>
        <time>2009-08-07T19:51:07Z</time>
      </trkpt>
      <trkpt lat="45.03085" lon="6.0746">
        <ele>784</ele>
        <time>2009-08-07T19:51:10Z</time>
      </trkpt>
      <trkpt lat="45.03061" lon="6.07403">
        <ele>768</ele>
        <time>2009-08-07T19:51:18Z</time>
      </trkpt>
      <trkpt lat="45.03036" lon="6.07361">
        <ele>765</ele>
        <time>2009-08-07T19:51:25Z</time>
      </trkpt>
      <trkpt lat="45.02961" lon="6.07266">
        <ele>745</ele>
        <time>2009-08-07T19:51:44Z</time>
      </trkpt>
      <trkpt lat="45.02933" lon="6.07247">
        <ele>761</ele>
        <time>2009-08-07T19:51:49Z</time>
      </trkpt>
      <trkpt lat="45.02865" lon="6.07213">
        <ele>768</ele>
        <time>2009-08-07T19:52:03Z</time>
      </trkpt>
      <trkpt lat="45.02853" lon="6.07194">
        <ele>747</ele>
        <time>2009-08-07T19:52:06Z</time>
      </trkpt>
      <trkpt lat="45.0285" lon="6.07178">
        <ele>747</ele>
        <time>2009-08-07T19:52:08Z</time>
      </trkpt>
      <trkpt lat="45.02852" lon="6.07162">
        <ele>747</ele>
        <time>2009-08-07T19:52:10Z</time>
      </trkpt>
      <trkpt lat="45.02864" lon="6.07142">
        <ele>747</ele>
        <time>2009-08-07T19:52:13Z</time>
      </trkpt>
      <trkpt lat="45.03002" lon="6.07023">
        <ele>744</ele>
        <time>2009-08-07T19:52:43Z</time>
      </trkpt>
      <trkpt lat="45.0337" lon="6.06691">
        <ele>733</ele>
        <time>2009-08-07T19:54:02Z</time>
      </trkpt>
      <trkpt lat="45.03505" lon="6.0658">
        <ele>734</ele>
        <time>2009-08-07T19:54:31Z</time>
      </trkpt>
      <trkpt lat="45.03676" lon="6.06422">
        <ele>725</ele>
        <time>2009-08-07T19:55:08Z</time>
      </trkpt>
      <trkpt lat="45.0439" lon="6.0579">
        <ele>727</ele>
        <time>2009-08-07T19:57:41Z</time>
      </trkpt>
      <trkpt lat="45.04585" lon="6.05608">
        <ele>726</ele>
        <time>2009-08-07T19:58:24Z</time>
      </trkpt>
      <trkpt lat="45.04872" lon="6.05122">
        <ele>723</ele>
        <time>2009-08-07T19:59:45Z</time>
      </trkpt>
      <trkpt lat="45.04989" lon="6.0494">
        <ele>725</ele>
        <time>2009-08-07T20:00:17Z</time>
      </trkpt>
      <trkpt lat="45.05122" lon="6.04702">
        <ele>725</ele>
        <time>2009-08-07T20:00:56Z</time>
      </trkpt>
      <trkpt lat="45.05565" lon="6.04135">
        <ele>724</ele>
        <time>2009-08-07T20:02:44Z</time>
      </trkpt>
      <trkpt lat="45.05631" lon="6.04056">
        <ele>723</ele>
        <time>2009-08-07T20:03:00Z</time>
      </trkpt>
      <trkpt lat="45.05648" lon="6.0404">
        <ele>725</ele>
        <time>2009-08-07T20:03:04Z</time>
      </trkpt>
      <trkpt lat="45.05811" lon="6.03934">
        <ele>720</ele>
        <time>2009-08-07T20:03:36Z</time>
      </trkpt>
      <trkpt lat="45.05886" lon="6.03883">
        <ele>721</ele>
        <time>2009-08-07T20:03:51Z</time>
      </trkpt>
      <trkpt lat="45.05908" lon="6.03848">
        <ele>721</ele>
        <time>2009-08-07T20:03:58Z</time>
      </trkpt>
      <trkpt lat="45.05919" lon="6.03805">
        <ele>721</ele>
        <time>2009-08-07T20:04:03Z</time>
      </trkpt>
      <trkpt lat="45.05932" lon="6.03804">
        <ele>721</ele>
        <time>2009-08-07T20:04:06Z</time>
      </trkpt>
      <trkpt lat="45.05941" lon="6.03794">
        <ele>721</ele>
        <time>2009-08-07T20:04:08Z</time>
      </trkpt>
      <trkpt lat="45.05944" lon="6.03783">
        <ele>724</ele>
        <time>2009-08-07T20:04:09Z</time>
      </trkpt>
      <trkpt lat="45.05942" lon="6.03767">
        <ele>724</ele>
        <time>2009-08-07T20:04:11Z</time>
      </trkpt>
      <trkpt lat="45.0593" lon="6.03753">
        <ele>724</ele>
        <time>2009-08-07T20:04:14Z</time>
      </trkpt>
      <trkpt lat="45.05918" lon="6.03753">
        <ele>724</ele>
        <time>2009-08-07T20:04:16Z</time>
      </trkpt>
      <trkpt lat="45.05912" lon="6.03758">
        <ele>724</ele>
        <time>2009-08-07T20:04:18Z</time>
      </trkpt>
      <trkpt lat="45.05835" lon="6.03644">
        <ele>721</ele>
        <time>2009-08-07T20:04:38Z</time>
      </trkpt>
      <trkpt lat="45.05735" lon="6.03525">
        <ele>718</ele>
        <time>2009-08-07T20:05:02Z</time>
      </trkpt>
      <trkpt lat="45.05727" lon="6.03508">
        <ele>718</ele>
        <time>2009-08-07T20:05:04Z</time>
      </trkpt>
      <trkpt lat="45.05699" lon="6.0347">
        <ele>721</ele>
        <time>2009-08-07T20:05:11Z</time>
      </trkpt>
      <trkpt lat="45.05649" lon="6.03417">
        <ele>718</ele>
        <time>2009-08-07T20:05:23Z</time>
      </trkpt>
      <trkpt lat="45.05642" lon="6.03416">
        <ele>718</ele>
        <time>2009-08-07T20:05:24Z</time>
      </trkpt>
      <trkpt lat="45.0554" lon="6.03302">
        <ele>721</ele>
        <time>2009-08-07T20:05:48Z</time>
      </trkpt>
      <trkpt lat="45.0551" lon="6.03267">
        <ele>720</ele>
        <time>2009-08-07T20:05:55Z</time>
      </trkpt>
      <trkpt lat="45.05487" lon="6.03228">
        <ele>720</ele>
        <time>2009-08-07T20:06:01Z</time>
      </trkpt>
      <trkpt lat="45.05476" lon="6.03199">
        <ele>721</ele>
        <time>2009-08-07T20:06:06Z</time>
      </trkpt>
      <trkpt lat="45.05469" lon="6.03162">
        <ele>721</ele>
        <time>2009-08-07T20:06:11Z</time>
      </trkpt>
      <trkpt lat="45.05491" lon="6.03006">
        <ele>726</ele>
        <time>2009-08-07T20:06:31Z</time>
      </trkpt>
      <trkpt lat="45.055" lon="6.02977">
        <ele>726</ele>
        <time>2009-08-07T20:06:35Z</time>
      </trkpt>
      <trkpt lat="45.05481" lon="6.02974">
        <ele>726</ele>
        <time>2009-08-07T20:06:39Z</time>
      </trkpt>
      <trkpt lat="45.05366" lon="6.03021">
        <ele>726</ele>
        <time>2009-08-07T20:07:00Z</time>
      </trkpt>
      <trkpt lat="45.05249" lon="6.03105">
        <ele>721</ele>
        <time>2009-08-07T20:07:24Z</time>
      </trkpt>
      <trkpt lat="45.05237" lon="6.02952">
        <ele>733</ele>
        <time>2009-08-07T20:07:44Z</time>
      </trkpt>
      <trkpt lat="45.05171" lon="6.02961">
        <ele>725</ele>
        <time>2009-08-07T20:07:56Z</time>
      </trkpt>
      <trkpt lat="45.05096" lon="6.02929">
        <ele>727</ele>
        <time>2009-08-07T20:08:10Z</time>
      </trkpt>
      <trkpt lat="45.05049" lon="6.02903">
        <ele>727</ele>
        <time>2009-08-07T20:08:19Z</time>
      </trkpt>
      <trkpt lat="45.04995" lon="6.02864">
        <ele>730</ele>
        <time>2009-08-07T20:08:30Z</time>
      </trkpt>
      <trkpt lat="45.04952" lon="6.02816">
        <ele>723</ele>
        <time>2009-08-07T20:08:40Z</time>
      </trkpt>
      <trkpt lat="45.04907" lon="6.02735">
        <ele>737</ele>
        <time>2009-08-07T20:08:54Z</time>
      </trkpt>
      <trkpt lat="45.04895" lon="6.02724">
        <ele>737</ele>
        <time>2009-08-07T20:08:56Z</time>
      </trkpt>
      <trkpt lat="45.04864" lon="6.02719">
        <ele>757</ele>
        <time>2009-08-07T20:09:02Z</time>
      </trkpt>
      <trkpt lat="45.04729" lon="6.02781">
        <ele>771</ele>
        <time>2009-08-07T20:09:28Z</time>
      </trkpt>
      <trkpt lat="45.04696" lon="6.02771">
        <ele>779</ele>
        <time>2009-08-07T20:09:34Z</time>
      </trkpt>
      <trkpt lat="45.04641" lon="6.02737">
        <ele>779</ele>
        <time>2009-08-07T20:09:45Z</time>
      </trkpt>
      <trkpt lat="45.04632" lon="6.02736">
        <ele>779</ele>
        <time>2009-08-07T20:09:46Z</time>
      </trkpt>
      <trkpt lat="45.04511" lon="6.02805">
        <ele>792</ele>
        <time>2009-08-07T20:10:10Z</time>
      </trkpt>
      <trkpt lat="45.04466" lon="6.02816">
        <ele>792</ele>
        <time>2009-08-07T20:10:19Z</time>
      </trkpt>
      <trkpt lat="45.04394" lon="6.02843">
        <ele>808</ele>
        <time>2009-08-07T20:10:32Z</time>
      </trkpt>
      <trkpt lat="45.04344" lon="6.02883">
        <ele>809</ele>
        <time>2009-08-07T20:10:43Z</time>
      </trkpt>
      <trkpt lat="45.04316" lon="6.02896">
        <ele>809</ele>
        <time>2009-08-07T20:10:48Z</time>
      </trkpt>
      <trkpt lat="45.04276" lon="6.02928">
        <ele>823</ele>
        <time>2009-08-07T20:10:56Z</time>
      </trkpt>
      <trkpt lat="45.04223" lon="6.02933">
        <ele>823</ele>
        <time>2009-08-07T20:11:06Z</time>
      </trkpt>
      <trkpt lat="45.04161" lon="6.02964">
        <ele>813</ele>
        <time>2009-08-07T20:11:18Z</time>
      </trkpt>
      <trkpt lat="45.04088" lon="6.02985">
        <ele>875</ele>
        <time>2009-08-07T20:11:31Z</time>
      </trkpt>
      <trkpt lat="45.04075" lon="6.03005">
        <ele>875</ele>
        <time>2009-08-07T20:11:35Z</time>
      </trkpt>
      <trkpt lat="45.04042" lon="6.03112">
        <ele>819</ele>
        <time>2009-08-07T20:11:50Z</time>
      </trkpt>
      <trkpt lat="45.04002" lon="6.03191">
        <ele>917</ele>
        <time>2009-08-07T20:12:02Z</time>
      </trkpt>
      <trkpt lat="45.0396" lon="6.03316">
        <ele>799</ele>
        <time>2009-08-07T20:12:20Z</time>
      </trkpt>
      <trkpt lat="45.03911" lon="6.0343">
        <ele>870</ele>
        <time>2009-08-07T20:12:37Z</time>
      </trkpt>
      <trkpt lat="45.0388" lon="6.03489">
        <ele>804</ele>
        <time>2009-08-07T20:12:47Z</time>
      </trkpt>
      <trkpt lat="45.03768" lon="6.03661">
        <ele>921</ele>
        <time>2009-08-07T20:13:17Z</time>
      </trkpt>
      <trkpt lat="45.03738" lon="6.03729">
        <ele>865</ele>
        <time>2009-08-07T20:13:27Z</time>
      </trkpt>
      <trkpt lat="45.03719" lon="6.03744">
        <ele>865</ele>
        <time>2009-08-07T20:13:31Z</time>
      </trkpt>
      <trkpt lat="45.03701" lon="6.03777">
        <ele>932</ele>
        <time>2009-08-07T20:13:37Z</time>
      </trkpt>
      <trkpt lat="45.03671" lon="6.03791">
        <ele>932</ele>
        <time>2009-08-07T20:13:42Z</time>
      </trkpt>
      <trkpt lat="45.03644" lon="6.03793">
        <ele>882</ele>
        <time>2009-08-07T20:13:47Z</time>
      </trkpt>
      <trkpt lat="45.03616" lon="6.03834">
        <ele>1045</ele>
        <time>2009-08-07T20:13:55Z</time>
      </trkpt>
      <trkpt lat="45.03593" lon="6.03887">
        <ele>967</ele>
        <time>2009-08-07T20:14:03Z</time>
      </trkpt>
      <trkpt lat="45.03586" lon="6.03913">
        <ele>967</ele>
        <time>2009-08-07T20:14:06Z</time>
      </trkpt>
      <trkpt lat="45.03564" lon="6.03942">
        <ele>967</ele>
        <time>2009-08-07T20:14:12Z</time>
      </trkpt>
      <trkpt lat="45.03549" lon="6.03974">
        <ele>781</ele>
        <time>2009-08-07T20:14:17Z</time>
      </trkpt>
      <trkpt lat="45.03537" lon="6.03988">
        <ele>1057</ele>
        <time>2009-08-07T20:14:19Z</time>
      </trkpt>
      <trkpt lat="45.03509" lon="6.04005">
        <ele>1057</ele>
        <time>2009-08-07T20:14:25Z</time>
      </trkpt>
      <trkpt lat="45.03489" lon="6.04028">
        <ele>1057</ele>
        <time>2009-08-07T20:14:30Z</time>
      </trkpt>
      <trkpt lat="45.03463" lon="6.04082">
        <ele>830</ele>
        <time>2009-08-07T20:14:38Z</time>
      </trkpt>
      <trkpt lat="45.03444" lon="6.04183">
        <ele>789</ele>
        <time>2009-08-07T20:14:51Z</time>
      </trkpt>
      <trkpt lat="45.03437" lon="6.04195">
        <ele>786</ele>
        <time>2009-08-07T20:14:53Z</time>
      </trkpt>
      <trkpt lat="45.03394" lon="6.04204">
        <ele>879</ele>
        <time>2009-08-07T20:15:01Z</time>
      </trkpt>
      <trkpt lat="45.03324" lon="6.04197">
        <ele>1034</ele>
        <time>2009-08-07T20:15:14Z</time>
      </trkpt>
      <trkpt lat="45.03274" lon="6.04183">
        <ele>1099</ele>
        <time>2009-08-07T20:15:23Z</time>
      </trkpt>
      <trkpt lat="45.03242" lon="6.04188">
        <ele>1099</ele>
        <time>2009-08-07T20:15:29Z</time>
      </trkpt>
      <trkpt lat="45.03198" lon="6.04208">
        <ele>1108</ele>
        <time>2009-08-07T20:15:38Z</time>
      </trkpt>
      <trkpt lat="45.0318" lon="6.04229">
        <ele>1082</ele>
        <time>2009-08-07T20:15:42Z</time>
      </trkpt>
      <trkpt lat="45.03173" lon="6.04253">
        <ele>1082</ele>
        <time>2009-08-07T20:15:45Z</time>
      </trkpt>
      <trkpt lat="45.03155" lon="6.0438">
        <ele>927</ele>
        <time>2009-08-07T20:16:02Z</time>
      </trkpt>
      <trkpt lat="45.03145" lon="6.04398">
        <ele>927</ele>
        <time>2009-08-07T20:16:05Z</time>
      </trkpt>
      <trkpt lat="45.03125" lon="6.04405">
        <ele>927</ele>
        <time>2009-08-07T20:16:09Z</time>
      </trkpt>
      <trkpt lat="45.03054" lon="6.04405">
        <ele>1015</ele>
        <time>2009-08-07T20:16:22Z</time>
      </trkpt>
      <trkpt lat="45.03" lon="6.04471">
        <ele>1017</ele>
        <time>2009-08-07T20:16:34Z</time>
      </trkpt>
      <trkpt lat="45.0297" lon="6.04521">
        <ele>1017</ele>
        <time>2009-08-07T20:16:43Z</time>
      </trkpt>
      <trkpt lat="45.02954" lon="6.04576">
        <ele>1067</ele>
        <time>2009-08-07T20:16:51Z</time>
      </trkpt>
      <trkpt lat="45.02927" lon="6.04633">
        <ele>1022</ele>
        <time>2009-08-07T20:16:59Z</time>
      </trkpt>
      <trkpt lat="45.0286" lon="6.04661">
        <ele>1062</ele>
        <time>2009-08-07T20:17:12Z</time>
      </trkpt>
      <trkpt lat="45.02832" lon="6.04688">
        <ele>1062</ele>
        <time>2009-08-07T20:17:18Z</time>
      </trkpt>
      <trkpt lat="45.02793" lon="6.04711">
        <ele>1033</ele>
        <time>2009-08-07T20:17:26Z</time>
      </trkpt>
      <trkpt lat="45.02769" lon="6.04732">
        <ele>1063</ele>
        <time>2009-08-07T20:17:31Z</time>
      </trkpt>
      <trkpt lat="45.02719" lon="6.04786">
        <ele>1063</ele>
        <time>2009-08-07T20:17:43Z</time>
      </trkpt>
      <trkpt lat="45.02648" lon="6.04796">
        <ele>1118</ele>
        <time>2009-08-07T20:17:56Z</time>
      </trkpt>
      <trkpt lat="45.0264" lon="6.04804">
        <ele>1118</ele>
        <time>2009-08-07T20:17:57Z</time>
      </trkpt>
      <trkpt lat="45.02616" lon="6.04853">
        <ele>1168</ele>
        <time>2009-08-07T20:18:05Z</time>
      </trkpt>
      <trkpt lat="45.02596" lon="6.04863">
        <ele>1168</ele>
        <time>2009-08-07T20:18:09Z</time>
      </trkpt>
      <trkpt lat="45.0258" lon="6.04869">
        <ele>1168</ele>
        <time>2009-08-07T20:18:12Z</time>
      </trkpt>
      <trkpt lat="45.02568" lon="6.04866">
        <ele>1168</ele>
        <time>2009-08-07T20:18:14Z</time>
      </trkpt>
      <trkpt lat="45.02565" lon="6.04858">
        <ele>1168</ele>
        <time>2009-08-07T20:18:15Z</time>
      </trkpt>
      <trkpt lat="45.02609" lon="6.0482">
        <ele>1168</ele>
        <time>2009-08-07T20:18:25Z</time>
      </trkpt>
      <trkpt lat="45.02646" lon="6.04766">
        <ele>1123</ele>
        <time>2009-08-07T20:18:34Z</time>
      </trkpt>
      <trkpt lat="45.02683" lon="6.04741">
        <ele>1123</ele>
        <time>2009-08-07T20:18:42Z</time>
      </trkpt>
      <trkpt lat="45.02696" lon="6.04715">
        <ele>1123</ele>
        <time>2009-08-07T20:18:46Z</time>
      </trkpt>
      <trkpt lat="45.02703" lon="6.04623">
        <ele>1163</ele>
        <time>2009-08-07T20:18:58Z</time>
      </trkpt>
      <trkpt lat="45.02746" lon="6.04583">
        <ele>1130</ele>
        <time>2009-08-07T20:19:07Z</time>
      </trkpt>
      <trkpt lat="45.02804" lon="6.04547">
        <ele>1104</ele>
        <time>2009-08-07T20:19:19Z</time>
      </trkpt>
      <trkpt lat="45.02831" lon="6.0451">
        <ele>1140</ele>
        <time>2009-08-07T20:19:25Z</time>
      </trkpt>
      <trkpt lat="45.02868" lon="6.04475">
        <ele>1140</ele>
        <time>2009-08-07T20:19:34Z</time>
      </trkpt>
      <trkpt lat="45.02906" lon="6.04421">
        <ele>1139</ele>
        <time>2009-08-07T20:19:43Z</time>
      </trkpt>
      <trkpt lat="45.02905" lon="6.04406">
        <ele>1139</ele>
        <time>2009-08-07T20:19:45Z</time>
      </trkpt>
      <trkpt lat="45.02895" lon="6.04402">
        <ele>1139</ele>
        <time>2009-08-07T20:19:47Z</time>
      </trkpt>
      <trkpt lat="45.02855" lon="6.04446">
        <ele>1186</ele>
        <time>2009-08-07T20:19:56Z</time>
      </trkpt>
      <trkpt lat="45.02792" lon="6.04494">
        <ele>1140</ele>
        <time>2009-08-07T20:20:09Z</time>
      </trkpt>
      <trkpt lat="45.02716" lon="6.04496">
        <ele>1164</ele>
        <time>2009-08-07T20:20:23Z</time>
      </trkpt>
      <trkpt lat="45.02697" lon="6.04522">
        <ele>1197</ele>
        <time>2009-08-07T20:20:28Z</time>
      </trkpt>
      <trkpt lat="45.02619" lon="6.0458">
        <ele>1205</ele>
        <time>2009-08-07T20:20:44Z</time>
      </trkpt>
      <trkpt lat="45.02576" lon="6.04664">
        <ele>1190</ele>
        <time>2009-08-07T20:20:57Z</time>
      </trkpt>
      <trkpt lat="45.0246" lon="6.04848">
        <ele>1195</ele>
        <time>2009-08-07T20:21:29Z</time>
      </trkpt>
      <trkpt lat="45.02442" lon="6.04863">
        <ele>1225</ele>
        <time>2009-08-07T20:21:33Z</time>
      </trkpt>
      <trkpt lat="45.02381" lon="6.04887">
        <ele>1204</ele>
        <time>2009-08-07T20:21:44Z</time>
      </trkpt>
      <trkpt lat="45.02365" lon="6.04908">
        <ele>1243</ele>
        <time>2009-08-07T20:21:48Z</time>
      </trkpt>
      <trkpt lat="45.02341" lon="6.04961">
        <ele>1224</ele>
        <time>2009-08-07T20:21:57Z</time>
      </trkpt>
      <trkpt lat="45.02316" lon="6.04981">
        <ele>1224</ele>
        <time>2009-08-07T20:22:02Z</time>
      </trkpt>
      <trkpt lat="45.02307" lon="6.0498">
        <ele>1224</ele>
        <time>2009-08-07T20:22:03Z</time>
      </trkpt>
      <trkpt lat="45.02303" lon="6.04974">
        <ele>1224</ele>
        <time>2009-08-07T20:22:04Z</time>
      </trkpt>
      <trkpt lat="45.02329" lon="6.04942">
        <ele>1243</ele>
        <time>2009-08-07T20:22:11Z</time>
      </trkpt>
      <trkpt lat="45.02331" lon="6.04901">
        <ele>1243</ele>
        <time>2009-08-07T20:22:16Z</time>
      </trkpt>
      <trkpt lat="45.02358" lon="6.04874">
        <ele>1261</ele>
        <time>2009-08-07T20:22:22Z</time>
      </trkpt>
      <trkpt lat="45.02367" lon="6.04828">
        <ele>1261</ele>
        <time>2009-08-07T20:22:28Z</time>
      </trkpt>
      <trkpt lat="45.02402" lon="6.04764">
        <ele>1246</ele>
        <time>2009-08-07T20:22:39Z</time>
      </trkpt>
      <trkpt lat="45.02414" lon="6.04705">
        <ele>1265</ele>
        <time>2009-08-07T20:22:46Z</time>
      </trkpt>
      <trkpt lat="45.02459" lon="6.046">
        <ele>1241</ele>
        <time>2009-08-07T20:23:02Z</time>
      </trkpt>
      <trkpt lat="45.02464" lon="6.04536">
        <ele>1269</ele>
        <time>2009-08-07T20:23:11Z</time>
      </trkpt>
      <trkpt lat="45.02483" lon="6.04471">
        <ele>1269</ele>
        <time>2009-08-07T20:23:20Z</time>
      </trkpt>
      <trkpt lat="45.02489" lon="6.04458">
        <ele>1301</ele>
        <time>2009-08-07T20:23:22Z</time>
      </trkpt>
      <trkpt lat="45.02527" lon="6.04421">
        <ele>1301</ele>
        <time>2009-08-07T20:23:30Z</time>
      </trkpt>
      <trkpt lat="45.02558" lon="6.04407">
        <ele>1262</ele>
        <time>2009-08-07T20:23:36Z</time>
      </trkpt>
      <trkpt lat="45.0256" lon="6.04401">
        <ele>1262</ele>
        <time>2009-08-07T20:23:37Z</time>
      </trkpt>
      <trkpt lat="45.02556" lon="6.04391">
        <ele>1262</ele>
        <time>2009-08-07T20:23:38Z</time>
      </trkpt>
      <trkpt lat="45.02544" lon="6.04392">
        <ele>1262</ele>
        <time>2009-08-07T20:23:40Z</time>
      </trkpt>
      <trkpt lat="45.02472" lon="6.04445">
        <ele>1301</ele>
        <time>2009-08-07T20:23:55Z</time>
      </trkpt>
      <trkpt lat="45.02378" lon="6.0453">
        <ele>1307</ele>
        <time>2009-08-07T20:24:15Z</time>
      </trkpt>
      <trkpt lat="45.0234" lon="6.04586">
        <ele>1316</ele>
        <time>2009-08-07T20:24:25Z</time>
      </trkpt>
      <trkpt lat="45.02235" lon="6.04651">
        <ele>1318</ele>
        <time>2009-08-07T20:24:46Z</time>
      </trkpt>
      <trkpt lat="45.02188" lon="6.04668">
        <ele>1345</ele>
        <time>2009-08-07T20:24:55Z</time>
      </trkpt>
      <trkpt lat="45.02115" lon="6.04731">
        <ele>1346</ele>
        <time>2009-08-07T20:25:11Z</time>
      </trkpt>
      <trkpt lat="45.02103" lon="6.04756">
        <ele>1346</ele>
        <time>2009-08-07T20:25:15Z</time>
      </trkpt>
      <trkpt lat="45.02114" lon="6.04809">
        <ele>1343</ele>
        <time>2009-08-07T20:25:22Z</time>
      </trkpt>
      <trkpt lat="45.02099" lon="6.04856">
        <ele>1343</ele>
        <time>2009-08-07T20:25:28Z</time>
      </trkpt>
      <trkpt lat="45.02098" lon="6.04907">
        <ele>1349</ele>
        <time>2009-08-07T20:25:35Z</time>
      </trkpt>
      <trkpt lat="45.02076" lon="6.0494">
        <ele>1349</ele>
        <time>2009-08-07T20:25:41Z</time>
      </trkpt>
      <trkpt lat="45.02059" lon="6.04977">
        <ele>1342</ele>
        <time>2009-08-07T20:25:46Z</time>
      </trkpt>
      <trkpt lat="45.01992" lon="6.05046">
        <ele>1345</ele>
        <time>2009-08-07T20:26:01Z</time>
      </trkpt>
      <trkpt lat="45.01978" lon="6.05048">
        <ele>1345</ele>
        <time>2009-08-07T20:26:04Z</time>
      </trkpt>
      <trkpt lat="45.0196" lon="6.0503">
        <ele>1371</ele>
        <time>2009-08-07T20:26:08Z</time>
      </trkpt>
      <trkpt lat="45.01954" lon="6.05029">
        <ele>1390</ele>
        <time>2009-08-07T20:26:09Z</time>
      </trkpt>
      <trkpt lat="45.01898" lon="6.05047">
        <ele>1368</ele>
        <time>2009-08-07T20:26:20Z</time>
      </trkpt>
      <trkpt lat="45.01842" lon="6.05025">
        <ele>1378</ele>
        <time>2009-08-07T20:26:30Z</time>
      </trkpt>
      <trkpt lat="45.01824" lon="6.05023">
        <ele>1378</ele>
        <time>2009-08-07T20:26:33Z</time>
      </trkpt>
      <trkpt lat="45.0179" lon="6.05035">
        <ele>1359</ele>
        <time>2009-08-07T20:26:40Z</time>
      </trkpt>
      <trkpt lat="45.0178" lon="6.05034">
        <ele>1359</ele>
        <time>2009-08-07T20:26:42Z</time>
      </trkpt>
      <trkpt lat="45.01774" lon="6.05019">
        <ele>1359</ele>
        <time>2009-08-07T20:26:44Z</time>
      </trkpt>
      <trkpt lat="45.0178" lon="6.05008">
        <ele>1359</ele>
        <time>2009-08-07T20:26:46Z</time>
      </trkpt>
      <trkpt lat="45.01843" lon="6.04981">
        <ele>1378</ele>
        <time>2009-08-07T20:26:58Z</time>
      </trkpt>
      <trkpt lat="45.01851" lon="6.04972">
        <ele>1378</ele>
        <time>2009-08-07T20:27:00Z</time>
      </trkpt>
      <trkpt lat="45.01872" lon="6.04908">
        <ele>1393</ele>
        <time>2009-08-07T20:27:09Z</time>
      </trkpt>
      <trkpt lat="45.01897" lon="6.04876">
        <ele>1403</ele>
        <time>2009-08-07T20:27:15Z</time>
      </trkpt>
      <trkpt lat="45.019" lon="6.04852">
        <ele>1400</ele>
        <time>2009-08-07T20:27:18Z</time>
      </trkpt>
      <trkpt lat="45.01895" lon="6.04834">
        <ele>1400</ele>
        <time>2009-08-07T20:27:20Z</time>
      </trkpt>
      <trkpt lat="45.01878" lon="6.04826">
        <ele>1400</ele>
        <time>2009-08-07T20:27:24Z</time>
      </trkpt>
      <trkpt lat="45.01837" lon="6.04822">
        <ele>1403</ele>
        <time>2009-08-07T20:27:31Z</time>
      </trkpt>
      <trkpt lat="45.01729" lon="6.04777">
        <ele>1414</ele>
        <time>2009-08-07T20:27:52Z</time>
      </trkpt>
      <trkpt lat="45.01682" lon="6.04726">
        <ele>1399</ele>
        <time>2009-08-07T20:28:02Z</time>
      </trkpt>
      <trkpt lat="45.01676" lon="6.04714">
        <ele>1399</ele>
        <time>2009-08-07T20:28:04Z</time>
      </trkpt>
      <trkpt lat="45.01675" lon="6.04689">
        <ele>1405</ele>
        <time>2009-08-07T20:28:07Z</time>
      </trkpt>
      <trkpt lat="45.01689" lon="6.04686">
        <ele>1405</ele>
        <time>2009-08-07T20:28:10Z</time>
      </trkpt>
      <trkpt lat="45.0172" lon="6.04724">
        <ele>1414</ele>
        <time>2009-08-07T20:28:18Z</time>
      </trkpt>
      <trkpt lat="45.01748" lon="6.04737">
        <ele>1414</ele>
        <time>2009-08-07T20:28:23Z</time>
      </trkpt>
      <trkpt lat="45.01777" lon="6.0474">
        <ele>1414</ele>
        <time>2009-08-07T20:28:28Z</time>
      </trkpt>
      <trkpt lat="45.01828" lon="6.0473">
        <ele>1427</ele>
        <time>2009-08-07T20:28:38Z</time>
      </trkpt>
      <trkpt lat="45.01852" lon="6.04738">
        <ele>1427</ele>
        <time>2009-08-07T20:28:42Z</time>
      </trkpt>
      <trkpt lat="45.01866" lon="6.04736">
        <ele>1427</ele>
        <time>2009-08-07T20:28:45Z</time>
      </trkpt>
      <trkpt lat="45.01868" lon="6.04731">
        <ele>1427</ele>
        <time>2009-08-07T20:28:45Z</time>
      </trkpt>
      <trkpt lat="45.01868" lon="6.04711">
        <ele>1427</ele>
        <time>2009-08-07T20:28:48Z</time>
      </trkpt>
      <trkpt lat="45.01864" lon="6.04704">
        <ele>1461</ele>
        <time>2009-08-07T20:28:49Z</time>
      </trkpt>
      <trkpt lat="45.01782" lon="6.04698">
        <ele>1436</ele>
        <time>2009-08-07T20:29:04Z</time>
      </trkpt>
      <trkpt lat="45.01767" lon="6.04693">
        <ele>1436</ele>
        <time>2009-08-07T20:29:07Z</time>
      </trkpt>
      <trkpt lat="45.01752" lon="6.04677">
        <ele>1436</ele>
        <time>2009-08-07T20:29:10Z</time>
      </trkpt>
      <trkpt lat="45.0175" lon="6.04654">
        <ele>1436</ele>
        <time>2009-08-07T20:29:13Z</time>
      </trkpt>
      <trkpt lat="45.01762" lon="6.04622">
        <ele>1423</ele>
        <time>2009-08-07T20:29:18Z</time>
      </trkpt>
      <trkpt lat="45.01798" lon="6.04564">
        <ele>1467</ele>
        <time>2009-08-07T20:29:28Z</time>
      </trkpt>
      <trkpt lat="45.01807" lon="6.04543">
        <ele>1467</ele>
        <time>2009-08-07T20:29:31Z</time>
      </trkpt>
      <trkpt lat="45.01811" lon="6.04491">
        <ele>1471</ele>
        <time>2009-08-07T20:29:38Z</time>
      </trkpt>
      <trkpt lat="45.01807" lon="6.04434">
        <ele>1485</ele>
        <time>2009-08-07T20:29:45Z</time>
      </trkpt>
      <trkpt lat="45.01797" lon="6.04378">
        <ele>1485</ele>
        <time>2009-08-07T20:29:52Z</time>
      </trkpt>
      <trkpt lat="45.01769" lon="6.0431">
        <ele>1455</ele>
        <time>2009-08-07T20:30:03Z</time>
      </trkpt>
      <trkpt lat="45.01765" lon="6.04292">
        <ele>1455</ele>
        <time>2009-08-07T20:30:05Z</time>
      </trkpt>
      <trkpt lat="45.0176" lon="6.04247">
        <ele>1473</ele>
        <time>2009-08-07T20:30:11Z</time>
      </trkpt>
      <trkpt lat="45.01758" lon="6.04109">
        <ele>1479</ele>
        <time>2009-08-07T20:30:29Z</time>
      </trkpt>
      <trkpt lat="45.01764" lon="6.0409">
        <ele>1479</ele>
        <time>2009-08-07T20:30:31Z</time>
      </trkpt>
      <trkpt lat="45.01775" lon="6.04078">
        <ele>1479</ele>
        <time>2009-08-07T20:30:34Z</time>
      </trkpt>
      <trkpt lat="45.01786" lon="6.0408">
        <ele>1479</ele>
        <time>2009-08-07T20:30:36Z</time>
      </trkpt>
      <trkpt lat="45.01798" lon="6.04179">
        <ele>1523</ele>
        <time>2009-08-07T20:30:49Z</time>
      </trkpt>
      <trkpt lat="45.01813" lon="6.0425">
        <ele>1516</ele>
        <time>2009-08-07T20:30:58Z</time>
      </trkpt>
      <trkpt lat="45.01831" lon="6.04288">
        <ele>1516</ele>
        <time>2009-08-07T20:31:04Z</time>
      </trkpt>
      <trkpt lat="45.01872" lon="6.04351">
        <ele>1506</ele>
        <time>2009-08-07T20:31:15Z</time>
      </trkpt>
      <trkpt lat="45.01892" lon="6.044">
        <ele>1523</ele>
        <time>2009-08-07T20:31:22Z</time>
      </trkpt>
      <trkpt lat="45.019" lon="6.04411">
        <ele>1523</ele>
        <time>2009-08-07T20:31:24Z</time>
      </trkpt>
      <trkpt lat="45.01921" lon="6.04425">
        <ele>1523</ele>
        <time>2009-08-07T20:31:29Z</time>
      </trkpt>
      <trkpt lat="45.01942" lon="6.04424">
        <ele>1523</ele>
        <time>2009-08-07T20:31:33Z</time>
      </trkpt>
      <trkpt lat="45.01965" lon="6.04408">
        <ele>1508</ele>
        <time>2009-08-07T20:31:37Z</time>
      </trkpt>
      <trkpt lat="45.01983" lon="6.04387">
        <ele>1508</ele>
        <time>2009-08-07T20:31:41Z</time>
      </trkpt>
      <trkpt lat="45.01984" lon="6.04372">
        <ele>1539</ele>
        <time>2009-08-07T20:31:43Z</time>
      </trkpt>
      <trkpt lat="45.0198" lon="6.04368">
        <ele>1539</ele>
        <time>2009-08-07T20:31:44Z</time>
      </trkpt>
      <trkpt lat="45.01948" lon="6.04377">
        <ele>1523</ele>
        <time>2009-08-07T20:31:50Z</time>
      </trkpt>
      <trkpt lat="45.01934" lon="6.04373">
        <ele>1540</ele>
        <time>2009-08-07T20:31:53Z</time>
      </trkpt>
      <trkpt lat="45.01927" lon="6.0436">
        <ele>1540</ele>
        <time>2009-08-07T20:31:55Z</time>
      </trkpt>
      <trkpt lat="45.01904" lon="6.04285">
        <ele>1550</ele>
        <time>2009-08-07T20:32:05Z</time>
      </trkpt>
      <trkpt lat="45.01879" lon="6.04243">
        <ele>1550</ele>
        <time>2009-08-07T20:32:12Z</time>
      </trkpt>
      <trkpt lat="45.01849" lon="6.04211">
        <ele>1516</ele>
        <time>2009-08-07T20:32:19Z</time>
      </trkpt>
      <trkpt lat="45.01852" lon="6.04161">
        <ele>1523</ele>
        <time>2009-08-07T20:32:26Z</time>
      </trkpt>
      <trkpt lat="45.01876" lon="6.04094">
        <ele>1577</ele>
        <time>2009-08-07T20:32:35Z</time>
      </trkpt>
      <trkpt lat="45.01852" lon="6.04161">
        <ele>1523</ele>
        <time>2009-08-07T20:32:45Z</time>
      </trkpt>
      <trkpt lat="45.01849" lon="6.04211">
        <ele>1516</ele>
        <time>2009-08-07T20:32:52Z</time>
      </trkpt>
      <trkpt lat="45.01879" lon="6.04243">
        <ele>1550</ele>
        <time>2009-08-07T20:32:58Z</time>
      </trkpt>
      <trkpt lat="45.01904" lon="6.04285">
        <ele>1550</ele>
        <time>2009-08-07T20:33:05Z</time>
      </trkpt>
      <trkpt lat="45.01927" lon="6.0436">
        <ele>1540</ele>
        <time>2009-08-07T20:33:16Z</time>
      </trkpt>
      <trkpt lat="45.01934" lon="6.04373">
        <ele>1540</ele>
        <time>2009-08-07T20:33:18Z</time>
      </trkpt>
      <trkpt lat="45.01948" lon="6.04377">
        <ele>1523</ele>
        <time>2009-08-07T20:33:21Z</time>
      </trkpt>
      <trkpt lat="45.0198" lon="6.04368">
        <ele>1539</ele>
        <time>2009-08-07T20:33:27Z</time>
      </trkpt>
      <trkpt lat="45.01984" lon="6.04372">
        <ele>1539</ele>
        <time>2009-08-07T20:33:28Z</time>
      </trkpt>
      <trkpt lat="45.01983" lon="6.04387">
        <ele>1508</ele>
        <time>2009-08-07T20:33:29Z</time>
      </trkpt>
      <trkpt lat="45.01965" lon="6.04408">
        <ele>1508</ele>
        <time>2009-08-07T20:33:34Z</time>
      </trkpt>
      <trkpt lat="45.01942" lon="6.04424">
        <ele>1523</ele>
        <time>2009-08-07T20:33:38Z</time>
      </trkpt>
      <trkpt lat="45.01921" lon="6.04425">
        <ele>1523</ele>
        <time>2009-08-07T20:33:42Z</time>
      </trkpt>
      <trkpt lat="45.019" lon="6.04411">
        <ele>1523</ele>
        <time>2009-08-07T20:33:46Z</time>
      </trkpt>
      <trkpt lat="45.01892" lon="6.044">
        <ele>1523</ele>
        <time>2009-08-07T20:33:48Z</time>
      </trkpt>
      <trkpt lat="45.01872" lon="6.04351">
        <ele>1506</ele>
        <time>2009-08-07T20:33:56Z</time>
      </trkpt>
      <trkpt lat="45.01831" lon="6.04288">
        <ele>1516</ele>
        <time>2009-08-07T20:34:07Z</time>
      </trkpt>
      <trkpt lat="45.01813" lon="6.0425">
        <ele>1516</ele>
        <time>2009-08-07T20:34:13Z</time>
      </trkpt>
      <trkpt lat="45.01798" lon="6.04179">
        <ele>1523</ele>
        <time>2009-08-07T20:34:22Z</time>
      </trkpt>
      <trkpt lat="45.01786" lon="6.0408">
        <ele>1479</ele>
        <time>2009-08-07T20:34:35Z</time>
      </trkpt>
      <trkpt lat="45.01775" lon="6.04078">
        <ele>1479</ele>
        <time>2009-08-07T20:34:37Z</time>
      </trkpt>
      <trkpt lat="45.01764" lon="6.0409">
        <ele>1479</ele>
        <time>2009-08-07T20:34:40Z</time>
      </trkpt>
      <trkpt lat="45.01758" lon="6.04109">
        <ele>1479</ele>
        <time>2009-08-07T20:34:42Z</time>
      </trkpt>
      <trkpt lat="45.0176" lon="6.04247">
        <ele>1473</ele>
        <time>2009-08-07T20:35:00Z</time>
      </trkpt>
      <trkpt lat="45.01765" lon="6.04292">
        <ele>1455</ele>
        <time>2009-08-07T20:35:06Z</time>
      </trkpt>
      <trkpt lat="45.01769" lon="6.0431">
        <ele>1455</ele>
        <time>2009-08-07T20:35:08Z</time>
      </trkpt>
      <trkpt lat="45.01797" lon="6.04378">
        <ele>1485</ele>
        <time>2009-08-07T20:35:18Z</time>
      </trkpt>
      <trkpt lat="45.01807" lon="6.04434">
        <ele>1485</ele>
        <time>2009-08-07T20:35:26Z</time>
      </trkpt>
      <trkpt lat="45.01811" lon="6.04491">
        <ele>1471</ele>
        <time>2009-08-07T20:35:33Z</time>
      </trkpt>
      <trkpt lat="45.01807" lon="6.04543">
        <ele>1467</ele>
        <time>2009-08-07T20:35:40Z</time>
      </trkpt>
      <trkpt lat="45.01798" lon="6.04564">
        <ele>1467</ele>
        <time>2009-08-07T20:35:43Z</time>
      </trkpt>
      <trkpt lat="45.01762" lon="6.04622">
        <ele>1423</ele>
        <time>2009-08-07T20:35:53Z</time>
      </trkpt>
      <trkpt lat="45.0175" lon="6.04654">
        <ele>1436</ele>
        <time>2009-08-07T20:35:58Z</time>
      </trkpt>
      <trkpt lat="45.01752" lon="6.04677">
        <ele>1436</ele>
        <time>2009-08-07T20:36:01Z</time>
      </trkpt>
      <trkpt lat="45.01767" lon="6.04693">
        <ele>1436</ele>
        <time>2009-08-07T20:36:04Z</time>
      </trkpt>
      <trkpt lat="45.01782" lon="6.04698">
        <ele>1436</ele>
        <time>2009-08-07T20:36:07Z</time>
      </trkpt>
      <trkpt lat="45.01864" lon="6.04704">
        <ele>1461</ele>
        <time>2009-08-07T20:36:22Z</time>
      </trkpt>
      <trkpt lat="45.01868" lon="6.04711">
        <ele>1427</ele>
        <time>2009-08-07T20:36:23Z</time>
      </trkpt>
      <trkpt lat="45.01868" lon="6.04731">
        <ele>1427</ele>
        <time>2009-08-07T20:36:26Z</time>
      </trkpt>
      <trkpt lat="45.01866" lon="6.04736">
        <ele>1427</ele>
        <time>2009-08-07T20:36:26Z</time>
      </trkpt>
      <trkpt lat="45.01852" lon="6.04738">
        <ele>1427</ele>
        <time>2009-08-07T20:36:29Z</time>
      </trkpt>
      <trkpt lat="45.01828" lon="6.0473">
        <ele>1427</ele>
        <time>2009-08-07T20:36:33Z</time>
      </trkpt>
      <trkpt lat="45.01777" lon="6.0474">
        <ele>1414</ele>
        <time>2009-08-07T20:36:43Z</time>
      </trkpt>
      <trkpt lat="45.01748" lon="6.04737">
        <ele>1414</ele>
        <time>2009-08-07T20:36:48Z</time>
      </trkpt>
      <trkpt lat="45.0172" lon="6.04724">
        <ele>1414</ele>
        <time>2009-08-07T20:36:53Z</time>
      </trkpt>
      <trkpt lat="45.01689" lon="6.04686">
        <ele>1405</ele>
        <time>2009-08-07T20:37:01Z</time>
      </trkpt>
      <trkpt lat="45.01675" lon="6.04689">
        <ele>1405</ele>
        <time>2009-08-07T20:37:03Z</time>
      </trkpt>
      <trkpt lat="45.01676" lon="6.04714">
        <ele>1399</ele>
        <time>2009-08-07T20:37:07Z</time>
      </trkpt>
      <trkpt lat="45.01682" lon="6.04726">
        <ele>1399</ele>
        <time>2009-08-07T20:37:09Z</time>
      </trkpt>
      <trkpt lat="45.01729" lon="6.04777">
        <ele>1414</ele>
        <time>2009-08-07T20:37:19Z</time>
      </trkpt>
      <trkpt lat="45.01837" lon="6.04822">
        <ele>1403</ele>
        <time>2009-08-07T20:37:40Z</time>
      </trkpt>
      <trkpt lat="45.01878" lon="6.04826">
        <ele>1400</ele>
        <time>2009-08-07T20:37:47Z</time>
      </trkpt>
      <trkpt lat="45.01895" lon="6.04834">
        <ele>1400</ele>
        <time>2009-08-07T20:37:51Z</time>
      </trkpt>
      <trkpt lat="45.019" lon="6.04852">
        <ele>1400</ele>
        <time>2009-08-07T20:37:53Z</time>
      </trkpt>
      <trkpt lat="45.01897" lon="6.04876">
        <ele>1403</ele>
        <time>2009-08-07T20:37:56Z</time>
      </trkpt>
      <trkpt lat="45.01872" lon="6.04908">
        <ele>1393</ele>
        <time>2009-08-07T20:38:02Z</time>
      </trkpt>
      <trkpt lat="45.01851" lon="6.04972">
        <ele>1378</ele>
        <time>2009-08-07T20:38:11Z</time>
      </trkpt>
      <trkpt lat="45.01843" lon="6.04981">
        <ele>1378</ele>
        <time>2009-08-07T20:38:13Z</time>
      </trkpt>
      <trkpt lat="45.0178" lon="6.05008">
        <ele>1359</ele>
        <time>2009-08-07T20:38:25Z</time>
      </trkpt>
      <trkpt lat="45.01774" lon="6.05019">
        <ele>1359</ele>
        <time>2009-08-07T20:38:27Z</time>
      </trkpt>
      <trkpt lat="45.0178" lon="6.05034">
        <ele>1359</ele>
        <time>2009-08-07T20:38:29Z</time>
      </trkpt>
      <trkpt lat="45.0179" lon="6.05035">
        <ele>1359</ele>
        <time>2009-08-07T20:38:31Z</time>
      </trkpt>
      <trkpt lat="45.01824" lon="6.05023">
        <ele>1378</ele>
        <time>2009-08-07T20:38:37Z</time>
      </trkpt>
      <trkpt lat="45.01842" lon="6.05025">
        <ele>1378</ele>
        <time>2009-08-07T20:38:41Z</time>
      </trkpt>
      <trkpt lat="45.01898" lon="6.05047">
        <ele>1368</ele>
        <time>2009-08-07T20:38:51Z</time>
      </trkpt>
      <trkpt lat="45.01954" lon="6.05029">
        <ele>1390</ele>
        <time>2009-08-07T20:39:02Z</time>
      </trkpt>
      <trkpt lat="45.0196" lon="6.0503">
        <ele>1371</ele>
        <time>2009-08-07T20:39:03Z</time>
      </trkpt>
      <trkpt lat="45.01978" lon="6.05048">
        <ele>1345</ele>
        <time>2009-08-07T20:39:07Z</time>
      </trkpt>
      <trkpt lat="45.01992" lon="6.05046">
        <ele>1345</ele>
        <time>2009-08-07T20:39:09Z</time>
      </trkpt>
      <trkpt lat="45.02059" lon="6.04977">
        <ele>1342</ele>
        <time>2009-08-07T20:39:24Z</time>
      </trkpt>
      <trkpt lat="45.02076" lon="6.0494">
        <ele>1349</ele>
        <time>2009-08-07T20:39:30Z</time>
      </trkpt>
      <trkpt lat="45.02098" lon="6.04907">
        <ele>1349</ele>
        <time>2009-08-07T20:39:36Z</time>
      </trkpt>
      <trkpt lat="45.02099" lon="6.04856">
        <ele>1343</ele>
        <time>2009-08-07T20:39:43Z</time>
      </trkpt>
      <trkpt lat="45.02114" lon="6.04809">
        <ele>1343</ele>
        <time>2009-08-07T20:39:49Z</time>
      </trkpt>
      <trkpt lat="45.02103" lon="6.04756">
        <ele>1346</ele>
        <time>2009-08-07T20:39:56Z</time>
      </trkpt>
      <trkpt lat="45.02115" lon="6.04731">
        <ele>1346</ele>
        <time>2009-08-07T20:40:00Z</time>
      </trkpt>
      <trkpt lat="45.02188" lon="6.04668">
        <ele>1345</ele>
        <time>2009-08-07T20:40:16Z</time>
      </trkpt>
      <trkpt lat="45.02235" lon="6.04651">
        <ele>1318</ele>
        <time>2009-08-07T20:40:25Z</time>
      </trkpt>
      <trkpt lat="45.0234" lon="6.04586">
        <ele>1316</ele>
        <time>2009-08-07T20:40:45Z</time>
      </trkpt>
      <trkpt lat="45.02378" lon="6.0453">
        <ele>1307</ele>
        <time>2009-08-07T20:40:55Z</time>
      </trkpt>
      <trkpt lat="45.02472" lon="6.04445">
        <ele>1301</ele>
        <time>2009-08-07T20:41:16Z</time>
      </trkpt>
      <trkpt lat="45.02544" lon="6.04392">
        <ele>1262</ele>
        <time>2009-08-07T20:41:30Z</time>
      </trkpt>
      <trkpt lat="45.02556" lon="6.04391">
        <ele>1262</ele>
        <time>2009-08-07T20:41:33Z</time>
      </trkpt>
      <trkpt lat="45.0256" lon="6.04401">
        <ele>1262</ele>
        <time>2009-08-07T20:41:34Z</time>
      </trkpt>
      <trkpt lat="45.02558" lon="6.04407">
        <ele>1262</ele>
        <time>2009-08-07T20:41:35Z</time>
      </trkpt>
      <trkpt lat="45.02527" lon="6.04421">
        <ele>1301</ele>
        <time>2009-08-07T20:41:41Z</time>
      </trkpt>
      <trkpt lat="45.02489" lon="6.04458">
        <ele>1301</ele>
        <time>2009-08-07T20:41:49Z</time>
      </trkpt>
      <trkpt lat="45.02483" lon="6.04471">
        <ele>1269</ele>
        <time>2009-08-07T20:41:51Z</time>
      </trkpt>
      <trkpt lat="45.02464" lon="6.04536">
        <ele>1269</ele>
        <time>2009-08-07T20:42:00Z</time>
      </trkpt>
      <trkpt lat="45.02459" lon="6.046">
        <ele>1241</ele>
        <time>2009-08-07T20:42:09Z</time>
      </trkpt>
      <trkpt lat="45.02414" lon="6.04705">
        <ele>1265</ele>
        <time>2009-08-07T20:42:24Z</time>
      </trkpt>
      <trkpt lat="45.02402" lon="6.04764">
        <ele>1246</ele>
        <time>2009-08-07T20:42:32Z</time>
      </trkpt>
      <trkpt lat="45.02367" lon="6.04828">
        <ele>1261</ele>
        <time>2009-08-07T20:42:43Z</time>
      </trkpt>
      <trkpt lat="45.02358" lon="6.04874">
        <ele>1261</ele>
        <time>2009-08-07T20:42:49Z</time>
      </trkpt>
      <trkpt lat="45.02331" lon="6.04901">
        <ele>1243</ele>
        <time>2009-08-07T20:42:55Z</time>
      </trkpt>
      <trkpt lat="45.02329" lon="6.04942">
        <ele>1243</ele>
        <time>2009-08-07T20:43:00Z</time>
      </trkpt>
      <trkpt lat="45.02303" lon="6.04974">
        <ele>1224</ele>
        <time>2009-08-07T20:43:06Z</time>
      </trkpt>
      <trkpt lat="45.02307" lon="6.0498">
        <ele>1224</ele>
        <time>2009-08-07T20:43:07Z</time>
      </trkpt>
      <trkpt lat="45.02316" lon="6.04981">
        <ele>1224</ele>
        <time>2009-08-07T20:43:09Z</time>
      </trkpt>
      <trkpt lat="45.02341" lon="6.04961">
        <ele>1224</ele>
        <time>2009-08-07T20:43:14Z</time>
      </trkpt>
      <trkpt lat="45.02365" lon="6.04908">
        <ele>1243</ele>
        <time>2009-08-07T20:43:22Z</time>
      </trkpt>
      <trkpt lat="45.02381" lon="6.04887">
        <ele>1204</ele>
        <time>2009-08-07T20:43:26Z</time>
      </trkpt>
      <trkpt lat="45.02442" lon="6.04863">
        <ele>1225</ele>
        <time>2009-08-07T20:43:38Z</time>
      </trkpt>
      <trkpt lat="45.0246" lon="6.04848">
        <ele>1195</ele>
        <time>2009-08-07T20:43:42Z</time>
      </trkpt>
      <trkpt lat="45.02576" lon="6.04664">
        <ele>1190</ele>
        <time>2009-08-07T20:44:13Z</time>
      </trkpt>
      <trkpt lat="45.02619" lon="6.0458">
        <ele>1205</ele>
        <time>2009-08-07T20:44:27Z</time>
      </trkpt>
      <trkpt lat="45.02697" lon="6.04522">
        <ele>1197</ele>
        <time>2009-08-07T20:44:43Z</time>
      </trkpt>
      <trkpt lat="45.02716" lon="6.04496">
        <ele>1164</ele>
        <time>2009-08-07T20:44:48Z</time>
      </trkpt>
      <trkpt lat="45.02792" lon="6.04494">
        <ele>1140</ele>
        <time>2009-08-07T20:45:01Z</time>
      </trkpt>
      <trkpt lat="45.02855" lon="6.04446">
        <ele>1186</ele>
        <time>2009-08-07T20:45:14Z</time>
      </trkpt>
      <trkpt lat="45.02895" lon="6.04402">
        <ele>1139</ele>
        <time>2009-08-07T20:45:24Z</time>
      </trkpt>
      <trkpt lat="45.02905" lon="6.04406">
        <ele>1139</ele>
        <time>2009-08-07T20:45:26Z</time>
      </trkpt>
      <trkpt lat="45.02906" lon="6.04421">
        <ele>1139</ele>
        <time>2009-08-07T20:45:28Z</time>
      </trkpt>
      <trkpt lat="45.02868" lon="6.04475">
        <ele>1140</ele>
        <time>2009-08-07T20:45:37Z</time>
      </trkpt>
      <trkpt lat="45.02831" lon="6.0451">
        <ele>1140</ele>
        <time>2009-08-07T20:45:45Z</time>
      </trkpt>
      <trkpt lat="45.02804" lon="6.04547">
        <ele>1104</ele>
        <time>2009-08-07T20:45:52Z</time>
      </trkpt>
      <trkpt lat="45.02746" lon="6.04583">
        <ele>1130</ele>
        <time>2009-08-07T20:46:04Z</time>
      </trkpt>
      <trkpt lat="45.02703" lon="6.04623">
        <ele>1163</ele>
        <time>2009-08-07T20:46:13Z</time>
      </trkpt>
      <trkpt lat="45.02696" lon="6.04715">
        <ele>1123</ele>
        <time>2009-08-07T20:46:25Z</time>
      </trkpt>
      <trkpt lat="45.02683" lon="6.04741">
        <ele>1123</ele>
        <time>2009-08-07T20:46:29Z</time>
      </trkpt>
      <trkpt lat="45.02646" lon="6.04766">
        <ele>1123</ele>
        <time>2009-08-07T20:46:37Z</time>
      </trkpt>
      <trkpt lat="45.02609" lon="6.0482">
        <ele>1168</ele>
        <time>2009-08-07T20:46:46Z</time>
      </trkpt>
      <trkpt lat="45.02565" lon="6.04858">
        <ele>1168</ele>
        <time>2009-08-07T20:46:56Z</time>
      </trkpt>
      <trkpt lat="45.02568" lon="6.04866">
        <ele>1168</ele>
        <time>2009-08-07T20:46:57Z</time>
      </trkpt>
      <trkpt lat="45.0258" lon="6.04869">
        <ele>1168</ele>
        <time>2009-08-07T20:46:59Z</time>
      </trkpt>
      <trkpt lat="45.02596" lon="6.04863">
        <ele>1168</ele>
        <time>2009-08-07T20:47:02Z</time>
      </trkpt>
      <trkpt lat="45.02616" lon="6.04853">
        <ele>1168</ele>
        <time>2009-08-07T20:47:06Z</time>
      </trkpt>
      <trkpt lat="45.0264" lon="6.04804">
        <ele>1118</ele>
        <time>2009-08-07T20:47:14Z</time>
      </trkpt>
      <trkpt lat="45.02648" lon="6.04796">
        <ele>1118</ele>
        <time>2009-08-07T20:47:15Z</time>
      </trkpt>
      <trkpt lat="45.02719" lon="6.04786">
        <ele>1063</ele>
        <time>2009-08-07T20:47:28Z</time>
      </trkpt>
      <trkpt lat="45.02769" lon="6.04732">
        <ele>1063</ele>
        <time>2009-08-07T20:47:40Z</time>
      </trkpt>
      <trkpt lat="45.02793" lon="6.04711">
        <ele>1033</ele>
        <time>2009-08-07T20:47:45Z</time>
      </trkpt>
      <trkpt lat="45.02832" lon="6.04688">
        <ele>1062</ele>
        <time>2009-08-07T20:47:53Z</time>
      </trkpt>
      <trkpt lat="45.0286" lon="6.04661">
        <ele>1062</ele>
        <time>2009-08-07T20:47:59Z</time>
      </trkpt>
      <trkpt lat="45.02927" lon="6.04633">
        <ele>1022</ele>
        <time>2009-08-07T20:48:11Z</time>
      </trkpt>
      <trkpt lat="45.02954" lon="6.04576">
        <ele>1067</ele>
        <time>2009-08-07T20:48:20Z</time>
      </trkpt>
      <trkpt lat="45.0297" lon="6.04521">
        <ele>1017</ele>
        <time>2009-08-07T20:48:28Z</time>
      </trkpt>
      <trkpt lat="45.03" lon="6.04471">
        <ele>1017</ele>
        <time>2009-08-07T20:48:36Z</time>
      </trkpt>
      <trkpt lat="45.03054" lon="6.04405">
        <ele>1015</ele>
        <time>2009-08-07T20:48:49Z</time>
      </trkpt>
      <trkpt lat="45.03125" lon="6.04405">
        <ele>927</ele>
        <time>2009-08-07T20:49:02Z</time>
      </trkpt>
      <trkpt lat="45.03145" lon="6.04398">
        <ele>927</ele>
        <time>2009-08-07T20:49:06Z</time>
      </trkpt>
      <trkpt lat="45.03155" lon="6.0438">
        <ele>927</ele>
        <time>2009-08-07T20:49:09Z</time>
      </trkpt>
      <trkpt lat="45.03173" lon="6.04253">
        <ele>1082</ele>
        <time>2009-08-07T20:49:26Z</time>
      </trkpt>
      <trkpt lat="45.0318" lon="6.04229">
        <ele>1082</ele>
        <time>2009-08-07T20:49:29Z</time>
      </trkpt>
      <trkpt lat="45.03198" lon="6.04208">
        <ele>1108</ele>
        <time>2009-08-07T20:49:33Z</time>
      </trkpt>
      <trkpt lat="45.03242" lon="6.04188">
        <ele>1099</ele>
        <time>2009-08-07T20:49:42Z</time>
      </trkpt>
      <trkpt lat="45.03274" lon="6.04183">
        <ele>1099</ele>
        <time>2009-08-07T20:49:47Z</time>
      </trkpt>
      <trkpt lat="45.03324" lon="6.04197">
        <ele>1034</ele>
        <time>2009-08-07T20:49:57Z</time>
      </trkpt>
      <trkpt lat="45.03394" lon="6.04204">
        <ele>879</ele>
        <time>2009-08-07T20:50:10Z</time>
      </trkpt>
      <trkpt lat="45.03437" lon="6.04195">
        <ele>786</ele>
        <time>2009-08-07T20:50:17Z</time>
      </trkpt>
      <trkpt lat="45.03444" lon="6.04183">
        <ele>789</ele>
        <time>2009-08-07T20:50:19Z</time>
      </trkpt>
      <trkpt lat="45.03463" lon="6.04082">
        <ele>830</ele>
        <time>2009-08-07T20:50:33Z</time>
      </trkpt>
      <trkpt lat="45.03489" lon="6.04028">
        <ele>1057</ele>
        <time>2009-08-07T20:50:41Z</time>
      </trkpt>
      <trkpt lat="45.03509" lon="6.04005">
        <ele>1057</ele>
        <time>2009-08-07T20:50:46Z</time>
      </trkpt>
      <trkpt lat="45.03537" lon="6.03988">
        <ele>1057</ele>
        <time>2009-08-07T20:50:52Z</time>
      </trkpt>
      <trkpt lat="45.03549" lon="6.03974">
        <ele>781</ele>
        <time>2009-08-07T20:50:54Z</time>
      </trkpt>
      <trkpt lat="45.03564" lon="6.03942">
        <ele>967</ele>
        <time>2009-08-07T20:50:59Z</time>
      </trkpt>
      <trkpt lat="45.03586" lon="6.03913">
        <ele>967</ele>
        <time>2009-08-07T20:51:05Z</time>
      </trkpt>
      <trkpt lat="45.03593" lon="6.03887">
        <ele>967</ele>
        <time>2009-08-07T20:51:08Z</time>
      </trkpt>
      <trkpt lat="45.03616" lon="6.03834">
        <ele>1045</ele>
        <time>2009-08-07T20:51:16Z</time>
      </trkpt>
      <trkpt lat="45.03644" lon="6.03793">
        <ele>882</ele>
        <time>2009-08-07T20:51:24Z</time>
      </trkpt>
      <trkpt lat="45.03671" lon="6.03791">
        <ele>932</ele>
        <time>2009-08-07T20:51:29Z</time>
      </trkpt>
      <trkpt lat="45.03701" lon="6.03777">
        <ele>932</ele>
        <time>2009-08-07T20:51:34Z</time>
      </trkpt>
      <trkpt lat="45.03719" lon="6.03744">
        <ele>865</ele>
        <time>2009-08-07T20:51:40Z</time>
      </trkpt>
      <trkpt lat="45.03738" lon="6.03729">
        <ele>865</ele>
        <time>2009-08-07T20:51:44Z</time>
      </trkpt>
      <trkpt lat="45.03768" lon="6.03661">
        <ele>921</ele>
        <time>2009-08-07T20:51:54Z</time>
      </trkpt>
      <trkpt lat="45.0388" lon="6.03489">
        <ele>804</ele>
        <time>2009-08-07T20:52:24Z</time>
      </trkpt>
      <trkpt lat="45.03911" lon="6.0343">
        <ele>870</ele>
        <time>2009-08-07T20:52:33Z</time>
      </trkpt>
      <trkpt lat="45.0396" lon="6.03316">
        <ele>799</ele>
        <time>2009-08-07T20:52:51Z</time>
      </trkpt>
      <trkpt lat="45.04002" lon="6.03191">
        <ele>917</ele>
        <time>2009-08-07T20:53:08Z</time>
      </trkpt>
      <trkpt lat="45.04051" lon="6.03088">
        <ele>819</ele>
        <time>2009-08-07T20:53:24Z</time>
      </trkpt>
      <trkpt lat="45.04081" lon="6.02992">
        <ele>875</ele>
        <time>2009-08-07T20:53:38Z</time>
      </trkpt>
      <trkpt lat="45.04098" lon="6.0298">
        <ele>875</ele>
        <time>2009-08-07T20:53:41Z</time>
      </trkpt>
      <trkpt lat="45.04161" lon="6.02964">
        <ele>813</ele>
        <time>2009-08-07T20:53:53Z</time>
      </trkpt>
      <trkpt lat="45.04223" lon="6.02933">
        <ele>823</ele>
        <time>2009-08-07T20:54:05Z</time>
      </trkpt>
      <trkpt lat="45.04276" lon="6.02928">
        <ele>823</ele>
        <time>2009-08-07T20:54:15Z</time>
      </trkpt>
      <trkpt lat="45.04316" lon="6.02896">
        <ele>809</ele>
        <time>2009-08-07T20:54:23Z</time>
      </trkpt>
      <trkpt lat="45.04344" lon="6.02883">
        <ele>809</ele>
        <time>2009-08-07T20:54:28Z</time>
      </trkpt>
      <trkpt lat="45.04394" lon="6.02843">
        <ele>808</ele>
        <time>2009-08-07T20:54:39Z</time>
      </trkpt>
      <trkpt lat="45.04466" lon="6.02816">
        <ele>792</ele>
        <time>2009-08-07T20:54:52Z</time>
      </trkpt>
      <trkpt lat="45.04511" lon="6.02805">
        <ele>792</ele>
        <time>2009-08-07T20:55:01Z</time>
      </trkpt>
      <trkpt lat="45.04632" lon="6.02736">
        <ele>779</ele>
        <time>2009-08-07T20:55:24Z</time>
      </trkpt>
      <trkpt lat="45.04641" lon="6.02737">
        <ele>779</ele>
        <time>2009-08-07T20:55:26Z</time>
      </trkpt>
      <trkpt lat="45.04696" lon="6.02771">
        <ele>779</ele>
        <time>2009-08-07T20:55:37Z</time>
      </trkpt>
      <trkpt lat="45.04729" lon="6.02781">
        <ele>771</ele>
        <time>2009-08-07T20:55:43Z</time>
      </trkpt>
      <trkpt lat="45.04864" lon="6.02719">
        <ele>757</ele>
        <time>2009-08-07T20:56:09Z</time>
      </trkpt>
      <trkpt lat="45.04895" lon="6.02724">
        <ele>737</ele>
        <time>2009-08-07T20:56:15Z</time>
      </trkpt>
      <trkpt lat="45.04919" lon="6.02753">
        <ele>737</ele>
        <time>2009-08-07T20:56:20Z</time>
      </trkpt>
      <trkpt lat="45.04952" lon="6.02816">
        <ele>723</ele>
        <time>2009-08-07T20:56:30Z</time>
      </trkpt>
      <trkpt lat="45.04995" lon="6.02864">
        <ele>730</ele>
        <time>2009-08-07T20:56:40Z</time>
      </trkpt>
      <trkpt lat="45.05049" lon="6.02903">
        <ele>727</ele>
        <time>2009-08-07T20:56:51Z</time>
      </trkpt>
      <trkpt lat="45.05096" lon="6.02929">
        <ele>727</ele>
        <time>2009-08-07T20:57:01Z</time>
      </trkpt>
      <trkpt lat="45.05171" lon="6.02961">
        <ele>725</ele>
        <time>2009-08-07T20:57:15Z</time>
      </trkpt>
      <trkpt lat="45.05257" lon="6.02947">
        <ele>733</ele>
        <time>2009-08-07T20:57:31Z</time>
      </trkpt>
      <trkpt lat="45.05339" lon="6.02897">
        <ele>731</ele>
        <time>2009-08-07T20:57:47Z</time>
      </trkpt>
      <trkpt lat="45.05459" lon="6.02867">
        <ele>728</ele>
        <time>2009-08-07T20:58:09Z</time>
      </trkpt>
      <trkpt lat="45.05489" lon="6.02974">
        <ele>726</ele>
        <time>2009-08-07T20:58:24Z</time>
      </trkpt>
      <trkpt lat="45.055" lon="6.02977">
        <ele>726</ele>
        <time>2009-08-07T20:58:26Z</time>
      </trkpt>
      <trkpt lat="45.05491" lon="6.03006">
        <ele>726</ele>
        <time>2009-08-07T20:58:30Z</time>
      </trkpt>
      <trkpt lat="45.05469" lon="6.03162">
        <ele>721</ele>
        <time>2009-08-07T20:58:50Z</time>
      </trkpt>
      <trkpt lat="45.05476" lon="6.03199">
        <ele>721</ele>
        <time>2009-08-07T20:58:55Z</time>
      </trkpt>
      <trkpt lat="45.05487" lon="6.03228">
        <ele>720</ele>
        <time>2009-08-07T20:59:00Z</time>
      </trkpt>
      <trkpt lat="45.0551" lon="6.03267">
        <ele>720</ele>
        <time>2009-08-07T20:59:06Z</time>
      </trkpt>
      <trkpt lat="45.0569" lon="6.03472">
        <ele>721</ele>
        <time>2009-08-07T20:59:48Z</time>
      </trkpt>
      <trkpt lat="45.05721" lon="6.03515">
        <ele>718</ele>
        <time>2009-08-07T20:59:56Z</time>
      </trkpt>
      <trkpt lat="45.0573" lon="6.03518">
        <ele>718</ele>
        <time>2009-08-07T20:59:58Z</time>
      </trkpt>
      <trkpt lat="45.05835" lon="6.03644">
        <ele>721</ele>
        <time>2009-08-07T21:00:23Z</time>
      </trkpt>
      <trkpt lat="45.05912" lon="6.03758">
        <ele>724</ele>
        <time>2009-08-07T21:00:43Z</time>
      </trkpt>
      <trkpt lat="45.05907" lon="6.03769">
        <ele>724</ele>
        <time>2009-08-07T21:00:45Z</time>
      </trkpt>
      <trkpt lat="45.05906" lon="6.03786">
        <ele>724</ele>
        <time>2009-08-07T21:00:47Z</time>
      </trkpt>
      <trkpt lat="45.05913" lon="6.038">
        <ele>721</ele>
        <time>2009-08-07T21:00:49Z</time>
      </trkpt>
      <trkpt lat="45.05922" lon="6.03806">
        <ele>721</ele>
        <time>2009-08-07T21:00:51Z</time>
      </trkpt>
      <trkpt lat="45.05932" lon="6.03804">
        <ele>721</ele>
        <time>2009-08-07T21:00:53Z</time>
      </trkpt>
      <trkpt lat="45.05941" lon="6.03794">
        <ele>721</ele>
        <time>2009-08-07T21:00:55Z</time>
      </trkpt>
      <trkpt lat="45.05944" lon="6.03777">
        <ele>724</ele>
        <time>2009-08-07T21:00:57Z</time>
      </trkpt>
      <trkpt lat="45.05962" lon="6.03773">
        <ele>722</ele>
        <time>2009-08-07T21:01:00Z</time>
      </trkpt>
    </trkseg>
  </trk>
</gpx>